<?xml version="1.0" encoding="UTF-8" standalone="no" ?>
<gpx xmlns="http://www.topografix.com/GPX/1/1" xmlns:xsi="http://www.w3.org/2001/XMLSchema-instance" xsi:schemaLocation="http://www.topografix.com/GPX/1/1 http://www.topografix.com/GPX/1/1/gpx.xsd" version="1.1" creator="VisuGPX - https://www.visugpx.com">
  <metadata>
    <name>Balade Le Touquet de la thalasso à la pointe du Touquet</name>
    <desc><![CDATA[
Circuit traditionnel du touquet passant par le GR120]]></desc>
  </metadata>
  <trk>
    <name><![CDATA[SityTrail - Balade Le Touquet]]></name>
    <trkseg>
      <trkpt lat="50.51406" lon="1.57811">
        <ele>13</ele>
        <time>2023-02-19T08:25:17.741Z</time>
      </trkpt>
      <trkpt lat="50.51406" lon="1.57811">
        <ele>13</ele>
        <time>2023-02-19T08:25:17.741Z</time>
      </trkpt>
      <trkpt lat="50.51414" lon="1.57838">
        <ele>15</ele>
        <time>2023-02-19T08:25:18.258Z</time>
      </trkpt>
      <trkpt lat="50.51411" lon="1.57842">
        <ele>15</ele>
        <time>2023-02-19T08:25:22.812Z</time>
      </trkpt>
      <trkpt lat="50.51404" lon="1.57822">
        <ele>15</ele>
        <time>2023-02-19T08:25:27.804Z</time>
      </trkpt>
      <trkpt lat="50.51401" lon="1.57823">
        <ele>15</ele>
        <time>2023-02-19T08:25:32.814Z</time>
      </trkpt>
      <trkpt lat="50.51401" lon="1.57828">
        <ele>15</ele>
        <time>2023-02-19T08:25:37.426Z</time>
      </trkpt>
      <trkpt lat="50.51403" lon="1.57833">
        <ele>15</ele>
        <time>2023-02-19T08:25:41.499Z</time>
      </trkpt>
      <trkpt lat="50.51401" lon="1.57842">
        <ele>15</ele>
        <time>2023-02-19T08:25:46.769Z</time>
      </trkpt>
      <trkpt lat="50.51397" lon="1.57846">
        <ele>15</ele>
        <time>2023-02-19T08:25:51.439Z</time>
      </trkpt>
      <trkpt lat="50.51391" lon="1.57845">
        <ele>15</ele>
        <time>2023-02-19T08:25:55.629Z</time>
      </trkpt>
      <trkpt lat="50.51386" lon="1.57844">
        <ele>15</ele>
        <time>2023-02-19T08:26:00.592Z</time>
      </trkpt>
      <trkpt lat="50.51382" lon="1.57843">
        <ele>15</ele>
        <time>2023-02-19T08:26:04.970Z</time>
      </trkpt>
      <trkpt lat="50.51381" lon="1.57846">
        <ele>15</ele>
        <time>2023-02-19T08:26:07.364Z</time>
      </trkpt>
      <trkpt lat="50.51378" lon="1.57849">
        <ele>17</ele>
        <time>2023-02-19T08:26:41.761Z</time>
      </trkpt>
      <trkpt lat="50.51376" lon="1.57849">
        <ele>17</ele>
        <time>2023-02-19T08:26:45.836Z</time>
      </trkpt>
      <trkpt lat="50.51375" lon="1.57847">
        <ele>14</ele>
        <time>2023-02-19T08:26:50.013Z</time>
      </trkpt>
      <trkpt lat="50.51376" lon="1.57842">
        <ele>15</ele>
        <time>2023-02-19T08:26:54.646Z</time>
      </trkpt>
      <trkpt lat="50.51381" lon="1.57836">
        <ele>15</ele>
        <time>2023-02-19T08:26:58.600Z</time>
      </trkpt>
      <trkpt lat="50.51391" lon="1.57837">
        <ele>15</ele>
        <time>2023-02-19T08:27:03.392Z</time>
      </trkpt>
      <trkpt lat="50.51399" lon="1.5784">
        <ele>15</ele>
        <time>2023-02-19T08:27:08.155Z</time>
      </trkpt>
      <trkpt lat="50.51403" lon="1.57836">
        <ele>15</ele>
        <time>2023-02-19T08:27:12.059Z</time>
      </trkpt>
      <trkpt lat="50.51403" lon="1.57831">
        <ele>15</ele>
        <time>2023-02-19T08:27:16.685Z</time>
      </trkpt>
      <trkpt lat="50.51405" lon="1.57829">
        <ele>15</ele>
        <time>2023-02-19T08:27:21.276Z</time>
      </trkpt>
      <trkpt lat="50.51412" lon="1.57829">
        <ele>15</ele>
        <time>2023-02-19T08:27:25.910Z</time>
      </trkpt>
      <trkpt lat="50.51418" lon="1.57833">
        <ele>15</ele>
        <time>2023-02-19T08:27:30.369Z</time>
      </trkpt>
      <trkpt lat="50.51424" lon="1.57836">
        <ele>15</ele>
        <time>2023-02-19T08:27:34.578Z</time>
      </trkpt>
      <trkpt lat="50.51431" lon="1.57834">
        <ele>15</ele>
        <time>2023-02-19T08:27:38.623Z</time>
      </trkpt>
      <trkpt lat="50.51437" lon="1.57836">
        <ele>15</ele>
        <time>2023-02-19T08:27:43.419Z</time>
      </trkpt>
      <trkpt lat="50.51442" lon="1.57836">
        <ele>15</ele>
        <time>2023-02-19T08:27:47.374Z</time>
      </trkpt>
      <trkpt lat="50.51449" lon="1.57836">
        <ele>15</ele>
        <time>2023-02-19T08:27:52.391Z</time>
      </trkpt>
      <trkpt lat="50.51452" lon="1.57837">
        <ele>15</ele>
        <time>2023-02-19T08:27:56.587Z</time>
      </trkpt>
      <trkpt lat="50.51458" lon="1.57835">
        <ele>15</ele>
        <time>2023-02-19T08:28:01.408Z</time>
      </trkpt>
      <trkpt lat="50.51463" lon="1.57833">
        <ele>15</ele>
        <time>2023-02-19T08:28:06.012Z</time>
      </trkpt>
      <trkpt lat="50.51465" lon="1.57837">
        <ele>15</ele>
        <time>2023-02-19T08:28:10.409Z</time>
      </trkpt>
      <trkpt lat="50.51472" lon="1.57838">
        <ele>15</ele>
        <time>2023-02-19T08:28:14.243Z</time>
      </trkpt>
      <trkpt lat="50.51476" lon="1.57836">
        <ele>15</ele>
        <time>2023-02-19T08:28:18.819Z</time>
      </trkpt>
      <trkpt lat="50.51482" lon="1.5784">
        <ele>15</ele>
        <time>2023-02-19T08:28:22.825Z</time>
      </trkpt>
      <trkpt lat="50.51489" lon="1.57843">
        <ele>13</ele>
        <time>2023-02-19T08:28:27.571Z</time>
      </trkpt>
      <trkpt lat="50.51497" lon="1.57839">
        <ele>13</ele>
        <time>2023-02-19T08:28:32.670Z</time>
      </trkpt>
      <trkpt lat="50.51502" lon="1.57841">
        <ele>13</ele>
        <time>2023-02-19T08:28:36.606Z</time>
      </trkpt>
      <trkpt lat="50.51508" lon="1.57842">
        <ele>13</ele>
        <time>2023-02-19T08:28:41.760Z</time>
      </trkpt>
      <trkpt lat="50.51512" lon="1.57844">
        <ele>13</ele>
        <time>2023-02-19T08:28:46.214Z</time>
      </trkpt>
      <trkpt lat="50.51518" lon="1.57842">
        <ele>12</ele>
        <time>2023-02-19T08:28:50.375Z</time>
      </trkpt>
      <trkpt lat="50.51523" lon="1.57842">
        <ele>12</ele>
        <time>2023-02-19T08:28:54.335Z</time>
      </trkpt>
      <trkpt lat="50.51529" lon="1.57843">
        <ele>12</ele>
        <time>2023-02-19T08:28:58.286Z</time>
      </trkpt>
      <trkpt lat="50.51533" lon="1.57844">
        <ele>12</ele>
        <time>2023-02-19T08:29:02.955Z</time>
      </trkpt>
      <trkpt lat="50.51539" lon="1.57846">
        <ele>12</ele>
        <time>2023-02-19T08:29:07.623Z</time>
      </trkpt>
      <trkpt lat="50.51543" lon="1.57846">
        <ele>12</ele>
        <time>2023-02-19T08:29:11.805Z</time>
      </trkpt>
      <trkpt lat="50.51549" lon="1.57848">
        <ele>14</ele>
        <time>2023-02-19T08:29:15.849Z</time>
      </trkpt>
      <trkpt lat="50.51555" lon="1.57849">
        <ele>14</ele>
        <time>2023-02-19T08:29:19.966Z</time>
      </trkpt>
      <trkpt lat="50.51561" lon="1.5783">
        <ele>12</ele>
        <time>2023-02-19T08:29:29.574Z</time>
      </trkpt>
      <trkpt lat="50.51563" lon="1.57832">
        <ele>12</ele>
        <time>2023-02-19T08:29:33.588Z</time>
      </trkpt>
      <trkpt lat="50.51568" lon="1.57836">
        <ele>12</ele>
        <time>2023-02-19T08:29:37.776Z</time>
      </trkpt>
      <trkpt lat="50.51574" lon="1.57835">
        <ele>11</ele>
        <time>2023-02-19T08:29:41.605Z</time>
      </trkpt>
      <trkpt lat="50.51579" lon="1.57824">
        <ele>11</ele>
        <time>2023-02-19T08:29:46.269Z</time>
      </trkpt>
      <trkpt lat="50.51584" lon="1.5782">
        <ele>11</ele>
        <time>2023-02-19T08:29:50.813Z</time>
      </trkpt>
      <trkpt lat="50.51589" lon="1.57815">
        <ele>8</ele>
        <time>2023-02-19T08:29:55.359Z</time>
      </trkpt>
      <trkpt lat="50.51595" lon="1.57816">
        <ele>8</ele>
        <time>2023-02-19T08:29:59.313Z</time>
      </trkpt>
      <trkpt lat="50.51603" lon="1.57817">
        <ele>7</ele>
        <time>2023-02-19T08:30:04.833Z</time>
      </trkpt>
      <trkpt lat="50.51609" lon="1.57819">
        <ele>7</ele>
        <time>2023-02-19T08:30:08.400Z</time>
      </trkpt>
      <trkpt lat="50.51614" lon="1.57819">
        <ele>7</ele>
        <time>2023-02-19T08:30:13.193Z</time>
      </trkpt>
      <trkpt lat="50.51619" lon="1.57819">
        <ele>7</ele>
        <time>2023-02-19T08:30:17.508Z</time>
      </trkpt>
      <trkpt lat="50.51625" lon="1.57817">
        <ele>7</ele>
        <time>2023-02-19T08:30:26.012Z</time>
      </trkpt>
      <trkpt lat="50.51627" lon="1.57821">
        <ele>8</ele>
        <time>2023-02-19T08:30:30.629Z</time>
      </trkpt>
      <trkpt lat="50.51627" lon="1.57826">
        <ele>8</ele>
        <time>2023-02-19T08:30:34.581Z</time>
      </trkpt>
      <trkpt lat="50.51628" lon="1.5783">
        <ele>8</ele>
        <time>2023-02-19T08:30:39.140Z</time>
      </trkpt>
      <trkpt lat="50.51637" lon="1.57827">
        <ele>8</ele>
        <time>2023-02-19T08:30:43.196Z</time>
      </trkpt>
      <trkpt lat="50.51643" lon="1.57813">
        <ele>7</ele>
        <time>2023-02-19T08:30:47.740Z</time>
      </trkpt>
      <trkpt lat="50.51647" lon="1.57805">
        <ele>7</ele>
        <time>2023-02-19T08:30:51.566Z</time>
      </trkpt>
      <trkpt lat="50.51649" lon="1.57796">
        <ele>7</ele>
        <time>2023-02-19T08:30:55.631Z</time>
      </trkpt>
      <trkpt lat="50.51648" lon="1.57791">
        <ele>6</ele>
        <time>2023-02-19T08:31:00.414Z</time>
      </trkpt>
      <trkpt lat="50.51648" lon="1.57788">
        <ele>6</ele>
        <time>2023-02-19T08:31:04.362Z</time>
      </trkpt>
      <trkpt lat="50.51647" lon="1.5779">
        <ele>6</ele>
        <time>2023-02-19T08:31:08.430Z</time>
      </trkpt>
      <trkpt lat="50.51644" lon="1.57791">
        <ele>6</ele>
        <time>2023-02-19T08:31:13.212Z</time>
      </trkpt>
      <trkpt lat="50.51638" lon="1.57793">
        <ele>7</ele>
        <time>2023-02-19T08:31:17.757Z</time>
      </trkpt>
      <trkpt lat="50.51633" lon="1.5779">
        <ele>6</ele>
        <time>2023-02-19T08:31:22.179Z</time>
      </trkpt>
      <trkpt lat="50.51629" lon="1.57787">
        <ele>6</ele>
        <time>2023-02-19T08:31:26.723Z</time>
      </trkpt>
      <trkpt lat="50.51626" lon="1.5778">
        <ele>6</ele>
        <time>2023-02-19T08:31:31.283Z</time>
      </trkpt>
      <trkpt lat="50.51626" lon="1.57773">
        <ele>6</ele>
        <time>2023-02-19T08:31:35.452Z</time>
      </trkpt>
      <trkpt lat="50.51628" lon="1.57766">
        <ele>6</ele>
        <time>2023-02-19T08:31:39.619Z</time>
      </trkpt>
      <trkpt lat="50.51628" lon="1.57759">
        <ele>3</ele>
        <time>2023-02-19T08:31:43.843Z</time>
      </trkpt>
      <trkpt lat="50.51629" lon="1.57753">
        <ele>3</ele>
        <time>2023-02-19T08:31:47.846Z</time>
      </trkpt>
      <trkpt lat="50.5163" lon="1.57745">
        <ele>3</ele>
        <time>2023-02-19T08:31:52.214Z</time>
      </trkpt>
      <trkpt lat="50.51632" lon="1.57739">
        <ele>3</ele>
        <time>2023-02-19T08:31:56.712Z</time>
      </trkpt>
      <trkpt lat="50.51633" lon="1.57734">
        <ele>4.7</ele>
        <time>2023-02-19T08:32:00.776Z</time>
      </trkpt>
      <trkpt lat="50.51636" lon="1.57731">
        <ele>4.6</ele>
        <time>2023-02-19T08:32:05.416Z</time>
      </trkpt>
      <trkpt lat="50.51639" lon="1.57729">
        <ele>4.5</ele>
        <time>2023-02-19T08:32:10.060Z</time>
      </trkpt>
      <trkpt lat="50.51645" lon="1.57729">
        <ele>4.5</ele>
        <time>2023-02-19T08:32:14.453Z</time>
      </trkpt>
      <trkpt lat="50.51649" lon="1.57727">
        <ele>4.3</ele>
        <time>2023-02-19T08:32:19.640Z</time>
      </trkpt>
      <trkpt lat="50.51652" lon="1.57724">
        <ele>4.1</ele>
        <time>2023-02-19T08:32:23.318Z</time>
      </trkpt>
      <trkpt lat="50.5166" lon="1.57725">
        <ele>4.2</ele>
        <time>2023-02-19T08:32:27.598Z</time>
      </trkpt>
      <trkpt lat="50.51664" lon="1.57723">
        <ele>4.1</ele>
        <time>2023-02-19T08:32:32.620Z</time>
      </trkpt>
      <trkpt lat="50.51668" lon="1.57722">
        <ele>4</ele>
        <time>2023-02-19T08:32:37.125Z</time>
      </trkpt>
      <trkpt lat="50.51671" lon="1.57719">
        <ele>4</ele>
        <time>2023-02-19T08:32:41.605Z</time>
      </trkpt>
      <trkpt lat="50.51675" lon="1.57719">
        <ele>4</ele>
        <time>2023-02-19T08:32:45.522Z</time>
      </trkpt>
      <trkpt lat="50.51682" lon="1.57718">
        <ele>4</ele>
        <time>2023-02-19T08:32:50.121Z</time>
      </trkpt>
      <trkpt lat="50.51687" lon="1.57718">
        <ele>4</ele>
        <time>2023-02-19T08:32:54.577Z</time>
      </trkpt>
      <trkpt lat="50.51692" lon="1.57719">
        <ele>4</ele>
        <time>2023-02-19T08:32:58.589Z</time>
      </trkpt>
      <trkpt lat="50.51697" lon="1.57721">
        <ele>4</ele>
        <time>2023-02-19T08:33:02.605Z</time>
      </trkpt>
      <trkpt lat="50.51702" lon="1.57722">
        <ele>4</ele>
        <time>2023-02-19T08:33:07.361Z</time>
      </trkpt>
      <trkpt lat="50.51706" lon="1.57723">
        <ele>4</ele>
        <time>2023-02-19T08:33:11.674Z</time>
      </trkpt>
      <trkpt lat="50.51711" lon="1.57722">
        <ele>4</ele>
        <time>2023-02-19T08:33:16.060Z</time>
      </trkpt>
      <trkpt lat="50.51714" lon="1.57722">
        <ele>4</ele>
        <time>2023-02-19T08:33:20.059Z</time>
      </trkpt>
      <trkpt lat="50.51718" lon="1.57723">
        <ele>4</ele>
        <time>2023-02-19T08:33:24.776Z</time>
      </trkpt>
      <trkpt lat="50.51723" lon="1.57723">
        <ele>4</ele>
        <time>2023-02-19T08:33:28.984Z</time>
      </trkpt>
      <trkpt lat="50.51729" lon="1.57722">
        <ele>4</ele>
        <time>2023-02-19T08:33:33.523Z</time>
      </trkpt>
      <trkpt lat="50.51734" lon="1.57721">
        <ele>4</ele>
        <time>2023-02-19T08:33:37.950Z</time>
      </trkpt>
      <trkpt lat="50.51739" lon="1.57721">
        <ele>4</ele>
        <time>2023-02-19T08:33:42.324Z</time>
      </trkpt>
      <trkpt lat="50.51745" lon="1.57721">
        <ele>4</ele>
        <time>2023-02-19T08:33:46.761Z</time>
      </trkpt>
      <trkpt lat="50.51751" lon="1.5772">
        <ele>4</ele>
        <time>2023-02-19T08:33:51.059Z</time>
      </trkpt>
      <trkpt lat="50.51756" lon="1.5772">
        <ele>4</ele>
        <time>2023-02-19T08:33:55.565Z</time>
      </trkpt>
      <trkpt lat="50.5176" lon="1.5772">
        <ele>4</ele>
        <time>2023-02-19T08:33:59.763Z</time>
      </trkpt>
      <trkpt lat="50.51765" lon="1.57719">
        <ele>4</ele>
        <time>2023-02-19T08:34:04.035Z</time>
      </trkpt>
      <trkpt lat="50.5177" lon="1.57719">
        <ele>4</ele>
        <time>2023-02-19T08:34:08.470Z</time>
      </trkpt>
      <trkpt lat="50.51776" lon="1.57718">
        <ele>4</ele>
        <time>2023-02-19T08:34:13.475Z</time>
      </trkpt>
      <trkpt lat="50.51782" lon="1.57718">
        <ele>4</ele>
        <time>2023-02-19T08:34:17.997Z</time>
      </trkpt>
      <trkpt lat="50.51786" lon="1.57718">
        <ele>4</ele>
        <time>2023-02-19T08:34:22.313Z</time>
      </trkpt>
      <trkpt lat="50.5179" lon="1.57724">
        <ele>4.1</ele>
        <time>2023-02-19T08:34:26.376Z</time>
      </trkpt>
      <trkpt lat="50.51798" lon="1.57727">
        <ele>4.2</ele>
        <time>2023-02-19T08:34:31.048Z</time>
      </trkpt>
      <trkpt lat="50.51805" lon="1.57728">
        <ele>4.2</ele>
        <time>2023-02-19T08:34:35.596Z</time>
      </trkpt>
      <trkpt lat="50.51811" lon="1.57728">
        <ele>4.2</ele>
        <time>2023-02-19T08:34:40.263Z</time>
      </trkpt>
      <trkpt lat="50.51818" lon="1.57727">
        <ele>4.2</ele>
        <time>2023-02-19T08:34:44.865Z</time>
      </trkpt>
      <trkpt lat="50.51826" lon="1.57722">
        <ele>4</ele>
        <time>2023-02-19T08:34:48.999Z</time>
      </trkpt>
      <trkpt lat="50.51832" lon="1.5772">
        <ele>3.9</ele>
        <time>2023-02-19T08:34:53.460Z</time>
      </trkpt>
      <trkpt lat="50.51838" lon="1.57719">
        <ele>3.9</ele>
        <time>2023-02-19T08:34:57.604Z</time>
      </trkpt>
      <trkpt lat="50.51842" lon="1.57718">
        <ele>3.8</ele>
        <time>2023-02-19T08:35:01.431Z</time>
      </trkpt>
      <trkpt lat="50.51847" lon="1.57719">
        <ele>3.9</ele>
        <time>2023-02-19T08:35:05.977Z</time>
      </trkpt>
      <trkpt lat="50.51852" lon="1.57723">
        <ele>4</ele>
        <time>2023-02-19T08:35:10.035Z</time>
      </trkpt>
      <trkpt lat="50.51858" lon="1.57725">
        <ele>4.1</ele>
        <time>2023-02-19T08:35:14.579Z</time>
      </trkpt>
      <trkpt lat="50.51863" lon="1.57727">
        <ele>4.2</ele>
        <time>2023-02-19T08:35:18.404Z</time>
      </trkpt>
      <trkpt lat="50.51868" lon="1.57728">
        <ele>4.2</ele>
        <time>2023-02-19T08:35:23.059Z</time>
      </trkpt>
      <trkpt lat="50.51873" lon="1.57728">
        <ele>4.2</ele>
        <time>2023-02-19T08:35:27.374Z</time>
      </trkpt>
      <trkpt lat="50.51879" lon="1.57727">
        <ele>4.2</ele>
        <time>2023-02-19T08:35:31.801Z</time>
      </trkpt>
      <trkpt lat="50.51885" lon="1.57728">
        <ele>4.2</ele>
        <time>2023-02-19T08:35:36.227Z</time>
      </trkpt>
      <trkpt lat="50.51891" lon="1.57729">
        <ele>4.2</ele>
        <time>2023-02-19T08:35:40.773Z</time>
      </trkpt>
      <trkpt lat="50.51896" lon="1.57728">
        <ele>4.2</ele>
        <time>2023-02-19T08:35:45.299Z</time>
      </trkpt>
      <trkpt lat="50.51902" lon="1.57728">
        <ele>4.1</ele>
        <time>2023-02-19T08:35:49.366Z</time>
      </trkpt>
      <trkpt lat="50.51906" lon="1.57728">
        <ele>4.1</ele>
        <time>2023-02-19T08:35:53.793Z</time>
      </trkpt>
      <trkpt lat="50.51911" lon="1.57729">
        <ele>4</ele>
        <time>2023-02-19T08:35:58.212Z</time>
      </trkpt>
      <trkpt lat="50.51916" lon="1.57732">
        <ele>4</ele>
        <time>2023-02-19T08:36:02.601Z</time>
      </trkpt>
      <trkpt lat="50.51921" lon="1.57737">
        <ele>4</ele>
        <time>2023-02-19T08:36:06.587Z</time>
      </trkpt>
      <trkpt lat="50.51926" lon="1.57736">
        <ele>4</ele>
        <time>2023-02-19T08:36:11.315Z</time>
      </trkpt>
      <trkpt lat="50.51932" lon="1.57738">
        <ele>4</ele>
        <time>2023-02-19T08:36:15.681Z</time>
      </trkpt>
      <trkpt lat="50.51939" lon="1.57741">
        <ele>4</ele>
        <time>2023-02-19T08:36:20.059Z</time>
      </trkpt>
      <trkpt lat="50.51943" lon="1.57739">
        <ele>4</ele>
        <time>2023-02-19T08:36:23.918Z</time>
      </trkpt>
      <trkpt lat="50.51949" lon="1.57738">
        <ele>4</ele>
        <time>2023-02-19T08:36:28.586Z</time>
      </trkpt>
      <trkpt lat="50.51956" lon="1.57738">
        <ele>4</ele>
        <time>2023-02-19T08:36:32.536Z</time>
      </trkpt>
      <trkpt lat="50.51963" lon="1.57737">
        <ele>4</ele>
        <time>2023-02-19T08:36:36.965Z</time>
      </trkpt>
      <trkpt lat="50.51968" lon="1.57738">
        <ele>4</ele>
        <time>2023-02-19T08:36:41.633Z</time>
      </trkpt>
      <trkpt lat="50.51972" lon="1.57739">
        <ele>4</ele>
        <time>2023-02-19T08:36:45.464Z</time>
      </trkpt>
      <trkpt lat="50.51976" lon="1.57744">
        <ele>4</ele>
        <time>2023-02-19T08:36:50.314Z</time>
      </trkpt>
      <trkpt lat="50.51977" lon="1.57748">
        <ele>4</ele>
        <time>2023-02-19T08:37:03.077Z</time>
      </trkpt>
      <trkpt lat="50.51979" lon="1.57748">
        <ele>4</ele>
        <time>2023-02-19T08:37:07.592Z</time>
      </trkpt>
      <trkpt lat="50.51979" lon="1.5775">
        <ele>4</ele>
        <time>2023-02-19T08:37:11.605Z</time>
      </trkpt>
      <trkpt lat="50.5198" lon="1.57749">
        <ele>4</ele>
        <time>2023-02-19T08:37:16.123Z</time>
      </trkpt>
      <trkpt lat="50.5199" lon="1.57756">
        <ele>4.3</ele>
        <time>2023-02-19T08:37:20.136Z</time>
      </trkpt>
      <trkpt lat="50.52007" lon="1.57769">
        <ele>4.7</ele>
        <time>2023-02-19T08:37:41.784Z</time>
      </trkpt>
      <trkpt lat="50.52008" lon="1.57773">
        <ele>4.8</ele>
        <time>2023-02-19T08:37:46.291Z</time>
      </trkpt>
      <trkpt lat="50.52009" lon="1.57774">
        <ele>4.9</ele>
        <time>2023-02-19T08:37:50.795Z</time>
      </trkpt>
      <trkpt lat="50.52026" lon="1.57764">
        <ele>4.5</ele>
        <time>2023-02-19T08:37:54.900Z</time>
      </trkpt>
      <trkpt lat="50.52037" lon="1.57765">
        <ele>4.5</ele>
        <time>2023-02-19T08:37:59.404Z</time>
      </trkpt>
      <trkpt lat="50.52046" lon="1.57767">
        <ele>4.6</ele>
        <time>2023-02-19T08:38:04.415Z</time>
      </trkpt>
      <trkpt lat="50.52054" lon="1.57769">
        <ele>4.7</ele>
        <time>2023-02-19T08:38:08.517Z</time>
      </trkpt>
      <trkpt lat="50.52059" lon="1.5777">
        <ele>4.7</ele>
        <time>2023-02-19T08:38:12.521Z</time>
      </trkpt>
      <trkpt lat="50.52064" lon="1.57771">
        <ele>4.8</ele>
        <time>2023-02-19T08:38:17.544Z</time>
      </trkpt>
      <trkpt lat="50.52069" lon="1.57773">
        <ele>4.8</ele>
        <time>2023-02-19T08:38:21.547Z</time>
      </trkpt>
      <trkpt lat="50.52074" lon="1.57774">
        <ele>4.9</ele>
        <time>2023-02-19T08:38:25.550Z</time>
      </trkpt>
      <trkpt lat="50.52079" lon="1.57774">
        <ele>4.9</ele>
        <time>2023-02-19T08:38:30.058Z</time>
      </trkpt>
      <trkpt lat="50.52085" lon="1.57773">
        <ele>4.8</ele>
        <time>2023-02-19T08:38:34.355Z</time>
      </trkpt>
      <trkpt lat="50.52091" lon="1.57773">
        <ele>4.8</ele>
        <time>2023-02-19T08:38:39.077Z</time>
      </trkpt>
      <trkpt lat="50.52096" lon="1.57774">
        <ele>4.9</ele>
        <time>2023-02-19T08:38:43.638Z</time>
      </trkpt>
      <trkpt lat="50.52101" lon="1.57776">
        <ele>4.9</ele>
        <time>2023-02-19T08:38:48.661Z</time>
      </trkpt>
      <trkpt lat="50.52105" lon="1.57778">
        <ele>5</ele>
        <time>2023-02-19T08:38:52.441Z</time>
      </trkpt>
      <trkpt lat="50.5211" lon="1.57782">
        <ele>5.2</ele>
        <time>2023-02-19T08:38:56.801Z</time>
      </trkpt>
      <trkpt lat="50.52114" lon="1.57784">
        <ele>5.2</ele>
        <time>2023-02-19T08:39:00.824Z</time>
      </trkpt>
      <trkpt lat="50.52119" lon="1.57785">
        <ele>5</ele>
        <time>2023-02-19T08:39:05.339Z</time>
      </trkpt>
      <trkpt lat="50.52125" lon="1.57785">
        <ele>4.9</ele>
        <time>2023-02-19T08:39:09.488Z</time>
      </trkpt>
      <trkpt lat="50.5213" lon="1.57787">
        <ele>4.9</ele>
        <time>2023-02-19T08:39:13.994Z</time>
      </trkpt>
      <trkpt lat="50.52135" lon="1.57788">
        <ele>4.8</ele>
        <time>2023-02-19T08:39:18.093Z</time>
      </trkpt>
      <trkpt lat="50.5214" lon="1.57786">
        <ele>4.6</ele>
        <time>2023-02-19T08:39:22.694Z</time>
      </trkpt>
      <trkpt lat="50.52146" lon="1.57785">
        <ele>4.4</ele>
        <time>2023-02-19T08:39:27.059Z</time>
      </trkpt>
      <trkpt lat="50.52151" lon="1.57785">
        <ele>4.4</ele>
        <time>2023-02-19T08:39:31.473Z</time>
      </trkpt>
      <trkpt lat="50.52156" lon="1.57786">
        <ele>4.4</ele>
        <time>2023-02-19T08:39:35.754Z</time>
      </trkpt>
      <trkpt lat="50.52161" lon="1.57787">
        <ele>4.4</ele>
        <time>2023-02-19T08:39:40.757Z</time>
      </trkpt>
      <trkpt lat="50.52165" lon="1.57789">
        <ele>4.4</ele>
        <time>2023-02-19T08:39:44.727Z</time>
      </trkpt>
      <trkpt lat="50.52169" lon="1.57792">
        <ele>4.5</ele>
        <time>2023-02-19T08:39:48.798Z</time>
      </trkpt>
      <trkpt lat="50.52175" lon="1.57793">
        <ele>4.6</ele>
        <time>2023-02-19T08:39:53.467Z</time>
      </trkpt>
      <trkpt lat="50.5218" lon="1.57794">
        <ele>4.6</ele>
        <time>2023-02-19T08:39:58.016Z</time>
      </trkpt>
      <trkpt lat="50.52185" lon="1.57795">
        <ele>4.6</ele>
        <time>2023-02-19T08:40:02.207Z</time>
      </trkpt>
      <trkpt lat="50.5219" lon="1.57795">
        <ele>4.6</ele>
        <time>2023-02-19T08:40:06.160Z</time>
      </trkpt>
      <trkpt lat="50.52195" lon="1.57797">
        <ele>4.7</ele>
        <time>2023-02-19T08:40:10.831Z</time>
      </trkpt>
      <trkpt lat="50.522" lon="1.57799">
        <ele>4.8</ele>
        <time>2023-02-19T08:40:14.424Z</time>
      </trkpt>
      <trkpt lat="50.52205" lon="1.57799">
        <ele>4.8</ele>
        <time>2023-02-19T08:40:19.134Z</time>
      </trkpt>
      <trkpt lat="50.52207" lon="1.57799">
        <ele>4.8</ele>
        <time>2023-02-19T08:40:20.931Z</time>
      </trkpt>
      <trkpt lat="50.52215" lon="1.578">
        <ele>4.8</ele>
        <time>2023-02-19T08:40:28.536Z</time>
      </trkpt>
      <trkpt lat="50.52217" lon="1.57801">
        <ele>4.8</ele>
        <time>2023-02-19T08:40:32.540Z</time>
      </trkpt>
      <trkpt lat="50.5222" lon="1.57801">
        <ele>4.8</ele>
        <time>2023-02-19T08:40:36.968Z</time>
      </trkpt>
      <trkpt lat="50.52228" lon="1.57801">
        <ele>4.7</ele>
        <time>2023-02-19T08:40:41.742Z</time>
      </trkpt>
      <trkpt lat="50.52234" lon="1.57803">
        <ele>4.5</ele>
        <time>2023-02-19T08:40:46.415Z</time>
      </trkpt>
      <trkpt lat="50.52238" lon="1.57803">
        <ele>4.4</ele>
        <time>2023-02-19T08:40:50.609Z</time>
      </trkpt>
      <trkpt lat="50.52243" lon="1.57806">
        <ele>4.3</ele>
        <time>2023-02-19T08:40:54.805Z</time>
      </trkpt>
      <trkpt lat="50.52248" lon="1.57807">
        <ele>4.1</ele>
        <time>2023-02-19T08:40:58.960Z</time>
      </trkpt>
      <trkpt lat="50.52254" lon="1.57809">
        <ele>4.1</ele>
        <time>2023-02-19T08:41:03.392Z</time>
      </trkpt>
      <trkpt lat="50.52258" lon="1.57811">
        <ele>4.2</ele>
        <time>2023-02-19T08:41:07.585Z</time>
      </trkpt>
      <trkpt lat="50.5226" lon="1.57811">
        <ele>4.2</ele>
        <time>2023-02-19T08:41:11.776Z</time>
      </trkpt>
      <trkpt lat="50.52264" lon="1.57811">
        <ele>4.2</ele>
        <time>2023-02-19T08:41:15.965Z</time>
      </trkpt>
      <trkpt lat="50.52269" lon="1.57812">
        <ele>4.2</ele>
        <time>2023-02-19T08:41:20.015Z</time>
      </trkpt>
      <trkpt lat="50.52275" lon="1.57813">
        <ele>4.3</ele>
        <time>2023-02-19T08:41:24.801Z</time>
      </trkpt>
      <trkpt lat="50.5228" lon="1.57813">
        <ele>4.3</ele>
        <time>2023-02-19T08:41:28.989Z</time>
      </trkpt>
      <trkpt lat="50.52286" lon="1.57813">
        <ele>4.3</ele>
        <time>2023-02-19T08:41:33.178Z</time>
      </trkpt>
      <trkpt lat="50.52291" lon="1.57811">
        <ele>4.2</ele>
        <time>2023-02-19T08:41:37.772Z</time>
      </trkpt>
      <trkpt lat="50.52295" lon="1.57813">
        <ele>4.3</ele>
        <time>2023-02-19T08:41:42.777Z</time>
      </trkpt>
      <trkpt lat="50.52295" lon="1.57815">
        <ele>4.3</ele>
        <time>2023-02-19T08:41:47.289Z</time>
      </trkpt>
      <trkpt lat="50.523" lon="1.57819">
        <ele>4.5</ele>
        <time>2023-02-19T08:41:51.767Z</time>
      </trkpt>
      <trkpt lat="50.52307" lon="1.5782">
        <ele>4.5</ele>
        <time>2023-02-19T08:41:55.961Z</time>
      </trkpt>
      <trkpt lat="50.52312" lon="1.57821">
        <ele>4.4</ele>
        <time>2023-02-19T08:42:00.033Z</time>
      </trkpt>
      <trkpt lat="50.52317" lon="1.57823">
        <ele>4.4</ele>
        <time>2023-02-19T08:42:04.584Z</time>
      </trkpt>
      <trkpt lat="50.52322" lon="1.57824">
        <ele>4.3</ele>
        <time>2023-02-19T08:42:08.617Z</time>
      </trkpt>
      <trkpt lat="50.52327" lon="1.57825">
        <ele>4.2</ele>
        <time>2023-02-19T08:42:12.631Z</time>
      </trkpt>
      <trkpt lat="50.52333" lon="1.57828">
        <ele>4</ele>
        <time>2023-02-19T08:42:17.300Z</time>
      </trkpt>
      <trkpt lat="50.52338" lon="1.5783">
        <ele>4</ele>
        <time>2023-02-19T08:42:21.373Z</time>
      </trkpt>
      <trkpt lat="50.52342" lon="1.57832">
        <ele>4</ele>
        <time>2023-02-19T08:42:25.319Z</time>
      </trkpt>
      <trkpt lat="50.52347" lon="1.57832">
        <ele>4</ele>
        <time>2023-02-19T08:42:29.386Z</time>
      </trkpt>
      <trkpt lat="50.52352" lon="1.57831">
        <ele>4</ele>
        <time>2023-02-19T08:42:33.574Z</time>
      </trkpt>
      <trkpt lat="50.52356" lon="1.5783">
        <ele>4</ele>
        <time>2023-02-19T08:42:37.762Z</time>
      </trkpt>
      <trkpt lat="50.52362" lon="1.57832">
        <ele>4</ele>
        <time>2023-02-19T08:42:42.311Z</time>
      </trkpt>
      <trkpt lat="50.52367" lon="1.57833">
        <ele>4</ele>
        <time>2023-02-19T08:42:46.377Z</time>
      </trkpt>
      <trkpt lat="50.52372" lon="1.57836">
        <ele>4.2</ele>
        <time>2023-02-19T08:42:50.563Z</time>
      </trkpt>
      <trkpt lat="50.52376" lon="1.57836">
        <ele>4.1</ele>
        <time>2023-02-19T08:42:54.628Z</time>
      </trkpt>
      <trkpt lat="50.52381" lon="1.57836">
        <ele>4.1</ele>
        <time>2023-02-19T08:42:58.812Z</time>
      </trkpt>
      <trkpt lat="50.52386" lon="1.57835">
        <ele>4.1</ele>
        <time>2023-02-19T08:43:02.994Z</time>
      </trkpt>
      <trkpt lat="50.52391" lon="1.57837">
        <ele>4.1</ele>
        <time>2023-02-19T08:43:07.057Z</time>
      </trkpt>
      <trkpt lat="50.52395" lon="1.57837">
        <ele>4.1</ele>
        <time>2023-02-19T08:43:11.059Z</time>
      </trkpt>
      <trkpt lat="50.524" lon="1.57837">
        <ele>4.1</ele>
        <time>2023-02-19T08:43:15.183Z</time>
      </trkpt>
      <trkpt lat="50.52405" lon="1.57839">
        <ele>4.2</ele>
        <time>2023-02-19T08:43:19.367Z</time>
      </trkpt>
      <trkpt lat="50.52409" lon="1.57841">
        <ele>4.3</ele>
        <time>2023-02-19T08:43:23.552Z</time>
      </trkpt>
      <trkpt lat="50.52413" lon="1.57842">
        <ele>4.3</ele>
        <time>2023-02-19T08:43:27.616Z</time>
      </trkpt>
      <trkpt lat="50.52419" lon="1.57844">
        <ele>4.4</ele>
        <time>2023-02-19T08:43:31.560Z</time>
      </trkpt>
      <trkpt lat="50.52424" lon="1.57846">
        <ele>4.6</ele>
        <time>2023-02-19T08:43:35.623Z</time>
      </trkpt>
      <trkpt lat="50.52429" lon="1.57848">
        <ele>4.8</ele>
        <time>2023-02-19T08:43:40.403Z</time>
      </trkpt>
      <trkpt lat="50.52433" lon="1.5785">
        <ele>5</ele>
        <time>2023-02-19T08:43:44.585Z</time>
      </trkpt>
      <trkpt lat="50.52438" lon="1.57851">
        <ele>5.1</ele>
        <time>2023-02-19T08:43:48.766Z</time>
      </trkpt>
      <trkpt lat="50.52443" lon="1.57854">
        <ele>5.4</ele>
        <time>2023-02-19T08:43:52.827Z</time>
      </trkpt>
      <trkpt lat="50.52449" lon="1.57855">
        <ele>5.5</ele>
        <time>2023-02-19T08:43:57.367Z</time>
      </trkpt>
      <trkpt lat="50.52454" lon="1.57855">
        <ele>5.6</ele>
        <time>2023-02-19T08:44:01.552Z</time>
      </trkpt>
      <trkpt lat="50.5246" lon="1.57856">
        <ele>1</ele>
        <time>2023-02-19T08:44:06.059Z</time>
      </trkpt>
      <trkpt lat="50.52466" lon="1.57857">
        <ele>1</ele>
        <time>2023-02-19T08:44:10.630Z</time>
      </trkpt>
      <trkpt lat="50.52471" lon="1.57859">
        <ele>1</ele>
        <time>2023-02-19T08:44:15.171Z</time>
      </trkpt>
      <trkpt lat="50.52477" lon="1.5786">
        <ele>1</ele>
        <time>2023-02-19T08:44:19.593Z</time>
      </trkpt>
      <trkpt lat="50.52482" lon="1.57858">
        <ele>1</ele>
        <time>2023-02-19T08:44:23.995Z</time>
      </trkpt>
      <trkpt lat="50.52487" lon="1.57859">
        <ele>5.4</ele>
        <time>2023-02-19T08:44:28.533Z</time>
      </trkpt>
      <trkpt lat="50.52492" lon="1.5786">
        <ele>5.2</ele>
        <time>2023-02-19T08:44:32.942Z</time>
      </trkpt>
      <trkpt lat="50.52497" lon="1.57862">
        <ele>5.1</ele>
        <time>2023-02-19T08:44:37.374Z</time>
      </trkpt>
      <trkpt lat="50.52503" lon="1.57863">
        <ele>5.1</ele>
        <time>2023-02-19T08:44:41.914Z</time>
      </trkpt>
      <trkpt lat="50.52509" lon="1.57865">
        <ele>5.1</ele>
        <time>2023-02-19T08:44:46.215Z</time>
      </trkpt>
      <trkpt lat="50.52515" lon="1.57867">
        <ele>5.2</ele>
        <time>2023-02-19T08:44:50.635Z</time>
      </trkpt>
      <trkpt lat="50.5252" lon="1.57868">
        <ele>5.2</ele>
        <time>2023-02-19T08:44:55.175Z</time>
      </trkpt>
      <trkpt lat="50.52525" lon="1.5787">
        <ele>5.3</ele>
        <time>2023-02-19T08:44:59.598Z</time>
      </trkpt>
      <trkpt lat="50.52528" lon="1.57872">
        <ele>5.4</ele>
        <time>2023-02-19T08:45:04.059Z</time>
      </trkpt>
      <trkpt lat="50.52533" lon="1.57876">
        <ele>3</ele>
        <time>2023-02-19T08:45:08.663Z</time>
      </trkpt>
      <trkpt lat="50.52538" lon="1.57879">
        <ele>3</ele>
        <time>2023-02-19T08:45:12.607Z</time>
      </trkpt>
      <trkpt lat="50.52542" lon="1.5788">
        <ele>5.5</ele>
        <time>2023-02-19T08:45:16.810Z</time>
      </trkpt>
      <trkpt lat="50.52547" lon="1.57881">
        <ele>5.5</ele>
        <time>2023-02-19T08:45:20.874Z</time>
      </trkpt>
      <trkpt lat="50.52552" lon="1.57883">
        <ele>5.6</ele>
        <time>2023-02-19T08:45:24.797Z</time>
      </trkpt>
      <trkpt lat="50.52557" lon="1.57886">
        <ele>5.7</ele>
        <time>2023-02-19T08:45:28.969Z</time>
      </trkpt>
      <trkpt lat="50.52563" lon="1.57889">
        <ele>5.7</ele>
        <time>2023-02-19T08:45:33.043Z</time>
      </trkpt>
      <trkpt lat="50.52568" lon="1.57891">
        <ele>5.6</ele>
        <time>2023-02-19T08:45:37.059Z</time>
      </trkpt>
      <trkpt lat="50.52574" lon="1.57892">
        <ele>5.4</ele>
        <time>2023-02-19T08:45:41.171Z</time>
      </trkpt>
      <trkpt lat="50.52579" lon="1.57895">
        <ele>5.4</ele>
        <time>2023-02-19T08:45:45.319Z</time>
      </trkpt>
      <trkpt lat="50.52584" lon="1.57897">
        <ele>5.3</ele>
        <time>2023-02-19T08:45:49.416Z</time>
      </trkpt>
      <trkpt lat="50.52589" lon="1.57898">
        <ele>5.3</ele>
        <time>2023-02-19T08:45:53.598Z</time>
      </trkpt>
      <trkpt lat="50.52594" lon="1.579">
        <ele>5.4</ele>
        <time>2023-02-19T08:45:58.376Z</time>
      </trkpt>
      <trkpt lat="50.52598" lon="1.57903">
        <ele>5.5</ele>
        <time>2023-02-19T08:46:02.558Z</time>
      </trkpt>
      <trkpt lat="50.52603" lon="1.57904">
        <ele>1</ele>
        <time>2023-02-19T08:46:07.127Z</time>
      </trkpt>
      <trkpt lat="50.52608" lon="1.57904">
        <ele>1</ele>
        <time>2023-02-19T08:46:11.038Z</time>
      </trkpt>
      <trkpt lat="50.52612" lon="1.57905">
        <ele>1</ele>
        <time>2023-02-19T08:46:14.981Z</time>
      </trkpt>
      <trkpt lat="50.52617" lon="1.57907">
        <ele>1</ele>
        <time>2023-02-19T08:46:19.163Z</time>
      </trkpt>
      <trkpt lat="50.52621" lon="1.5791">
        <ele>1</ele>
        <time>2023-02-19T08:46:23.227Z</time>
      </trkpt>
      <trkpt lat="50.52626" lon="1.57912">
        <ele>1</ele>
        <time>2023-02-19T08:46:27.410Z</time>
      </trkpt>
      <trkpt lat="50.52631" lon="1.57912">
        <ele>1</ele>
        <time>2023-02-19T08:46:31.474Z</time>
      </trkpt>
      <trkpt lat="50.52636" lon="1.57914">
        <ele>1</ele>
        <time>2023-02-19T08:46:35.537Z</time>
      </trkpt>
      <trkpt lat="50.52641" lon="1.57916">
        <ele>1</ele>
        <time>2023-02-19T08:46:39.600Z</time>
      </trkpt>
      <trkpt lat="50.52645" lon="1.57917">
        <ele>1</ele>
        <time>2023-02-19T08:46:43.662Z</time>
      </trkpt>
      <trkpt lat="50.52649" lon="1.57919">
        <ele>1</ele>
        <time>2023-02-19T08:46:47.843Z</time>
      </trkpt>
      <trkpt lat="50.52654" lon="1.57921">
        <ele>1</ele>
        <time>2023-02-19T08:46:52.024Z</time>
      </trkpt>
      <trkpt lat="50.52659" lon="1.57923">
        <ele>1</ele>
        <time>2023-02-19T08:46:56.187Z</time>
      </trkpt>
      <trkpt lat="50.52665" lon="1.57925">
        <ele>1</ele>
        <time>2023-02-19T08:47:00.369Z</time>
      </trkpt>
      <trkpt lat="50.52669" lon="1.57927">
        <ele>1</ele>
        <time>2023-02-19T08:47:04.553Z</time>
      </trkpt>
      <trkpt lat="50.52674" lon="1.57928">
        <ele>1</ele>
        <time>2023-02-19T08:47:08.610Z</time>
      </trkpt>
      <trkpt lat="50.52679" lon="1.5793">
        <ele>1</ele>
        <time>2023-02-19T08:47:12.791Z</time>
      </trkpt>
      <trkpt lat="50.52684" lon="1.57932">
        <ele>2</ele>
        <time>2023-02-19T08:47:16.973Z</time>
      </trkpt>
      <trkpt lat="50.52688" lon="1.57934">
        <ele>2</ele>
        <time>2023-02-19T08:47:21.059Z</time>
      </trkpt>
      <trkpt lat="50.52693" lon="1.57936">
        <ele>2</ele>
        <time>2023-02-19T08:47:25.815Z</time>
      </trkpt>
      <trkpt lat="50.52697" lon="1.57938">
        <ele>2</ele>
        <time>2023-02-19T08:47:29.996Z</time>
      </trkpt>
      <trkpt lat="50.527" lon="1.57939">
        <ele>2</ele>
        <time>2023-02-19T08:47:34.178Z</time>
      </trkpt>
      <trkpt lat="50.52703" lon="1.57943">
        <ele>2</ele>
        <time>2023-02-19T08:47:38.838Z</time>
      </trkpt>
      <trkpt lat="50.52707" lon="1.57944">
        <ele>2</ele>
        <time>2023-02-19T08:47:42.842Z</time>
      </trkpt>
      <trkpt lat="50.52712" lon="1.57945">
        <ele>2</ele>
        <time>2023-02-19T08:47:46.962Z</time>
      </trkpt>
      <trkpt lat="50.52716" lon="1.57944">
        <ele>2</ele>
        <time>2023-02-19T08:47:51.059Z</time>
      </trkpt>
      <trkpt lat="50.52721" lon="1.57945">
        <ele>2</ele>
        <time>2023-02-19T08:47:55.206Z</time>
      </trkpt>
      <trkpt lat="50.52726" lon="1.57947">
        <ele>2</ele>
        <time>2023-02-19T08:47:59.388Z</time>
      </trkpt>
      <trkpt lat="50.52732" lon="1.57949">
        <ele>2</ele>
        <time>2023-02-19T08:48:03.568Z</time>
      </trkpt>
      <trkpt lat="50.52737" lon="1.57951">
        <ele>2</ele>
        <time>2023-02-19T08:48:07.631Z</time>
      </trkpt>
      <trkpt lat="50.52742" lon="1.5795">
        <ele>2</ele>
        <time>2023-02-19T08:48:11.816Z</time>
      </trkpt>
      <trkpt lat="50.52747" lon="1.57949">
        <ele>2</ele>
        <time>2023-02-19T08:48:16.355Z</time>
      </trkpt>
      <trkpt lat="50.5275" lon="1.57952">
        <ele>2</ele>
        <time>2023-02-19T08:48:20.418Z</time>
      </trkpt>
      <trkpt lat="50.52754" lon="1.57954">
        <ele>2</ele>
        <time>2023-02-19T08:48:24.601Z</time>
      </trkpt>
      <trkpt lat="50.52758" lon="1.57954">
        <ele>2</ele>
        <time>2023-02-19T08:48:29.363Z</time>
      </trkpt>
      <trkpt lat="50.52763" lon="1.57955">
        <ele>2</ele>
        <time>2023-02-19T08:48:33.426Z</time>
      </trkpt>
      <trkpt lat="50.52768" lon="1.57959">
        <ele>1</ele>
        <time>2023-02-19T08:48:38.059Z</time>
      </trkpt>
      <trkpt lat="50.52771" lon="1.57963">
        <ele>1</ele>
        <time>2023-02-19T08:48:42.150Z</time>
      </trkpt>
      <trkpt lat="50.52777" lon="1.57966">
        <ele>1</ele>
        <time>2023-02-19T08:48:46.691Z</time>
      </trkpt>
      <trkpt lat="50.52781" lon="1.57968">
        <ele>1</ele>
        <time>2023-02-19T08:48:50.755Z</time>
      </trkpt>
      <trkpt lat="50.52785" lon="1.57971">
        <ele>1</ele>
        <time>2023-02-19T08:48:54.819Z</time>
      </trkpt>
      <trkpt lat="50.52787" lon="1.57975">
        <ele>1</ele>
        <time>2023-02-19T08:48:59.001Z</time>
      </trkpt>
      <trkpt lat="50.5279" lon="1.57977">
        <ele>1</ele>
        <time>2023-02-19T08:49:03.184Z</time>
      </trkpt>
      <trkpt lat="50.52796" lon="1.57977">
        <ele>1</ele>
        <time>2023-02-19T08:49:07.366Z</time>
      </trkpt>
      <trkpt lat="50.52801" lon="1.57977">
        <ele>1</ele>
        <time>2023-02-19T08:49:11.549Z</time>
      </trkpt>
      <trkpt lat="50.52804" lon="1.5798">
        <ele>1</ele>
        <time>2023-02-19T08:49:15.612Z</time>
      </trkpt>
      <trkpt lat="50.52809" lon="1.57987">
        <ele>1</ele>
        <time>2023-02-19T08:49:20.391Z</time>
      </trkpt>
      <trkpt lat="50.52813" lon="1.57993">
        <ele>1</ele>
        <time>2023-02-19T08:49:24.553Z</time>
      </trkpt>
      <trkpt lat="50.52815" lon="1.57998">
        <ele>1</ele>
        <time>2023-02-19T08:49:28.617Z</time>
      </trkpt>
      <trkpt lat="50.52818" lon="1.58005">
        <ele>1</ele>
        <time>2023-02-19T08:49:32.800Z</time>
      </trkpt>
      <trkpt lat="50.52821" lon="1.58011">
        <ele>1</ele>
        <time>2023-02-19T08:49:36.982Z</time>
      </trkpt>
      <trkpt lat="50.52823" lon="1.58017">
        <ele>2</ele>
        <time>2023-02-19T08:49:41.165Z</time>
      </trkpt>
      <trkpt lat="50.52824" lon="1.58023">
        <ele>2</ele>
        <time>2023-02-19T08:49:45.707Z</time>
      </trkpt>
      <trkpt lat="50.52827" lon="1.58029">
        <ele>2</ele>
        <time>2023-02-19T08:49:49.769Z</time>
      </trkpt>
      <trkpt lat="50.52829" lon="1.58034">
        <ele>2</ele>
        <time>2023-02-19T08:49:53.953Z</time>
      </trkpt>
      <trkpt lat="50.5283" lon="1.5804">
        <ele>2</ele>
        <time>2023-02-19T08:49:58.017Z</time>
      </trkpt>
      <trkpt lat="50.52831" lon="1.58042">
        <ele>5</ele>
        <time>2023-02-19T08:50:02.679Z</time>
      </trkpt>
      <trkpt lat="50.52833" lon="1.58049">
        <ele>5</ele>
        <time>2023-02-19T08:50:06.845Z</time>
      </trkpt>
      <trkpt lat="50.52835" lon="1.58055">
        <ele>5</ele>
        <time>2023-02-19T08:50:11.048Z</time>
      </trkpt>
      <trkpt lat="50.52838" lon="1.5806">
        <ele>5</ele>
        <time>2023-02-19T08:50:15.232Z</time>
      </trkpt>
      <trkpt lat="50.52838" lon="1.58067">
        <ele>5</ele>
        <time>2023-02-19T08:50:19.418Z</time>
      </trkpt>
      <trkpt lat="50.52838" lon="1.58074">
        <ele>6</ele>
        <time>2023-02-19T08:50:23.602Z</time>
      </trkpt>
      <trkpt lat="50.52838" lon="1.58081">
        <ele>6</ele>
        <time>2023-02-19T08:50:28.266Z</time>
      </trkpt>
      <trkpt lat="50.52837" lon="1.58085">
        <ele>6</ele>
        <time>2023-02-19T08:50:32.212Z</time>
      </trkpt>
      <trkpt lat="50.52834" lon="1.58089">
        <ele>6</ele>
        <time>2023-02-19T08:50:40.823Z</time>
      </trkpt>
      <trkpt lat="50.52832" lon="1.58091">
        <ele>6</ele>
        <time>2023-02-19T08:50:45.367Z</time>
      </trkpt>
      <trkpt lat="50.52833" lon="1.58092">
        <ele>6</ele>
        <time>2023-02-19T08:50:50.012Z</time>
      </trkpt>
      <trkpt lat="50.52829" lon="1.58095">
        <ele>6</ele>
        <time>2023-02-19T08:50:54.197Z</time>
      </trkpt>
      <trkpt lat="50.52823" lon="1.58099">
        <ele>8</ele>
        <time>2023-02-19T08:50:58.961Z</time>
      </trkpt>
      <trkpt lat="50.52817" lon="1.58099">
        <ele>6</ele>
        <time>2023-02-19T08:51:03.027Z</time>
      </trkpt>
      <trkpt lat="50.52812" lon="1.58098">
        <ele>6</ele>
        <time>2023-02-19T08:51:07.195Z</time>
      </trkpt>
      <trkpt lat="50.52808" lon="1.58098">
        <ele>6</ele>
        <time>2023-02-19T08:51:11.379Z</time>
      </trkpt>
      <trkpt lat="50.52803" lon="1.581">
        <ele>6</ele>
        <time>2023-02-19T08:51:15.564Z</time>
      </trkpt>
      <trkpt lat="50.52799" lon="1.58103">
        <ele>6</ele>
        <time>2023-02-19T08:51:20.197Z</time>
      </trkpt>
      <trkpt lat="50.52799" lon="1.58107">
        <ele>6</ele>
        <time>2023-02-19T08:51:24.171Z</time>
      </trkpt>
      <trkpt lat="50.52802" lon="1.58109">
        <ele>6</ele>
        <time>2023-02-19T08:51:28.355Z</time>
      </trkpt>
      <trkpt lat="50.52805" lon="1.58112">
        <ele>6</ele>
        <time>2023-02-19T08:51:32.997Z</time>
      </trkpt>
      <trkpt lat="50.52808" lon="1.58115">
        <ele>6</ele>
        <time>2023-02-19T08:51:37.180Z</time>
      </trkpt>
      <trkpt lat="50.52813" lon="1.58118">
        <ele>6</ele>
        <time>2023-02-19T08:51:41.583Z</time>
      </trkpt>
      <trkpt lat="50.52817" lon="1.58119">
        <ele>6</ele>
        <time>2023-02-19T08:51:45.768Z</time>
      </trkpt>
      <trkpt lat="50.52819" lon="1.58123">
        <ele>6</ele>
        <time>2023-02-19T08:51:49.856Z</time>
      </trkpt>
      <trkpt lat="50.52823" lon="1.5813">
        <ele>9</ele>
        <time>2023-02-19T08:51:54.017Z</time>
      </trkpt>
      <trkpt lat="50.52828" lon="1.58134">
        <ele>9</ele>
        <time>2023-02-19T08:51:58.200Z</time>
      </trkpt>
      <trkpt lat="50.52832" lon="1.58137">
        <ele>9</ele>
        <time>2023-02-19T08:52:02.385Z</time>
      </trkpt>
      <trkpt lat="50.52835" lon="1.5814">
        <ele>9</ele>
        <time>2023-02-19T08:52:06.570Z</time>
      </trkpt>
      <trkpt lat="50.52837" lon="1.58144">
        <ele>9</ele>
        <time>2023-02-19T08:52:10.755Z</time>
      </trkpt>
      <trkpt lat="50.52839" lon="1.58152">
        <ele>9</ele>
        <time>2023-02-19T08:52:15.416Z</time>
      </trkpt>
      <trkpt lat="50.52843" lon="1.58159">
        <ele>9</ele>
        <time>2023-02-19T08:52:20.316Z</time>
      </trkpt>
      <trkpt lat="50.52848" lon="1.58163">
        <ele>10</ele>
        <time>2023-02-19T08:52:24.379Z</time>
      </trkpt>
      <trkpt lat="50.52854" lon="1.58166">
        <ele>10</ele>
        <time>2023-02-19T08:52:29.053Z</time>
      </trkpt>
      <trkpt lat="50.52858" lon="1.58169">
        <ele>10</ele>
        <time>2023-02-19T08:52:33.225Z</time>
      </trkpt>
      <trkpt lat="50.52861" lon="1.5817">
        <ele>10</ele>
        <time>2023-02-19T08:52:37.407Z</time>
      </trkpt>
      <trkpt lat="50.52862" lon="1.58171">
        <ele>10</ele>
        <time>2023-02-19T08:52:41.855Z</time>
      </trkpt>
      <trkpt lat="50.52866" lon="1.58175">
        <ele>10</ele>
        <time>2023-02-19T08:52:45.994Z</time>
      </trkpt>
      <trkpt lat="50.52867" lon="1.58178">
        <ele>10</ele>
        <time>2023-02-19T08:52:49.955Z</time>
      </trkpt>
      <trkpt lat="50.52872" lon="1.58182">
        <ele>9</ele>
        <time>2023-02-19T08:52:54.381Z</time>
      </trkpt>
      <trkpt lat="50.52876" lon="1.58185">
        <ele>10</ele>
        <time>2023-02-19T08:52:58.559Z</time>
      </trkpt>
      <trkpt lat="50.52881" lon="1.58188">
        <ele>10</ele>
        <time>2023-02-19T08:53:02.971Z</time>
      </trkpt>
      <trkpt lat="50.52885" lon="1.58191">
        <ele>10</ele>
        <time>2023-02-19T08:53:07.402Z</time>
      </trkpt>
      <trkpt lat="50.52889" lon="1.58196">
        <ele>10</ele>
        <time>2023-02-19T08:53:11.584Z</time>
      </trkpt>
      <trkpt lat="50.52893" lon="1.582">
        <ele>10</ele>
        <time>2023-02-19T08:53:15.645Z</time>
      </trkpt>
      <trkpt lat="50.52896" lon="1.58202">
        <ele>10</ele>
        <time>2023-02-19T08:53:19.588Z</time>
      </trkpt>
      <trkpt lat="50.52901" lon="1.58205">
        <ele>10</ele>
        <time>2023-02-19T08:53:23.630Z</time>
      </trkpt>
      <trkpt lat="50.52908" lon="1.58209">
        <ele>13</ele>
        <time>2023-02-19T08:53:28.408Z</time>
      </trkpt>
      <trkpt lat="50.52913" lon="1.58214">
        <ele>13</ele>
        <time>2023-02-19T08:53:32.821Z</time>
      </trkpt>
      <trkpt lat="50.52918" lon="1.58219">
        <ele>13</ele>
        <time>2023-02-19T08:53:37.247Z</time>
      </trkpt>
      <trkpt lat="50.52923" lon="1.58224">
        <ele>13</ele>
        <time>2023-02-19T08:53:41.313Z</time>
      </trkpt>
      <trkpt lat="50.52927" lon="1.58229">
        <ele>13</ele>
        <time>2023-02-19T08:53:45.371Z</time>
      </trkpt>
      <trkpt lat="50.52932" lon="1.58232">
        <ele>13</ele>
        <time>2023-02-19T08:53:49.553Z</time>
      </trkpt>
      <trkpt lat="50.52936" lon="1.58236">
        <ele>13</ele>
        <time>2023-02-19T08:53:53.613Z</time>
      </trkpt>
      <trkpt lat="50.52942" lon="1.58238">
        <ele>13</ele>
        <time>2023-02-19T08:53:58.372Z</time>
      </trkpt>
      <trkpt lat="50.52944" lon="1.58239">
        <ele>13</ele>
        <time>2023-02-19T08:54:02.433Z</time>
      </trkpt>
      <trkpt lat="50.52948" lon="1.58244">
        <ele>13</ele>
        <time>2023-02-19T08:54:06.393Z</time>
      </trkpt>
      <trkpt lat="50.52952" lon="1.58248">
        <ele>13</ele>
        <time>2023-02-19T08:54:10.539Z</time>
      </trkpt>
      <trkpt lat="50.52956" lon="1.58252">
        <ele>13</ele>
        <time>2023-02-19T08:54:14.618Z</time>
      </trkpt>
      <trkpt lat="50.52961" lon="1.58254">
        <ele>14</ele>
        <time>2023-02-19T08:54:18.579Z</time>
      </trkpt>
      <trkpt lat="50.52966" lon="1.58256">
        <ele>14</ele>
        <time>2023-02-19T08:54:22.763Z</time>
      </trkpt>
      <trkpt lat="50.52971" lon="1.58258">
        <ele>14</ele>
        <time>2023-02-19T08:54:26.825Z</time>
      </trkpt>
      <trkpt lat="50.52975" lon="1.5826">
        <ele>14</ele>
        <time>2023-02-19T08:54:30.889Z</time>
      </trkpt>
      <trkpt lat="50.5298" lon="1.58262">
        <ele>14</ele>
        <time>2023-02-19T08:54:35.432Z</time>
      </trkpt>
      <trkpt lat="50.52985" lon="1.58264">
        <ele>15</ele>
        <time>2023-02-19T08:54:39.599Z</time>
      </trkpt>
      <trkpt lat="50.52991" lon="1.58267">
        <ele>15</ele>
        <time>2023-02-19T08:54:44.383Z</time>
      </trkpt>
      <trkpt lat="50.52997" lon="1.58269">
        <ele>15</ele>
        <time>2023-02-19T08:54:48.570Z</time>
      </trkpt>
      <trkpt lat="50.53002" lon="1.58271">
        <ele>15</ele>
        <time>2023-02-19T08:54:52.755Z</time>
      </trkpt>
      <trkpt lat="50.53006" lon="1.58273">
        <ele>15</ele>
        <time>2023-02-19T08:54:56.801Z</time>
      </trkpt>
      <trkpt lat="50.53011" lon="1.58276">
        <ele>15</ele>
        <time>2023-02-19T08:55:00.987Z</time>
      </trkpt>
      <trkpt lat="50.53016" lon="1.58279">
        <ele>15</ele>
        <time>2023-02-19T08:55:05.059Z</time>
      </trkpt>
      <trkpt lat="50.53022" lon="1.58281">
        <ele>15</ele>
        <time>2023-02-19T08:55:09.813Z</time>
      </trkpt>
      <trkpt lat="50.53026" lon="1.58283">
        <ele>15</ele>
        <time>2023-02-19T08:55:13.847Z</time>
      </trkpt>
      <trkpt lat="50.53032" lon="1.58285">
        <ele>15</ele>
        <time>2023-02-19T08:55:18.418Z</time>
      </trkpt>
      <trkpt lat="50.53037" lon="1.58287">
        <ele>15</ele>
        <time>2023-02-19T08:55:22.599Z</time>
      </trkpt>
      <trkpt lat="50.53042" lon="1.58289">
        <ele>15</ele>
        <time>2023-02-19T08:55:26.783Z</time>
      </trkpt>
      <trkpt lat="50.53049" lon="1.5829">
        <ele>15</ele>
        <time>2023-02-19T08:55:30.977Z</time>
      </trkpt>
      <trkpt lat="50.53055" lon="1.58293">
        <ele>15</ele>
        <time>2023-02-19T08:55:35.387Z</time>
      </trkpt>
      <trkpt lat="50.5306" lon="1.58295">
        <ele>15</ele>
        <time>2023-02-19T08:55:39.549Z</time>
      </trkpt>
      <trkpt lat="50.53065" lon="1.58297">
        <ele>15</ele>
        <time>2023-02-19T08:55:44.209Z</time>
      </trkpt>
      <trkpt lat="50.5307" lon="1.58299">
        <ele>14</ele>
        <time>2023-02-19T08:55:48.390Z</time>
      </trkpt>
      <trkpt lat="50.53073" lon="1.583">
        <ele>14</ele>
        <time>2023-02-19T08:55:52.572Z</time>
      </trkpt>
      <trkpt lat="50.53078" lon="1.58303">
        <ele>14</ele>
        <time>2023-02-19T08:55:56.754Z</time>
      </trkpt>
      <trkpt lat="50.53084" lon="1.58306">
        <ele>14</ele>
        <time>2023-02-19T08:56:00.817Z</time>
      </trkpt>
      <trkpt lat="50.53089" lon="1.58309">
        <ele>14</ele>
        <time>2023-02-19T08:56:04.998Z</time>
      </trkpt>
      <trkpt lat="50.53096" lon="1.58312">
        <ele>14</ele>
        <time>2023-02-19T08:56:09.540Z</time>
      </trkpt>
      <trkpt lat="50.53102" lon="1.58317">
        <ele>14</ele>
        <time>2023-02-19T08:56:13.962Z</time>
      </trkpt>
      <trkpt lat="50.53109" lon="1.5832">
        <ele>15</ele>
        <time>2023-02-19T08:56:18.594Z</time>
      </trkpt>
      <trkpt lat="50.53113" lon="1.58323">
        <ele>15</ele>
        <time>2023-02-19T08:56:22.555Z</time>
      </trkpt>
      <trkpt lat="50.53118" lon="1.58325">
        <ele>15</ele>
        <time>2023-02-19T08:56:26.960Z</time>
      </trkpt>
      <trkpt lat="50.53124" lon="1.58328">
        <ele>15</ele>
        <time>2023-02-19T08:56:31.844Z</time>
      </trkpt>
      <trkpt lat="50.53129" lon="1.58332">
        <ele>15</ele>
        <time>2023-02-19T08:56:36.291Z</time>
      </trkpt>
      <trkpt lat="50.53134" lon="1.58336">
        <ele>15</ele>
        <time>2023-02-19T08:56:40.362Z</time>
      </trkpt>
      <trkpt lat="50.53139" lon="1.5834">
        <ele>15</ele>
        <time>2023-02-19T08:56:45.385Z</time>
      </trkpt>
      <trkpt lat="50.53144" lon="1.58339">
        <ele>15</ele>
        <time>2023-02-19T08:56:49.439Z</time>
      </trkpt>
      <trkpt lat="50.53146" lon="1.58337">
        <ele>15</ele>
        <time>2023-02-19T08:56:53.441Z</time>
      </trkpt>
      <trkpt lat="50.53149" lon="1.58339">
        <ele>15</ele>
        <time>2023-02-19T08:56:57.991Z</time>
      </trkpt>
      <trkpt lat="50.53155" lon="1.58345">
        <ele>15</ele>
        <time>2023-02-19T08:57:02.396Z</time>
      </trkpt>
      <trkpt lat="50.5316" lon="1.5835">
        <ele>14</ele>
        <time>2023-02-19T08:57:06.376Z</time>
      </trkpt>
      <trkpt lat="50.53164" lon="1.58353">
        <ele>14</ele>
        <time>2023-02-19T08:57:10.326Z</time>
      </trkpt>
      <trkpt lat="50.5317" lon="1.58358">
        <ele>14</ele>
        <time>2023-02-19T08:57:14.856Z</time>
      </trkpt>
      <trkpt lat="50.53175" lon="1.58362">
        <ele>14</ele>
        <time>2023-02-19T08:57:19.007Z</time>
      </trkpt>
      <trkpt lat="50.53182" lon="1.58365">
        <ele>13</ele>
        <time>2023-02-19T08:57:23.794Z</time>
      </trkpt>
      <trkpt lat="50.53186" lon="1.58368">
        <ele>13</ele>
        <time>2023-02-19T08:57:27.383Z</time>
      </trkpt>
      <trkpt lat="50.53191" lon="1.58369">
        <ele>13</ele>
        <time>2023-02-19T08:57:31.933Z</time>
      </trkpt>
      <trkpt lat="50.53196" lon="1.58373">
        <ele>13</ele>
        <time>2023-02-19T08:57:36.363Z</time>
      </trkpt>
      <trkpt lat="50.53202" lon="1.58376">
        <ele>13</ele>
        <time>2023-02-19T08:57:40.191Z</time>
      </trkpt>
      <trkpt lat="50.53207" lon="1.5838">
        <ele>13</ele>
        <time>2023-02-19T08:57:44.379Z</time>
      </trkpt>
      <trkpt lat="50.53212" lon="1.58385">
        <ele>12</ele>
        <time>2023-02-19T08:57:49.045Z</time>
      </trkpt>
      <trkpt lat="50.53217" lon="1.58389">
        <ele>12</ele>
        <time>2023-02-19T08:57:53.711Z</time>
      </trkpt>
      <trkpt lat="50.53223" lon="1.58392">
        <ele>12</ele>
        <time>2023-02-19T08:57:58.257Z</time>
      </trkpt>
      <trkpt lat="50.53228" lon="1.58396">
        <ele>12</ele>
        <time>2023-02-19T08:58:02.685Z</time>
      </trkpt>
      <trkpt lat="50.53234" lon="1.58401">
        <ele>12</ele>
        <time>2023-02-19T08:58:07.230Z</time>
      </trkpt>
      <trkpt lat="50.53238" lon="1.58405">
        <ele>12</ele>
        <time>2023-02-19T08:58:11.775Z</time>
      </trkpt>
      <trkpt lat="50.53243" lon="1.58409">
        <ele>12</ele>
        <time>2023-02-19T08:58:16.394Z</time>
      </trkpt>
      <trkpt lat="50.53251" lon="1.58399">
        <ele>12</ele>
        <time>2023-02-19T08:58:32.970Z</time>
      </trkpt>
      <trkpt lat="50.53259" lon="1.5841">
        <ele>12</ele>
        <time>2023-02-19T08:58:37.389Z</time>
      </trkpt>
      <trkpt lat="50.53269" lon="1.58419">
        <ele>12</ele>
        <time>2023-02-19T08:58:42.468Z</time>
      </trkpt>
      <trkpt lat="50.53275" lon="1.58422">
        <ele>12</ele>
        <time>2023-02-19T08:58:46.567Z</time>
      </trkpt>
      <trkpt lat="50.53281" lon="1.58425">
        <ele>12</ele>
        <time>2023-02-19T08:58:50.947Z</time>
      </trkpt>
      <trkpt lat="50.53286" lon="1.5843">
        <ele>12</ele>
        <time>2023-02-19T08:58:55.388Z</time>
      </trkpt>
      <trkpt lat="50.53291" lon="1.58433">
        <ele>12</ele>
        <time>2023-02-19T08:58:59.986Z</time>
      </trkpt>
      <trkpt lat="50.53297" lon="1.58437">
        <ele>12</ele>
        <time>2023-02-19T08:59:04.422Z</time>
      </trkpt>
      <trkpt lat="50.53302" lon="1.58441">
        <ele>12</ele>
        <time>2023-02-19T08:59:08.918Z</time>
      </trkpt>
      <trkpt lat="50.53308" lon="1.58443">
        <ele>12</ele>
        <time>2023-02-19T08:59:13.412Z</time>
      </trkpt>
      <trkpt lat="50.53311" lon="1.58451">
        <ele>12</ele>
        <time>2023-02-19T08:59:18.059Z</time>
      </trkpt>
      <trkpt lat="50.53316" lon="1.58455">
        <ele>12</ele>
        <time>2023-02-19T08:59:22.641Z</time>
      </trkpt>
      <trkpt lat="50.53322" lon="1.58457">
        <ele>11</ele>
        <time>2023-02-19T08:59:27.059Z</time>
      </trkpt>
      <trkpt lat="50.53327" lon="1.5846">
        <ele>11</ele>
        <time>2023-02-19T08:59:31.631Z</time>
      </trkpt>
      <trkpt lat="50.53333" lon="1.58462">
        <ele>11</ele>
        <time>2023-02-19T08:59:36.269Z</time>
      </trkpt>
      <trkpt lat="50.53339" lon="1.58466">
        <ele>11</ele>
        <time>2023-02-19T08:59:40.706Z</time>
      </trkpt>
      <trkpt lat="50.53344" lon="1.58471">
        <ele>11</ele>
        <time>2023-02-19T08:59:45.324Z</time>
      </trkpt>
      <trkpt lat="50.53348" lon="1.58476">
        <ele>11</ele>
        <time>2023-02-19T08:59:49.398Z</time>
      </trkpt>
      <trkpt lat="50.53352" lon="1.58482">
        <ele>11</ele>
        <time>2023-02-19T08:59:53.953Z</time>
      </trkpt>
      <trkpt lat="50.53357" lon="1.58484">
        <ele>11</ele>
        <time>2023-02-19T08:59:57.989Z</time>
      </trkpt>
      <trkpt lat="50.53362" lon="1.58487">
        <ele>11</ele>
        <time>2023-02-19T09:00:02.585Z</time>
      </trkpt>
      <trkpt lat="50.53367" lon="1.58489">
        <ele>11</ele>
        <time>2023-02-19T09:00:07.379Z</time>
      </trkpt>
      <trkpt lat="50.53373" lon="1.58494">
        <ele>11</ele>
        <time>2023-02-19T09:00:11.334Z</time>
      </trkpt>
      <trkpt lat="50.53379" lon="1.58498">
        <ele>10</ele>
        <time>2023-02-19T09:00:16.548Z</time>
      </trkpt>
      <trkpt lat="50.53383" lon="1.58502">
        <ele>10</ele>
        <time>2023-02-19T09:00:20.562Z</time>
      </trkpt>
      <trkpt lat="50.53389" lon="1.58506">
        <ele>10</ele>
        <time>2023-02-19T09:00:24.994Z</time>
      </trkpt>
      <trkpt lat="50.53392" lon="1.58513">
        <ele>10</ele>
        <time>2023-02-19T09:00:29.539Z</time>
      </trkpt>
      <trkpt lat="50.53399" lon="1.58516">
        <ele>10</ele>
        <time>2023-02-19T09:00:34.203Z</time>
      </trkpt>
      <trkpt lat="50.53403" lon="1.58521">
        <ele>10</ele>
        <time>2023-02-19T09:00:38.628Z</time>
      </trkpt>
      <trkpt lat="50.53406" lon="1.58526">
        <ele>10</ele>
        <time>2023-02-19T09:00:42.459Z</time>
      </trkpt>
      <trkpt lat="50.53411" lon="1.58532">
        <ele>10</ele>
        <time>2023-02-19T09:00:47.207Z</time>
      </trkpt>
      <trkpt lat="50.53417" lon="1.58534">
        <ele>10</ele>
        <time>2023-02-19T09:00:51.993Z</time>
      </trkpt>
      <trkpt lat="50.53422" lon="1.58537">
        <ele>10</ele>
        <time>2023-02-19T09:00:56.481Z</time>
      </trkpt>
      <trkpt lat="50.53427" lon="1.5854">
        <ele>10</ele>
        <time>2023-02-19T09:01:00.843Z</time>
      </trkpt>
      <trkpt lat="50.53432" lon="1.58545">
        <ele>10</ele>
        <time>2023-02-19T09:01:05.386Z</time>
      </trkpt>
      <trkpt lat="50.53436" lon="1.58546">
        <ele>10</ele>
        <time>2023-02-19T09:01:08.805Z</time>
      </trkpt>
      <trkpt lat="50.53446" lon="1.58547">
        <ele>10</ele>
        <time>2023-02-19T09:01:16.495Z</time>
      </trkpt>
      <trkpt lat="50.53449" lon="1.58552">
        <ele>10</ele>
        <time>2023-02-19T09:01:20.716Z</time>
      </trkpt>
      <trkpt lat="50.53453" lon="1.58558">
        <ele>10</ele>
        <time>2023-02-19T09:01:24.834Z</time>
      </trkpt>
      <trkpt lat="50.53458" lon="1.58563">
        <ele>9</ele>
        <time>2023-02-19T09:01:29.392Z</time>
      </trkpt>
      <trkpt lat="50.53464" lon="1.58566">
        <ele>9</ele>
        <time>2023-02-19T09:01:33.895Z</time>
      </trkpt>
      <trkpt lat="50.53469" lon="1.5857">
        <ele>9</ele>
        <time>2023-02-19T09:01:38.418Z</time>
      </trkpt>
      <trkpt lat="50.53474" lon="1.58575">
        <ele>9</ele>
        <time>2023-02-19T09:01:43.422Z</time>
      </trkpt>
      <trkpt lat="50.53478" lon="1.58582">
        <ele>9</ele>
        <time>2023-02-19T09:01:47.464Z</time>
      </trkpt>
      <trkpt lat="50.53483" lon="1.58585">
        <ele>9</ele>
        <time>2023-02-19T09:01:52.546Z</time>
      </trkpt>
      <trkpt lat="50.53488" lon="1.58589">
        <ele>9</ele>
        <time>2023-02-19T09:01:56.668Z</time>
      </trkpt>
      <trkpt lat="50.53493" lon="1.58595">
        <ele>9</ele>
        <time>2023-02-19T09:02:01.406Z</time>
      </trkpt>
      <trkpt lat="50.53498" lon="1.58601">
        <ele>9</ele>
        <time>2023-02-19T09:02:06.127Z</time>
      </trkpt>
      <trkpt lat="50.53502" lon="1.58606">
        <ele>9</ele>
        <time>2023-02-19T09:02:10.507Z</time>
      </trkpt>
      <trkpt lat="50.53506" lon="1.58611">
        <ele>9</ele>
        <time>2023-02-19T09:02:14.862Z</time>
      </trkpt>
      <trkpt lat="50.5351" lon="1.58615">
        <ele>9</ele>
        <time>2023-02-19T09:02:18.826Z</time>
      </trkpt>
      <trkpt lat="50.53516" lon="1.58619">
        <ele>9</ele>
        <time>2023-02-19T09:02:23.329Z</time>
      </trkpt>
      <trkpt lat="50.53521" lon="1.58621">
        <ele>9</ele>
        <time>2023-02-19T09:02:27.813Z</time>
      </trkpt>
      <trkpt lat="50.53525" lon="1.58625">
        <ele>9</ele>
        <time>2023-02-19T09:02:32.406Z</time>
      </trkpt>
      <trkpt lat="50.5353" lon="1.5863">
        <ele>8</ele>
        <time>2023-02-19T09:02:37.643Z</time>
      </trkpt>
      <trkpt lat="50.53535" lon="1.58635">
        <ele>8</ele>
        <time>2023-02-19T09:02:41.601Z</time>
      </trkpt>
      <trkpt lat="50.53541" lon="1.5864">
        <ele>8</ele>
        <time>2023-02-19T09:02:46.712Z</time>
      </trkpt>
      <trkpt lat="50.53546" lon="1.58644">
        <ele>8</ele>
        <time>2023-02-19T09:02:51.059Z</time>
      </trkpt>
      <trkpt lat="50.53553" lon="1.58651">
        <ele>8</ele>
        <time>2023-02-19T09:02:55.461Z</time>
      </trkpt>
      <trkpt lat="50.53558" lon="1.58654">
        <ele>8</ele>
        <time>2023-02-19T09:02:59.958Z</time>
      </trkpt>
      <trkpt lat="50.53564" lon="1.58657">
        <ele>8</ele>
        <time>2023-02-19T09:03:04.518Z</time>
      </trkpt>
      <trkpt lat="50.53569" lon="1.5866">
        <ele>8</ele>
        <time>2023-02-19T09:03:09.193Z</time>
      </trkpt>
      <trkpt lat="50.53575" lon="1.58665">
        <ele>8</ele>
        <time>2023-02-19T09:03:14.468Z</time>
      </trkpt>
      <trkpt lat="50.5358" lon="1.58669">
        <ele>8</ele>
        <time>2023-02-19T09:03:18.423Z</time>
      </trkpt>
      <trkpt lat="50.53583" lon="1.58672">
        <ele>8</ele>
        <time>2023-02-19T09:03:23.054Z</time>
      </trkpt>
      <trkpt lat="50.53588" lon="1.58677">
        <ele>8</ele>
        <time>2023-02-19T09:03:27.601Z</time>
      </trkpt>
      <trkpt lat="50.53593" lon="1.58682">
        <ele>8</ele>
        <time>2023-02-19T09:03:32.815Z</time>
      </trkpt>
      <trkpt lat="50.53598" lon="1.58687">
        <ele>8</ele>
        <time>2023-02-19T09:03:36.817Z</time>
      </trkpt>
      <trkpt lat="50.53602" lon="1.58689">
        <ele>8</ele>
        <time>2023-02-19T09:03:40.998Z</time>
      </trkpt>
      <trkpt lat="50.53607" lon="1.58692">
        <ele>8</ele>
        <time>2023-02-19T09:03:44.956Z</time>
      </trkpt>
      <trkpt lat="50.53612" lon="1.58694">
        <ele>8</ele>
        <time>2023-02-19T09:03:49.624Z</time>
      </trkpt>
      <trkpt lat="50.53617" lon="1.58697">
        <ele>8</ele>
        <time>2023-02-19T09:03:54.171Z</time>
      </trkpt>
      <trkpt lat="50.53621" lon="1.58701">
        <ele>8</ele>
        <time>2023-02-19T09:03:58.835Z</time>
      </trkpt>
      <trkpt lat="50.53627" lon="1.58706">
        <ele>8</ele>
        <time>2023-02-19T09:04:03.377Z</time>
      </trkpt>
      <trkpt lat="50.53633" lon="1.58709">
        <ele>8</ele>
        <time>2023-02-19T09:04:08.040Z</time>
      </trkpt>
      <trkpt lat="50.53637" lon="1.58713">
        <ele>8</ele>
        <time>2023-02-19T09:04:12.823Z</time>
      </trkpt>
      <trkpt lat="50.53642" lon="1.58717">
        <ele>8</ele>
        <time>2023-02-19T09:04:17.598Z</time>
      </trkpt>
      <trkpt lat="50.53647" lon="1.58721">
        <ele>8</ele>
        <time>2023-02-19T09:04:21.671Z</time>
      </trkpt>
      <trkpt lat="50.53651" lon="1.58725">
        <ele>8</ele>
        <time>2023-02-19T09:04:26.200Z</time>
      </trkpt>
      <trkpt lat="50.53654" lon="1.5873">
        <ele>8</ele>
        <time>2023-02-19T09:04:30.160Z</time>
      </trkpt>
      <trkpt lat="50.53654" lon="1.58735">
        <ele>8</ele>
        <time>2023-02-19T09:04:34.228Z</time>
      </trkpt>
      <trkpt lat="50.5366" lon="1.58738">
        <ele>7</ele>
        <time>2023-02-19T09:04:41.527Z</time>
      </trkpt>
      <trkpt lat="50.5366" lon="1.58737">
        <ele>7</ele>
        <time>2023-02-19T09:04:45.715Z</time>
      </trkpt>
      <trkpt lat="50.53663" lon="1.58737">
        <ele>7</ele>
        <time>2023-02-19T09:04:49.669Z</time>
      </trkpt>
      <trkpt lat="50.53671" lon="1.58743">
        <ele>7</ele>
        <time>2023-02-19T09:04:54.059Z</time>
      </trkpt>
      <trkpt lat="50.53676" lon="1.58746">
        <ele>7</ele>
        <time>2023-02-19T09:04:58.765Z</time>
      </trkpt>
      <trkpt lat="50.53679" lon="1.5875">
        <ele>7</ele>
        <time>2023-02-19T09:05:02.953Z</time>
      </trkpt>
      <trkpt lat="50.53681" lon="1.58753">
        <ele>7</ele>
        <time>2023-02-19T09:05:07.381Z</time>
      </trkpt>
      <trkpt lat="50.53688" lon="1.58753">
        <ele>7</ele>
        <time>2023-02-19T09:05:12.763Z</time>
      </trkpt>
      <trkpt lat="50.53691" lon="1.58755">
        <ele>7</ele>
        <time>2023-02-19T09:05:16.591Z</time>
      </trkpt>
      <trkpt lat="50.53697" lon="1.58759">
        <ele>7</ele>
        <time>2023-02-19T09:05:21.373Z</time>
      </trkpt>
      <trkpt lat="50.53701" lon="1.58764">
        <ele>8</ele>
        <time>2023-02-19T09:05:26.629Z</time>
      </trkpt>
      <trkpt lat="50.53705" lon="1.58768">
        <ele>8</ele>
        <time>2023-02-19T09:05:30.811Z</time>
      </trkpt>
      <trkpt lat="50.53711" lon="1.58771">
        <ele>8</ele>
        <time>2023-02-19T09:05:34.975Z</time>
      </trkpt>
      <trkpt lat="50.53716" lon="1.58774">
        <ele>8</ele>
        <time>2023-02-19T09:05:39.059Z</time>
      </trkpt>
      <trkpt lat="50.53722" lon="1.58778">
        <ele>8</ele>
        <time>2023-02-19T09:05:43.817Z</time>
      </trkpt>
      <trkpt lat="50.53727" lon="1.58781">
        <ele>8</ele>
        <time>2023-02-19T09:05:48.239Z</time>
      </trkpt>
      <trkpt lat="50.53731" lon="1.58785">
        <ele>8</ele>
        <time>2023-02-19T09:05:52.851Z</time>
      </trkpt>
      <trkpt lat="50.53737" lon="1.58789">
        <ele>8</ele>
        <time>2023-02-19T09:05:57.424Z</time>
      </trkpt>
      <trkpt lat="50.53743" lon="1.58792">
        <ele>8</ele>
        <time>2023-02-19T09:06:02.206Z</time>
      </trkpt>
      <trkpt lat="50.53748" lon="1.58794">
        <ele>8</ele>
        <time>2023-02-19T09:06:06.879Z</time>
      </trkpt>
      <trkpt lat="50.53752" lon="1.58796">
        <ele>8</ele>
        <time>2023-02-19T09:06:10.810Z</time>
      </trkpt>
      <trkpt lat="50.53758" lon="1.58802">
        <ele>8</ele>
        <time>2023-02-19T09:06:15.858Z</time>
      </trkpt>
      <trkpt lat="50.53763" lon="1.58805">
        <ele>8</ele>
        <time>2023-02-19T09:06:20.370Z</time>
      </trkpt>
      <trkpt lat="50.53767" lon="1.58808">
        <ele>8</ele>
        <time>2023-02-19T09:06:24.435Z</time>
      </trkpt>
      <trkpt lat="50.53773" lon="1.5881">
        <ele>8</ele>
        <time>2023-02-19T09:06:29.219Z</time>
      </trkpt>
      <trkpt lat="50.53778" lon="1.58815">
        <ele>8</ele>
        <time>2023-02-19T09:06:33.642Z</time>
      </trkpt>
      <trkpt lat="50.53783" lon="1.58821">
        <ele>7</ele>
        <time>2023-02-19T09:06:38.184Z</time>
      </trkpt>
      <trkpt lat="50.53785" lon="1.58826">
        <ele>7</ele>
        <time>2023-02-19T09:06:41.654Z</time>
      </trkpt>
      <trkpt lat="50.53785" lon="1.58831">
        <ele>7</ele>
        <time>2023-02-19T09:06:47.803Z</time>
      </trkpt>
      <trkpt lat="50.53785" lon="1.5883">
        <ele>7</ele>
        <time>2023-02-19T09:06:52.059Z</time>
      </trkpt>
      <trkpt lat="50.53789" lon="1.58832">
        <ele>7</ele>
        <time>2023-02-19T09:06:56.669Z</time>
      </trkpt>
      <trkpt lat="50.53802" lon="1.58836">
        <ele>8</ele>
        <time>2023-02-19T09:07:01.147Z</time>
      </trkpt>
      <trkpt lat="50.53807" lon="1.58838">
        <ele>8</ele>
        <time>2023-02-19T09:07:05.224Z</time>
      </trkpt>
      <trkpt lat="50.53813" lon="1.5884">
        <ele>8</ele>
        <time>2023-02-19T09:07:09.960Z</time>
      </trkpt>
      <trkpt lat="50.53816" lon="1.58846">
        <ele>8</ele>
        <time>2023-02-19T09:07:14.616Z</time>
      </trkpt>
      <trkpt lat="50.53818" lon="1.58854">
        <ele>9</ele>
        <time>2023-02-19T09:07:19.232Z</time>
      </trkpt>
      <trkpt lat="50.53824" lon="1.58861">
        <ele>9</ele>
        <time>2023-02-19T09:07:23.907Z</time>
      </trkpt>
      <trkpt lat="50.53829" lon="1.58867">
        <ele>9</ele>
        <time>2023-02-19T09:07:28.403Z</time>
      </trkpt>
      <trkpt lat="50.53833" lon="1.58876">
        <ele>9</ele>
        <time>2023-02-19T09:07:32.997Z</time>
      </trkpt>
      <trkpt lat="50.53836" lon="1.58883">
        <ele>9</ele>
        <time>2023-02-19T09:07:37.552Z</time>
      </trkpt>
      <trkpt lat="50.53839" lon="1.5889">
        <ele>9</ele>
        <time>2023-02-19T09:07:42.186Z</time>
      </trkpt>
      <trkpt lat="50.53841" lon="1.58898">
        <ele>9</ele>
        <time>2023-02-19T09:07:46.559Z</time>
      </trkpt>
      <trkpt lat="50.53844" lon="1.58904">
        <ele>9</ele>
        <time>2023-02-19T09:07:51.059Z</time>
      </trkpt>
      <trkpt lat="50.53847" lon="1.58912">
        <ele>9</ele>
        <time>2023-02-19T09:07:55.548Z</time>
      </trkpt>
      <trkpt lat="50.53852" lon="1.58918">
        <ele>8</ele>
        <time>2023-02-19T09:07:59.383Z</time>
      </trkpt>
      <trkpt lat="50.53857" lon="1.58923">
        <ele>8</ele>
        <time>2023-02-19T09:08:04.599Z</time>
      </trkpt>
      <trkpt lat="50.53861" lon="1.58931">
        <ele>9</ele>
        <time>2023-02-19T09:08:08.432Z</time>
      </trkpt>
      <trkpt lat="50.53867" lon="1.58935">
        <ele>9</ele>
        <time>2023-02-19T09:08:13.351Z</time>
      </trkpt>
      <trkpt lat="50.53867" lon="1.58933">
        <ele>9</ele>
        <time>2023-02-19T09:08:22.356Z</time>
      </trkpt>
      <trkpt lat="50.53867" lon="1.58931">
        <ele>9</ele>
        <time>2023-02-19T09:08:27.777Z</time>
      </trkpt>
      <trkpt lat="50.53862" lon="1.58933">
        <ele>9</ele>
        <time>2023-02-19T09:08:31.855Z</time>
      </trkpt>
      <trkpt lat="50.53861" lon="1.58935">
        <ele>9</ele>
        <time>2023-02-19T09:08:35.994Z</time>
      </trkpt>
      <trkpt lat="50.53857" lon="1.58934">
        <ele>9</ele>
        <time>2023-02-19T09:08:40.845Z</time>
      </trkpt>
      <trkpt lat="50.5385" lon="1.5894">
        <ele>9</ele>
        <time>2023-02-19T09:08:45.606Z</time>
      </trkpt>
      <trkpt lat="50.5385" lon="1.58947">
        <ele>9</ele>
        <time>2023-02-19T09:08:49.795Z</time>
      </trkpt>
      <trkpt lat="50.53852" lon="1.58958">
        <ele>9</ele>
        <time>2023-02-19T09:08:54.580Z</time>
      </trkpt>
      <trkpt lat="50.53851" lon="1.58967">
        <ele>7</ele>
        <time>2023-02-19T09:08:59.059Z</time>
      </trkpt>
      <trkpt lat="50.53851" lon="1.58973">
        <ele>7</ele>
        <time>2023-02-19T09:09:02.955Z</time>
      </trkpt>
      <trkpt lat="50.5385" lon="1.58983">
        <ele>7</ele>
        <time>2023-02-19T09:09:07.381Z</time>
      </trkpt>
      <trkpt lat="50.53851" lon="1.5899">
        <ele>7</ele>
        <time>2023-02-19T09:09:11.830Z</time>
      </trkpt>
      <trkpt lat="50.53849" lon="1.58998">
        <ele>7</ele>
        <time>2023-02-19T09:09:16.314Z</time>
      </trkpt>
      <trkpt lat="50.53847" lon="1.59005">
        <ele>7</ele>
        <time>2023-02-19T09:09:20.298Z</time>
      </trkpt>
      <trkpt lat="50.53846" lon="1.59014">
        <ele>7</ele>
        <time>2023-02-19T09:09:24.843Z</time>
      </trkpt>
      <trkpt lat="50.53844" lon="1.59022">
        <ele>6</ele>
        <time>2023-02-19T09:09:29.028Z</time>
      </trkpt>
      <trkpt lat="50.53842" lon="1.59029">
        <ele>6</ele>
        <time>2023-02-19T09:09:32.971Z</time>
      </trkpt>
      <trkpt lat="50.5384" lon="1.59039">
        <ele>6</ele>
        <time>2023-02-19T09:09:37.631Z</time>
      </trkpt>
      <trkpt lat="50.53839" lon="1.59047">
        <ele>6</ele>
        <time>2023-02-19T09:09:41.815Z</time>
      </trkpt>
      <trkpt lat="50.53842" lon="1.59055">
        <ele>6</ele>
        <time>2023-02-19T09:09:46.357Z</time>
      </trkpt>
      <trkpt lat="50.53845" lon="1.59056">
        <ele>6</ele>
        <time>2023-02-19T09:09:50.426Z</time>
      </trkpt>
      <trkpt lat="50.53846" lon="1.59055">
        <ele>6</ele>
        <time>2023-02-19T09:09:54.583Z</time>
      </trkpt>
      <trkpt lat="50.53846" lon="1.59055">
        <ele>6</ele>
        <time>2023-02-19T09:09:59.761Z</time>
      </trkpt>
      <trkpt lat="50.53845" lon="1.59058">
        <ele>6</ele>
        <time>2023-02-19T09:10:03.757Z</time>
      </trkpt>
      <trkpt lat="50.5384" lon="1.59066">
        <ele>6</ele>
        <time>2023-02-19T09:10:07.826Z</time>
      </trkpt>
      <trkpt lat="50.53834" lon="1.59074">
        <ele>4</ele>
        <time>2023-02-19T09:10:12.372Z</time>
      </trkpt>
      <trkpt lat="50.5383" lon="1.59079">
        <ele>4</ele>
        <time>2023-02-19T09:10:16.440Z</time>
      </trkpt>
      <trkpt lat="50.53826" lon="1.59085">
        <ele>4</ele>
        <time>2023-02-19T09:10:20.629Z</time>
      </trkpt>
      <trkpt lat="50.53821" lon="1.59093">
        <ele>4</ele>
        <time>2023-02-19T09:10:24.575Z</time>
      </trkpt>
      <trkpt lat="50.53816" lon="1.59102">
        <ele>5</ele>
        <time>2023-02-19T09:10:29.358Z</time>
      </trkpt>
      <trkpt lat="50.53811" lon="1.59109">
        <ele>5</ele>
        <time>2023-02-19T09:10:33.851Z</time>
      </trkpt>
      <trkpt lat="50.53805" lon="1.59117">
        <ele>5</ele>
        <time>2023-02-19T09:10:38.900Z</time>
      </trkpt>
      <trkpt lat="50.538" lon="1.59124">
        <ele>5</ele>
        <time>2023-02-19T09:10:43.440Z</time>
      </trkpt>
      <trkpt lat="50.53791" lon="1.59146">
        <ele>4</ele>
        <time>2023-02-19T09:11:07.534Z</time>
      </trkpt>
      <trkpt lat="50.53789" lon="1.59147">
        <ele>4</ele>
        <time>2023-02-19T09:11:12.669Z</time>
      </trkpt>
      <trkpt lat="50.53784" lon="1.59154">
        <ele>3</ele>
        <time>2023-02-19T09:11:16.801Z</time>
      </trkpt>
      <trkpt lat="50.53776" lon="1.59158">
        <ele>3</ele>
        <time>2023-02-19T09:11:21.403Z</time>
      </trkpt>
      <trkpt lat="50.53772" lon="1.59161">
        <ele>3</ele>
        <time>2023-02-19T09:11:25.590Z</time>
      </trkpt>
      <trkpt lat="50.53766" lon="1.59167">
        <ele>3</ele>
        <time>2023-02-19T09:11:29.619Z</time>
      </trkpt>
      <trkpt lat="50.53768" lon="1.59175">
        <ele>3</ele>
        <time>2023-02-19T09:11:34.165Z</time>
      </trkpt>
      <trkpt lat="50.53769" lon="1.59179">
        <ele>3</ele>
        <time>2023-02-19T09:11:38.751Z</time>
      </trkpt>
      <trkpt lat="50.53772" lon="1.59184">
        <ele>3</ele>
        <time>2023-02-19T09:11:42.756Z</time>
      </trkpt>
      <trkpt lat="50.53771" lon="1.59179">
        <ele>3</ele>
        <time>2023-02-19T09:12:16.403Z</time>
      </trkpt>
      <trkpt lat="50.5377" lon="1.59177">
        <ele>3</ele>
        <time>2023-02-19T09:12:20.593Z</time>
      </trkpt>
      <trkpt lat="50.5377" lon="1.59175">
        <ele>3</ele>
        <time>2023-02-19T09:12:25.618Z</time>
      </trkpt>
      <trkpt lat="50.5377" lon="1.59172">
        <ele>3</ele>
        <time>2023-02-19T09:12:29.685Z</time>
      </trkpt>
      <trkpt lat="50.53768" lon="1.5917">
        <ele>3</ele>
        <time>2023-02-19T09:12:34.758Z</time>
      </trkpt>
      <trkpt lat="50.53768" lon="1.5917">
        <ele>3</ele>
        <time>2023-02-19T09:12:38.829Z</time>
      </trkpt>
      <trkpt lat="50.53767" lon="1.59169">
        <ele>3</ele>
        <time>2023-02-19T09:12:43.617Z</time>
      </trkpt>
      <trkpt lat="50.53766" lon="1.59168">
        <ele>3</ele>
        <time>2023-02-19T09:12:48.163Z</time>
      </trkpt>
      <trkpt lat="50.53762" lon="1.5917">
        <ele>4</ele>
        <time>2023-02-19T09:12:52.816Z</time>
      </trkpt>
      <trkpt lat="50.53757" lon="1.59175">
        <ele>4</ele>
        <time>2023-02-19T09:12:56.835Z</time>
      </trkpt>
      <trkpt lat="50.53753" lon="1.59181">
        <ele>3</ele>
        <time>2023-02-19T09:13:00.845Z</time>
      </trkpt>
      <trkpt lat="50.53749" lon="1.59187">
        <ele>3</ele>
        <time>2023-02-19T09:13:05.389Z</time>
      </trkpt>
      <trkpt lat="50.53745" lon="1.59191">
        <ele>3</ele>
        <time>2023-02-19T09:13:09.454Z</time>
      </trkpt>
      <trkpt lat="50.53741" lon="1.59198">
        <ele>3</ele>
        <time>2023-02-19T09:13:14.236Z</time>
      </trkpt>
      <trkpt lat="50.53737" lon="1.59205">
        <ele>3</ele>
        <time>2023-02-19T09:13:18.298Z</time>
      </trkpt>
      <trkpt lat="50.53732" lon="1.59213">
        <ele>4</ele>
        <time>2023-02-19T09:13:22.939Z</time>
      </trkpt>
      <trkpt lat="50.5373" lon="1.59218">
        <ele>4</ele>
        <time>2023-02-19T09:13:26.898Z</time>
      </trkpt>
      <trkpt lat="50.53728" lon="1.59224">
        <ele>4</ele>
        <time>2023-02-19T09:13:31.556Z</time>
      </trkpt>
      <trkpt lat="50.53725" lon="1.59233">
        <ele>4</ele>
        <time>2023-02-19T09:13:36.059Z</time>
      </trkpt>
      <trkpt lat="50.53723" lon="1.59241">
        <ele>3</ele>
        <time>2023-02-19T09:13:40.034Z</time>
      </trkpt>
      <trkpt lat="50.53721" lon="1.59252">
        <ele>3</ele>
        <time>2023-02-19T09:13:44.817Z</time>
      </trkpt>
      <trkpt lat="50.53719" lon="1.5926">
        <ele>3</ele>
        <time>2023-02-19T09:13:48.821Z</time>
      </trkpt>
      <trkpt lat="50.53716" lon="1.59265">
        <ele>5</ele>
        <time>2023-02-19T09:13:53.318Z</time>
      </trkpt>
      <trkpt lat="50.53711" lon="1.59267">
        <ele>5</ele>
        <time>2023-02-19T09:13:57.437Z</time>
      </trkpt>
      <trkpt lat="50.53704" lon="1.59268">
        <ele>4</ele>
        <time>2023-02-19T09:14:02.220Z</time>
      </trkpt>
      <trkpt lat="50.53699" lon="1.59265">
        <ele>4</ele>
        <time>2023-02-19T09:14:06.764Z</time>
      </trkpt>
      <trkpt lat="50.53694" lon="1.59265">
        <ele>4</ele>
        <time>2023-02-19T09:14:10.831Z</time>
      </trkpt>
      <trkpt lat="50.5369" lon="1.59262">
        <ele>3</ele>
        <time>2023-02-19T09:14:15.598Z</time>
      </trkpt>
      <trkpt lat="50.53686" lon="1.59266">
        <ele>4</ele>
        <time>2023-02-19T09:14:20.005Z</time>
      </trkpt>
      <trkpt lat="50.53682" lon="1.59273">
        <ele>4</ele>
        <time>2023-02-19T09:14:24.310Z</time>
      </trkpt>
      <trkpt lat="50.53675" lon="1.59286">
        <ele>3</ele>
        <time>2023-02-19T09:14:46.658Z</time>
      </trkpt>
      <trkpt lat="50.53669" lon="1.59277">
        <ele>3</ele>
        <time>2023-02-19T09:14:51.163Z</time>
      </trkpt>
      <trkpt lat="50.53667" lon="1.5927">
        <ele>3</ele>
        <time>2023-02-19T09:14:55.604Z</time>
      </trkpt>
      <trkpt lat="50.53662" lon="1.59263">
        <ele>4</ele>
        <time>2023-02-19T09:15:00.102Z</time>
      </trkpt>
      <trkpt lat="50.53658" lon="1.59259">
        <ele>4</ele>
        <time>2023-02-19T09:15:04.572Z</time>
      </trkpt>
      <trkpt lat="50.5365" lon="1.59253">
        <ele>6</ele>
        <time>2023-02-19T09:15:08.997Z</time>
      </trkpt>
      <trkpt lat="50.53644" lon="1.5925">
        <ele>6</ele>
        <time>2023-02-19T09:15:12.972Z</time>
      </trkpt>
      <trkpt lat="50.53639" lon="1.59248">
        <ele>6</ele>
        <time>2023-02-19T09:15:17.059Z</time>
      </trkpt>
      <trkpt lat="50.53635" lon="1.59247">
        <ele>6</ele>
        <time>2023-02-19T09:15:21.506Z</time>
      </trkpt>
      <trkpt lat="50.53632" lon="1.59243">
        <ele>6</ele>
        <time>2023-02-19T09:15:25.581Z</time>
      </trkpt>
      <trkpt lat="50.53628" lon="1.59236">
        <ele>5</ele>
        <time>2023-02-19T09:15:30.818Z</time>
      </trkpt>
      <trkpt lat="50.53625" lon="1.5923">
        <ele>7</ele>
        <time>2023-02-19T09:15:34.812Z</time>
      </trkpt>
      <trkpt lat="50.53623" lon="1.59228">
        <ele>7</ele>
        <time>2023-02-19T09:15:39.327Z</time>
      </trkpt>
      <trkpt lat="50.53618" lon="1.59224">
        <ele>7</ele>
        <time>2023-02-19T09:15:43.819Z</time>
      </trkpt>
      <trkpt lat="50.53613" lon="1.59218">
        <ele>7</ele>
        <time>2023-02-19T09:15:48.254Z</time>
      </trkpt>
      <trkpt lat="50.53611" lon="1.59209">
        <ele>7</ele>
        <time>2023-02-19T09:15:52.696Z</time>
      </trkpt>
      <trkpt lat="50.53608" lon="1.59205">
        <ele>7</ele>
        <time>2023-02-19T09:15:57.229Z</time>
      </trkpt>
      <trkpt lat="50.53604" lon="1.59199">
        <ele>7</ele>
        <time>2023-02-19T09:16:01.663Z</time>
      </trkpt>
      <trkpt lat="50.53601" lon="1.59194">
        <ele>7</ele>
        <time>2023-02-19T09:16:05.617Z</time>
      </trkpt>
      <trkpt lat="50.53598" lon="1.59189">
        <ele>7</ele>
        <time>2023-02-19T09:16:09.613Z</time>
      </trkpt>
      <trkpt lat="50.53594" lon="1.59183">
        <ele>9</ele>
        <time>2023-02-19T09:16:14.200Z</time>
      </trkpt>
      <trkpt lat="50.53591" lon="1.59179">
        <ele>9</ele>
        <time>2023-02-19T09:16:18.562Z</time>
      </trkpt>
      <trkpt lat="50.53587" lon="1.59178">
        <ele>9</ele>
        <time>2023-02-19T09:16:23.181Z</time>
      </trkpt>
      <trkpt lat="50.53583" lon="1.59176">
        <ele>9</ele>
        <time>2023-02-19T09:16:27.594Z</time>
      </trkpt>
      <trkpt lat="50.5358" lon="1.59173">
        <ele>9</ele>
        <time>2023-02-19T09:16:32.059Z</time>
      </trkpt>
      <trkpt lat="50.53577" lon="1.59166">
        <ele>9</ele>
        <time>2023-02-19T09:16:36.516Z</time>
      </trkpt>
      <trkpt lat="50.53575" lon="1.59161">
        <ele>9</ele>
        <time>2023-02-19T09:16:40.991Z</time>
      </trkpt>
      <trkpt lat="50.53572" lon="1.5916">
        <ele>9</ele>
        <time>2023-02-19T09:16:45.517Z</time>
      </trkpt>
      <trkpt lat="50.53569" lon="1.59158">
        <ele>9</ele>
        <time>2023-02-19T09:16:49.576Z</time>
      </trkpt>
      <trkpt lat="50.53565" lon="1.59151">
        <ele>8</ele>
        <time>2023-02-19T09:16:54.059Z</time>
      </trkpt>
      <trkpt lat="50.5356" lon="1.5914">
        <ele>8</ele>
        <time>2023-02-19T09:16:58.215Z</time>
      </trkpt>
      <trkpt lat="50.53557" lon="1.59131">
        <ele>8</ele>
        <time>2023-02-19T09:17:02.808Z</time>
      </trkpt>
      <trkpt lat="50.53555" lon="1.59124">
        <ele>8</ele>
        <time>2023-02-19T09:17:07.178Z</time>
      </trkpt>
      <trkpt lat="50.53549" lon="1.59117">
        <ele>8</ele>
        <time>2023-02-19T09:17:11.811Z</time>
      </trkpt>
      <trkpt lat="50.53544" lon="1.59112">
        <ele>8</ele>
        <time>2023-02-19T09:17:15.790Z</time>
      </trkpt>
      <trkpt lat="50.5354" lon="1.59107">
        <ele>9</ele>
        <time>2023-02-19T09:17:19.974Z</time>
      </trkpt>
      <trkpt lat="50.53537" lon="1.59102">
        <ele>9</ele>
        <time>2023-02-19T09:17:24.023Z</time>
      </trkpt>
      <trkpt lat="50.53534" lon="1.59097">
        <ele>8</ele>
        <time>2023-02-19T09:17:28.103Z</time>
      </trkpt>
      <trkpt lat="50.5353" lon="1.59091">
        <ele>8</ele>
        <time>2023-02-19T09:17:32.167Z</time>
      </trkpt>
      <trkpt lat="50.53526" lon="1.59086">
        <ele>8</ele>
        <time>2023-02-19T09:17:36.230Z</time>
      </trkpt>
      <trkpt lat="50.53522" lon="1.59081">
        <ele>8</ele>
        <time>2023-02-19T09:17:40.412Z</time>
      </trkpt>
      <trkpt lat="50.53519" lon="1.59075">
        <ele>8</ele>
        <time>2023-02-19T09:17:44.595Z</time>
      </trkpt>
      <trkpt lat="50.53517" lon="1.59069">
        <ele>9</ele>
        <time>2023-02-19T09:17:48.659Z</time>
      </trkpt>
      <trkpt lat="50.53514" lon="1.59064">
        <ele>9</ele>
        <time>2023-02-19T09:17:52.600Z</time>
      </trkpt>
      <trkpt lat="50.53512" lon="1.5906">
        <ele>9</ele>
        <time>2023-02-19T09:17:56.755Z</time>
      </trkpt>
      <trkpt lat="50.5351" lon="1.59056">
        <ele>9</ele>
        <time>2023-02-19T09:18:00.722Z</time>
      </trkpt>
      <trkpt lat="50.53507" lon="1.59053">
        <ele>9</ele>
        <time>2023-02-19T09:18:05.380Z</time>
      </trkpt>
      <trkpt lat="50.53504" lon="1.5905">
        <ele>9</ele>
        <time>2023-02-19T09:18:10.040Z</time>
      </trkpt>
      <trkpt lat="50.535" lon="1.59046">
        <ele>9</ele>
        <time>2023-02-19T09:18:14.579Z</time>
      </trkpt>
      <trkpt lat="50.53495" lon="1.59044">
        <ele>9</ele>
        <time>2023-02-19T09:18:19.059Z</time>
      </trkpt>
      <trkpt lat="50.5349" lon="1.5904">
        <ele>9</ele>
        <time>2023-02-19T09:18:23.182Z</time>
      </trkpt>
      <trkpt lat="50.53485" lon="1.59034">
        <ele>10</ele>
        <time>2023-02-19T09:18:27.603Z</time>
      </trkpt>
      <trkpt lat="50.53481" lon="1.59029">
        <ele>10</ele>
        <time>2023-02-19T09:18:31.777Z</time>
      </trkpt>
      <trkpt lat="50.53477" lon="1.59021">
        <ele>10</ele>
        <time>2023-02-19T09:18:36.325Z</time>
      </trkpt>
      <trkpt lat="50.53474" lon="1.59014">
        <ele>10</ele>
        <time>2023-02-19T09:18:40.388Z</time>
      </trkpt>
      <trkpt lat="50.53473" lon="1.59011">
        <ele>10</ele>
        <time>2023-02-19T09:18:44.572Z</time>
      </trkpt>
      <trkpt lat="50.53471" lon="1.59012">
        <ele>10</ele>
        <time>2023-02-19T09:18:49.351Z</time>
      </trkpt>
      <trkpt lat="50.53467" lon="1.59">
        <ele>10</ele>
        <time>2023-02-19T09:18:54.011Z</time>
      </trkpt>
      <trkpt lat="50.53466" lon="1.58987">
        <ele>10</ele>
        <time>2023-02-19T09:18:58.791Z</time>
      </trkpt>
      <trkpt lat="50.53466" lon="1.58978">
        <ele>10</ele>
        <time>2023-02-19T09:19:03.415Z</time>
      </trkpt>
      <trkpt lat="50.53467" lon="1.58972">
        <ele>10</ele>
        <time>2023-02-19T09:19:07.394Z</time>
      </trkpt>
      <trkpt lat="50.53466" lon="1.58964">
        <ele>10</ele>
        <time>2023-02-19T09:19:11.437Z</time>
      </trkpt>
      <trkpt lat="50.53462" lon="1.58958">
        <ele>12</ele>
        <time>2023-02-19T09:19:16.059Z</time>
      </trkpt>
      <trkpt lat="50.53459" lon="1.58951">
        <ele>12</ele>
        <time>2023-02-19T09:19:20.161Z</time>
      </trkpt>
      <trkpt lat="50.53458" lon="1.58944">
        <ele>12</ele>
        <time>2023-02-19T09:19:24.219Z</time>
      </trkpt>
      <trkpt lat="50.53458" lon="1.58936">
        <ele>12</ele>
        <time>2023-02-19T09:19:28.854Z</time>
      </trkpt>
      <trkpt lat="50.5346" lon="1.58932">
        <ele>12</ele>
        <time>2023-02-19T09:19:32.820Z</time>
      </trkpt>
      <trkpt lat="50.53463" lon="1.58928">
        <ele>12</ele>
        <time>2023-02-19T09:19:37.361Z</time>
      </trkpt>
      <trkpt lat="50.53463" lon="1.5892">
        <ele>12</ele>
        <time>2023-02-19T09:19:41.422Z</time>
      </trkpt>
      <trkpt lat="50.53462" lon="1.58905">
        <ele>12</ele>
        <time>2023-02-19T09:19:46.808Z</time>
      </trkpt>
      <trkpt lat="50.53468" lon="1.58891">
        <ele>13</ele>
        <time>2023-02-19T09:19:51.446Z</time>
      </trkpt>
      <trkpt lat="50.5347" lon="1.58889">
        <ele>13</ele>
        <time>2023-02-19T09:19:55.583Z</time>
      </trkpt>
      <trkpt lat="50.53468" lon="1.58881">
        <ele>13</ele>
        <time>2023-02-19T09:19:59.778Z</time>
      </trkpt>
      <trkpt lat="50.53466" lon="1.58869">
        <ele>12</ele>
        <time>2023-02-19T09:20:03.971Z</time>
      </trkpt>
      <trkpt lat="50.53465" lon="1.5886">
        <ele>12</ele>
        <time>2023-02-19T09:20:08.008Z</time>
      </trkpt>
      <trkpt lat="50.53465" lon="1.58852">
        <ele>12</ele>
        <time>2023-02-19T09:20:12.384Z</time>
      </trkpt>
      <trkpt lat="50.53464" lon="1.58845">
        <ele>11</ele>
        <time>2023-02-19T09:20:16.578Z</time>
      </trkpt>
      <trkpt lat="50.53462" lon="1.5884">
        <ele>11</ele>
        <time>2023-02-19T09:20:20.695Z</time>
      </trkpt>
      <trkpt lat="50.53459" lon="1.58835">
        <ele>11</ele>
        <time>2023-02-19T09:20:24.699Z</time>
      </trkpt>
      <trkpt lat="50.53455" lon="1.58824">
        <ele>12</ele>
        <time>2023-02-19T09:20:28.599Z</time>
      </trkpt>
      <trkpt lat="50.53454" lon="1.58818">
        <ele>12</ele>
        <time>2023-02-19T09:20:32.759Z</time>
      </trkpt>
      <trkpt lat="50.53454" lon="1.58815">
        <ele>12</ele>
        <time>2023-02-19T09:20:36.814Z</time>
      </trkpt>
      <trkpt lat="50.53453" lon="1.58809">
        <ele>12</ele>
        <time>2023-02-19T09:20:41.716Z</time>
      </trkpt>
      <trkpt lat="50.53451" lon="1.588">
        <ele>12</ele>
        <time>2023-02-19T09:20:46.813Z</time>
      </trkpt>
      <trkpt lat="50.53448" lon="1.58792">
        <ele>12</ele>
        <time>2023-02-19T09:20:51.372Z</time>
      </trkpt>
      <trkpt lat="50.53445" lon="1.58785">
        <ele>12</ele>
        <time>2023-02-19T09:20:55.819Z</time>
      </trkpt>
      <trkpt lat="50.5344" lon="1.58781">
        <ele>12</ele>
        <time>2023-02-19T09:21:00.386Z</time>
      </trkpt>
      <trkpt lat="50.53436" lon="1.58776">
        <ele>12</ele>
        <time>2023-02-19T09:21:04.582Z</time>
      </trkpt>
      <trkpt lat="50.53433" lon="1.58766">
        <ele>12</ele>
        <time>2023-02-19T09:21:09.376Z</time>
      </trkpt>
      <trkpt lat="50.53431" lon="1.58758">
        <ele>10</ele>
        <time>2023-02-19T09:21:13.816Z</time>
      </trkpt>
      <trkpt lat="50.53433" lon="1.58737">
        <ele>10</ele>
        <time>2023-02-19T09:21:35.979Z</time>
      </trkpt>
      <trkpt lat="50.53431" lon="1.58736">
        <ele>10</ele>
        <time>2023-02-19T09:21:40.473Z</time>
      </trkpt>
      <trkpt lat="50.53428" lon="1.58734">
        <ele>10</ele>
        <time>2023-02-19T09:21:45.577Z</time>
      </trkpt>
      <trkpt lat="50.53425" lon="1.58726">
        <ele>10</ele>
        <time>2023-02-19T09:21:50.059Z</time>
      </trkpt>
      <trkpt lat="50.5342" lon="1.5872">
        <ele>10</ele>
        <time>2023-02-19T09:21:53.972Z</time>
      </trkpt>
      <trkpt lat="50.53416" lon="1.58717">
        <ele>10</ele>
        <time>2023-02-19T09:21:58.585Z</time>
      </trkpt>
      <trkpt lat="50.53412" lon="1.58715">
        <ele>10</ele>
        <time>2023-02-19T09:22:02.778Z</time>
      </trkpt>
      <trkpt lat="50.53408" lon="1.58713">
        <ele>10</ele>
        <time>2023-02-19T09:22:07.210Z</time>
      </trkpt>
      <trkpt lat="50.53405" lon="1.58709">
        <ele>10</ele>
        <time>2023-02-19T09:22:11.163Z</time>
      </trkpt>
      <trkpt lat="50.53403" lon="1.58708">
        <ele>10</ele>
        <time>2023-02-19T09:22:15.830Z</time>
      </trkpt>
      <trkpt lat="50.53399" lon="1.58708">
        <ele>11</ele>
        <time>2023-02-19T09:22:20.371Z</time>
      </trkpt>
      <trkpt lat="50.53392" lon="1.58708">
        <ele>11</ele>
        <time>2023-02-19T09:22:25.158Z</time>
      </trkpt>
      <trkpt lat="50.53386" lon="1.58709">
        <ele>11</ele>
        <time>2023-02-19T09:22:29.225Z</time>
      </trkpt>
      <trkpt lat="50.53381" lon="1.58711">
        <ele>11</ele>
        <time>2023-02-19T09:22:34.009Z</time>
      </trkpt>
      <trkpt lat="50.53376" lon="1.58707">
        <ele>11</ele>
        <time>2023-02-19T09:22:38.196Z</time>
      </trkpt>
      <trkpt lat="50.53373" lon="1.587">
        <ele>12</ele>
        <time>2023-02-19T09:22:42.386Z</time>
      </trkpt>
      <trkpt lat="50.5337" lon="1.58695">
        <ele>12</ele>
        <time>2023-02-19T09:22:46.572Z</time>
      </trkpt>
      <trkpt lat="50.53365" lon="1.58692">
        <ele>12</ele>
        <time>2023-02-19T09:22:50.638Z</time>
      </trkpt>
      <trkpt lat="50.53363" lon="1.58688">
        <ele>12</ele>
        <time>2023-02-19T09:22:54.703Z</time>
      </trkpt>
      <trkpt lat="50.53359" lon="1.58683">
        <ele>12</ele>
        <time>2023-02-19T09:22:59.365Z</time>
      </trkpt>
      <trkpt lat="50.53355" lon="1.5868">
        <ele>11</ele>
        <time>2023-02-19T09:23:03.549Z</time>
      </trkpt>
      <trkpt lat="50.53353" lon="1.58677">
        <ele>11</ele>
        <time>2023-02-19T09:23:08.059Z</time>
      </trkpt>
      <trkpt lat="50.53352" lon="1.58675">
        <ele>11</ele>
        <time>2023-02-19T09:23:12.599Z</time>
      </trkpt>
      <trkpt lat="50.53349" lon="1.58673">
        <ele>11</ele>
        <time>2023-02-19T09:23:16.576Z</time>
      </trkpt>
      <trkpt lat="50.53345" lon="1.5867">
        <ele>12</ele>
        <time>2023-02-19T09:23:21.239Z</time>
      </trkpt>
      <trkpt lat="50.53341" lon="1.58666">
        <ele>12</ele>
        <time>2023-02-19T09:23:25.754Z</time>
      </trkpt>
      <trkpt lat="50.53338" lon="1.5866">
        <ele>12</ele>
        <time>2023-02-19T09:23:30.059Z</time>
      </trkpt>
      <trkpt lat="50.53335" lon="1.58654">
        <ele>12</ele>
        <time>2023-02-19T09:23:34.029Z</time>
      </trkpt>
      <trkpt lat="50.53333" lon="1.5865">
        <ele>11</ele>
        <time>2023-02-19T09:23:38.212Z</time>
      </trkpt>
      <trkpt lat="50.5333" lon="1.58647">
        <ele>11</ele>
        <time>2023-02-19T09:23:42.998Z</time>
      </trkpt>
      <trkpt lat="50.53328" lon="1.58642">
        <ele>11</ele>
        <time>2023-02-19T09:23:47.499Z</time>
      </trkpt>
      <trkpt lat="50.53328" lon="1.58638">
        <ele>11</ele>
        <time>2023-02-19T09:23:51.860Z</time>
      </trkpt>
      <trkpt lat="50.53328" lon="1.58634">
        <ele>11</ele>
        <time>2023-02-19T09:23:55.897Z</time>
      </trkpt>
      <trkpt lat="50.53327" lon="1.58629">
        <ele>11</ele>
        <time>2023-02-19T09:24:00.318Z</time>
      </trkpt>
      <trkpt lat="50.53326" lon="1.58622">
        <ele>11</ele>
        <time>2023-02-19T09:24:04.739Z</time>
      </trkpt>
      <trkpt lat="50.53325" lon="1.58615">
        <ele>11</ele>
        <time>2023-02-19T09:24:09.279Z</time>
      </trkpt>
      <trkpt lat="50.53324" lon="1.58609">
        <ele>11</ele>
        <time>2023-02-19T09:24:13.818Z</time>
      </trkpt>
      <trkpt lat="50.53325" lon="1.58603">
        <ele>11</ele>
        <time>2023-02-19T09:24:18Z</time>
      </trkpt>
      <trkpt lat="50.53322" lon="1.58599">
        <ele>11</ele>
        <time>2023-02-19T09:24:22.513Z</time>
      </trkpt>
      <trkpt lat="50.53318" lon="1.58595">
        <ele>11</ele>
        <time>2023-02-19T09:24:26.601Z</time>
      </trkpt>
      <trkpt lat="50.53314" lon="1.58591">
        <ele>11</ele>
        <time>2023-02-19T09:24:30.782Z</time>
      </trkpt>
      <trkpt lat="50.53309" lon="1.5858">
        <ele>11</ele>
        <time>2023-02-19T09:24:35.420Z</time>
      </trkpt>
      <trkpt lat="50.53307" lon="1.58571">
        <ele>11</ele>
        <time>2023-02-19T09:24:39.959Z</time>
      </trkpt>
      <trkpt lat="50.53301" lon="1.58564">
        <ele>10</ele>
        <time>2023-02-19T09:24:44.021Z</time>
      </trkpt>
      <trkpt lat="50.53296" lon="1.58558">
        <ele>10</ele>
        <time>2023-02-19T09:24:48.713Z</time>
      </trkpt>
      <trkpt lat="50.53294" lon="1.58553">
        <ele>10</ele>
        <time>2023-02-19T09:24:52.816Z</time>
      </trkpt>
      <trkpt lat="50.53292" lon="1.58547">
        <ele>10</ele>
        <time>2023-02-19T09:24:57.059Z</time>
      </trkpt>
      <trkpt lat="50.5329" lon="1.58541">
        <ele>12</ele>
        <time>2023-02-19T09:25:01.775Z</time>
      </trkpt>
      <trkpt lat="50.53287" lon="1.58533">
        <ele>12</ele>
        <time>2023-02-19T09:25:05.796Z</time>
      </trkpt>
      <trkpt lat="50.53283" lon="1.58525">
        <ele>12</ele>
        <time>2023-02-19T09:25:10.399Z</time>
      </trkpt>
      <trkpt lat="50.53279" lon="1.58519">
        <ele>12</ele>
        <time>2023-02-19T09:25:14.879Z</time>
      </trkpt>
      <trkpt lat="50.53276" lon="1.58513">
        <ele>12</ele>
        <time>2023-02-19T09:25:19.235Z</time>
      </trkpt>
      <trkpt lat="50.53273" lon="1.58507">
        <ele>12</ele>
        <time>2023-02-19T09:25:23.756Z</time>
      </trkpt>
      <trkpt lat="50.5327" lon="1.58499">
        <ele>12</ele>
        <time>2023-02-19T09:25:28.193Z</time>
      </trkpt>
      <trkpt lat="50.53268" lon="1.58493">
        <ele>12</ele>
        <time>2023-02-19T09:25:32.612Z</time>
      </trkpt>
      <trkpt lat="50.53264" lon="1.58486">
        <ele>12</ele>
        <time>2023-02-19T09:25:37.013Z</time>
      </trkpt>
      <trkpt lat="50.53261" lon="1.58479">
        <ele>12</ele>
        <time>2023-02-19T09:25:41.475Z</time>
      </trkpt>
      <trkpt lat="50.53256" lon="1.58471">
        <ele>12</ele>
        <time>2023-02-19T09:25:45.951Z</time>
      </trkpt>
      <trkpt lat="50.53247" lon="1.58468">
        <ele>12</ele>
        <time>2023-02-19T09:25:50.012Z</time>
      </trkpt>
      <trkpt lat="50.53239" lon="1.58469">
        <ele>12</ele>
        <time>2023-02-19T09:25:54.431Z</time>
      </trkpt>
      <trkpt lat="50.53234" lon="1.58473">
        <ele>12</ele>
        <time>2023-02-19T09:25:58.611Z</time>
      </trkpt>
      <trkpt lat="50.53228" lon="1.58469">
        <ele>12</ele>
        <time>2023-02-19T09:26:03.389Z</time>
      </trkpt>
      <trkpt lat="50.53222" lon="1.58466">
        <ele>12</ele>
        <time>2023-02-19T09:26:07.858Z</time>
      </trkpt>
      <trkpt lat="50.53216" lon="1.58466">
        <ele>12</ele>
        <time>2023-02-19T09:26:11.973Z</time>
      </trkpt>
      <trkpt lat="50.5321" lon="1.58464">
        <ele>12</ele>
        <time>2023-02-19T09:26:16.033Z</time>
      </trkpt>
      <trkpt lat="50.53205" lon="1.58461">
        <ele>12</ele>
        <time>2023-02-19T09:26:20.692Z</time>
      </trkpt>
      <trkpt lat="50.53201" lon="1.5846">
        <ele>12</ele>
        <time>2023-02-19T09:26:24.633Z</time>
      </trkpt>
      <trkpt lat="50.53196" lon="1.58459">
        <ele>12</ele>
        <time>2023-02-19T09:26:29.411Z</time>
      </trkpt>
      <trkpt lat="50.53193" lon="1.58458">
        <ele>11</ele>
        <time>2023-02-19T09:26:33.592Z</time>
      </trkpt>
      <trkpt lat="50.53185" lon="1.58455">
        <ele>11</ele>
        <time>2023-02-19T09:26:38.077Z</time>
      </trkpt>
      <trkpt lat="50.53181" lon="1.58454">
        <ele>11</ele>
        <time>2023-02-19T09:26:42.538Z</time>
      </trkpt>
      <trkpt lat="50.53177" lon="1.58451">
        <ele>12</ele>
        <time>2023-02-19T09:26:46.960Z</time>
      </trkpt>
      <trkpt lat="50.53171" lon="1.58448">
        <ele>12</ele>
        <time>2023-02-19T09:26:51.023Z</time>
      </trkpt>
      <trkpt lat="50.53165" lon="1.58451">
        <ele>12</ele>
        <time>2023-02-19T09:26:55.206Z</time>
      </trkpt>
      <trkpt lat="50.53162" lon="1.58454">
        <ele>12</ele>
        <time>2023-02-19T09:26:59.390Z</time>
      </trkpt>
      <trkpt lat="50.53158" lon="1.58454">
        <ele>12</ele>
        <time>2023-02-19T09:27:04.646Z</time>
      </trkpt>
      <trkpt lat="50.53155" lon="1.5845">
        <ele>12</ele>
        <time>2023-02-19T09:27:08.809Z</time>
      </trkpt>
      <trkpt lat="50.53149" lon="1.58447">
        <ele>13</ele>
        <time>2023-02-19T09:27:13.314Z</time>
      </trkpt>
      <trkpt lat="50.5314" lon="1.58445">
        <ele>13</ele>
        <time>2023-02-19T09:27:29.840Z</time>
      </trkpt>
      <trkpt lat="50.53137" lon="1.58443">
        <ele>13</ele>
        <time>2023-02-19T09:27:34.445Z</time>
      </trkpt>
      <trkpt lat="50.53133" lon="1.58437">
        <ele>13</ele>
        <time>2023-02-19T09:27:38.778Z</time>
      </trkpt>
      <trkpt lat="50.53127" lon="1.58432">
        <ele>13</ele>
        <time>2023-02-19T09:27:42.745Z</time>
      </trkpt>
      <trkpt lat="50.53122" lon="1.58428">
        <ele>13</ele>
        <time>2023-02-19T09:27:47.284Z</time>
      </trkpt>
      <trkpt lat="50.53117" lon="1.58426">
        <ele>13</ele>
        <time>2023-02-19T09:27:51.804Z</time>
      </trkpt>
      <trkpt lat="50.53112" lon="1.58424">
        <ele>13</ele>
        <time>2023-02-19T09:27:56.006Z</time>
      </trkpt>
      <trkpt lat="50.53108" lon="1.58423">
        <ele>13</ele>
        <time>2023-02-19T09:28:00.590Z</time>
      </trkpt>
      <trkpt lat="50.53107" lon="1.58423">
        <ele>13</ele>
        <time>2023-02-19T09:28:05.598Z</time>
      </trkpt>
      <trkpt lat="50.53103" lon="1.58421">
        <ele>13</ele>
        <time>2023-02-19T09:28:10.101Z</time>
      </trkpt>
      <trkpt lat="50.53097" lon="1.58419">
        <ele>13</ele>
        <time>2023-02-19T09:28:13.903Z</time>
      </trkpt>
      <trkpt lat="50.53091" lon="1.58413">
        <ele>13</ele>
        <time>2023-02-19T09:28:18.264Z</time>
      </trkpt>
      <trkpt lat="50.53087" lon="1.58408">
        <ele>13</ele>
        <time>2023-02-19T09:28:22.750Z</time>
      </trkpt>
      <trkpt lat="50.5308" lon="1.58406">
        <ele>13</ele>
        <time>2023-02-19T09:28:27.408Z</time>
      </trkpt>
      <trkpt lat="50.53075" lon="1.58402">
        <ele>13</ele>
        <time>2023-02-19T09:28:31.363Z</time>
      </trkpt>
      <trkpt lat="50.5307" lon="1.58397">
        <ele>13</ele>
        <time>2023-02-19T09:28:35.434Z</time>
      </trkpt>
      <trkpt lat="50.53066" lon="1.58392">
        <ele>12</ele>
        <time>2023-02-19T09:28:40.583Z</time>
      </trkpt>
      <trkpt lat="50.5306" lon="1.58387">
        <ele>12</ele>
        <time>2023-02-19T09:28:45.731Z</time>
      </trkpt>
      <trkpt lat="50.53056" lon="1.58382">
        <ele>12</ele>
        <time>2023-02-19T09:28:50.162Z</time>
      </trkpt>
      <trkpt lat="50.5305" lon="1.58379">
        <ele>12</ele>
        <time>2023-02-19T09:28:54.711Z</time>
      </trkpt>
      <trkpt lat="50.53045" lon="1.58379">
        <ele>12</ele>
        <time>2023-02-19T09:28:59.139Z</time>
      </trkpt>
      <trkpt lat="50.53039" lon="1.5838">
        <ele>12</ele>
        <time>2023-02-19T09:29:03.805Z</time>
      </trkpt>
      <trkpt lat="50.53035" lon="1.58381">
        <ele>12</ele>
        <time>2023-02-19T09:29:07.994Z</time>
      </trkpt>
      <trkpt lat="50.53031" lon="1.58377">
        <ele>12</ele>
        <time>2023-02-19T09:29:12.710Z</time>
      </trkpt>
      <trkpt lat="50.53027" lon="1.58373">
        <ele>14</ele>
        <time>2023-02-19T09:29:16.607Z</time>
      </trkpt>
      <trkpt lat="50.53024" lon="1.58371">
        <ele>14</ele>
        <time>2023-02-19T09:29:20.674Z</time>
      </trkpt>
      <trkpt lat="50.53018" lon="1.58375">
        <ele>14</ele>
        <time>2023-02-19T09:29:25.219Z</time>
      </trkpt>
      <trkpt lat="50.53018" lon="1.58382">
        <ele>12</ele>
        <time>2023-02-19T09:29:29.766Z</time>
      </trkpt>
      <trkpt lat="50.53018" lon="1.58384">
        <ele>12</ele>
        <time>2023-02-19T09:29:33.685Z</time>
      </trkpt>
      <trkpt lat="50.53018" lon="1.58383">
        <ele>12</ele>
        <time>2023-02-19T09:29:37.815Z</time>
      </trkpt>
      <trkpt lat="50.53015" lon="1.58374">
        <ele>14</ele>
        <time>2023-02-19T09:29:42.008Z</time>
      </trkpt>
      <trkpt lat="50.53012" lon="1.58364">
        <ele>14</ele>
        <time>2023-02-19T09:29:46.676Z</time>
      </trkpt>
      <trkpt lat="50.53005" lon="1.58361">
        <ele>14</ele>
        <time>2023-02-19T09:29:51.821Z</time>
      </trkpt>
      <trkpt lat="50.53" lon="1.58361">
        <ele>14</ele>
        <time>2023-02-19T09:29:56.607Z</time>
      </trkpt>
      <trkpt lat="50.52994" lon="1.5836">
        <ele>14</ele>
        <time>2023-02-19T09:30:01.838Z</time>
      </trkpt>
      <trkpt lat="50.52988" lon="1.58359">
        <ele>14</ele>
        <time>2023-02-19T09:30:05.823Z</time>
      </trkpt>
      <trkpt lat="50.52982" lon="1.58357">
        <ele>14</ele>
        <time>2023-02-19T09:30:10.367Z</time>
      </trkpt>
      <trkpt lat="50.52977" lon="1.58355">
        <ele>14</ele>
        <time>2023-02-19T09:30:15.030Z</time>
      </trkpt>
      <trkpt lat="50.52972" lon="1.58352">
        <ele>14</ele>
        <time>2023-02-19T09:30:19.574Z</time>
      </trkpt>
      <trkpt lat="50.52968" lon="1.58347">
        <ele>16</ele>
        <time>2023-02-19T09:30:23.637Z</time>
      </trkpt>
      <trkpt lat="50.52962" lon="1.58341">
        <ele>16</ele>
        <time>2023-02-19T09:30:28.418Z</time>
      </trkpt>
      <trkpt lat="50.52957" lon="1.58338">
        <ele>15</ele>
        <time>2023-02-19T09:30:37.385Z</time>
      </trkpt>
      <trkpt lat="50.52957" lon="1.5834">
        <ele>15</ele>
        <time>2023-02-19T09:30:42.582Z</time>
      </trkpt>
      <trkpt lat="50.52956" lon="1.5834">
        <ele>15</ele>
        <time>2023-02-19T09:30:46.784Z</time>
      </trkpt>
      <trkpt lat="50.52954" lon="1.58336">
        <ele>15</ele>
        <time>2023-02-19T09:30:51.606Z</time>
      </trkpt>
      <trkpt lat="50.52947" lon="1.58327">
        <ele>15</ele>
        <time>2023-02-19T09:30:56.057Z</time>
      </trkpt>
      <trkpt lat="50.52941" lon="1.58322">
        <ele>15</ele>
        <time>2023-02-19T09:31:00.179Z</time>
      </trkpt>
      <trkpt lat="50.52937" lon="1.58316">
        <ele>14</ele>
        <time>2023-02-19T09:31:04.560Z</time>
      </trkpt>
      <trkpt lat="50.52932" lon="1.58309">
        <ele>14</ele>
        <time>2023-02-19T09:31:09.177Z</time>
      </trkpt>
      <trkpt lat="50.52928" lon="1.58303">
        <ele>12</ele>
        <time>2023-02-19T09:31:13.752Z</time>
      </trkpt>
      <trkpt lat="50.52924" lon="1.58297">
        <ele>12</ele>
        <time>2023-02-19T09:31:17.709Z</time>
      </trkpt>
      <trkpt lat="50.52919" lon="1.5829">
        <ele>12</ele>
        <time>2023-02-19T09:31:22.059Z</time>
      </trkpt>
      <trkpt lat="50.52916" lon="1.58284">
        <ele>12</ele>
        <time>2023-02-19T09:31:26.621Z</time>
      </trkpt>
      <trkpt lat="50.52909" lon="1.58282">
        <ele>12</ele>
        <time>2023-02-19T09:31:31.354Z</time>
      </trkpt>
      <trkpt lat="50.52903" lon="1.58283">
        <ele>12</ele>
        <time>2023-02-19T09:31:35.717Z</time>
      </trkpt>
      <trkpt lat="50.52896" lon="1.58282">
        <ele>10</ele>
        <time>2023-02-19T09:31:40.059Z</time>
      </trkpt>
      <trkpt lat="50.52892" lon="1.58281">
        <ele>10</ele>
        <time>2023-02-19T09:31:44.214Z</time>
      </trkpt>
      <trkpt lat="50.52887" lon="1.58278">
        <ele>10</ele>
        <time>2023-02-19T09:31:48.601Z</time>
      </trkpt>
      <trkpt lat="50.52882" lon="1.58277">
        <ele>10</ele>
        <time>2023-02-19T09:31:52.872Z</time>
      </trkpt>
      <trkpt lat="50.52878" lon="1.58276">
        <ele>10</ele>
        <time>2023-02-19T09:31:56.855Z</time>
      </trkpt>
      <trkpt lat="50.52873" lon="1.58274">
        <ele>8</ele>
        <time>2023-02-19T09:32:01.816Z</time>
      </trkpt>
      <trkpt lat="50.52869" lon="1.58269">
        <ele>8</ele>
        <time>2023-02-19T09:32:06.383Z</time>
      </trkpt>
      <trkpt lat="50.52868" lon="1.58267">
        <ele>8</ele>
        <time>2023-02-19T09:32:10.524Z</time>
      </trkpt>
      <trkpt lat="50.52862" lon="1.58258">
        <ele>9</ele>
        <time>2023-02-19T09:32:15.542Z</time>
      </trkpt>
      <trkpt lat="50.52858" lon="1.58251">
        <ele>9</ele>
        <time>2023-02-19T09:32:20.059Z</time>
      </trkpt>
      <trkpt lat="50.52853" lon="1.58245">
        <ele>9</ele>
        <time>2023-02-19T09:32:24.481Z</time>
      </trkpt>
      <trkpt lat="50.5285" lon="1.58239">
        <ele>9</ele>
        <time>2023-02-19T09:32:28.820Z</time>
      </trkpt>
      <trkpt lat="50.52848" lon="1.58238">
        <ele>9</ele>
        <time>2023-02-19T09:32:33.323Z</time>
      </trkpt>
      <trkpt lat="50.52846" lon="1.58232">
        <ele>9</ele>
        <time>2023-02-19T09:32:37.828Z</time>
      </trkpt>
      <trkpt lat="50.5284" lon="1.58228">
        <ele>9</ele>
        <time>2023-02-19T09:32:42.808Z</time>
      </trkpt>
      <trkpt lat="50.52838" lon="1.58229">
        <ele>9</ele>
        <time>2023-02-19T09:32:47.351Z</time>
      </trkpt>
      <trkpt lat="50.52838" lon="1.58228">
        <ele>9</ele>
        <time>2023-02-19T09:32:51.860Z</time>
      </trkpt>
      <trkpt lat="50.52833" lon="1.58224">
        <ele>9</ele>
        <time>2023-02-19T09:32:55.866Z</time>
      </trkpt>
      <trkpt lat="50.52827" lon="1.58219">
        <ele>9</ele>
        <time>2023-02-19T09:33:00.059Z</time>
      </trkpt>
      <trkpt lat="50.52823" lon="1.58212">
        <ele>9</ele>
        <time>2023-02-19T09:33:04.894Z</time>
      </trkpt>
      <trkpt lat="50.52816" lon="1.58212">
        <ele>7</ele>
        <time>2023-02-19T09:33:09.059Z</time>
      </trkpt>
      <trkpt lat="50.52811" lon="1.58204">
        <ele>8</ele>
        <time>2023-02-19T09:33:13.745Z</time>
      </trkpt>
      <trkpt lat="50.52807" lon="1.58197">
        <ele>8</ele>
        <time>2023-02-19T09:33:17.612Z</time>
      </trkpt>
      <trkpt lat="50.52805" lon="1.58196">
        <ele>8</ele>
        <time>2023-02-19T09:33:30.575Z</time>
      </trkpt>
      <trkpt lat="50.52805" lon="1.58197">
        <ele>8</ele>
        <time>2023-02-19T09:33:35.589Z</time>
      </trkpt>
      <trkpt lat="50.52805" lon="1.58197">
        <ele>8</ele>
        <time>2023-02-19T09:33:39.599Z</time>
      </trkpt>
      <trkpt lat="50.52805" lon="1.582">
        <ele>8</ele>
        <time>2023-02-19T09:33:43.823Z</time>
      </trkpt>
      <trkpt lat="50.528" lon="1.5821">
        <ele>7</ele>
        <time>2023-02-19T09:33:48.117Z</time>
      </trkpt>
      <trkpt lat="50.52797" lon="1.58218">
        <ele>7</ele>
        <time>2023-02-19T09:33:52.120Z</time>
      </trkpt>
      <trkpt lat="50.5279" lon="1.58226">
        <ele>7</ele>
        <time>2023-02-19T09:33:56.625Z</time>
      </trkpt>
      <trkpt lat="50.52785" lon="1.58224">
        <ele>7</ele>
        <time>2023-02-19T09:34:01.631Z</time>
      </trkpt>
      <trkpt lat="50.52779" lon="1.58223">
        <ele>7</ele>
        <time>2023-02-19T09:34:05.635Z</time>
      </trkpt>
      <trkpt lat="50.52771" lon="1.58222">
        <ele>7</ele>
        <time>2023-02-19T09:34:14.642Z</time>
      </trkpt>
      <trkpt lat="50.5277" lon="1.58222">
        <ele>7</ele>
        <time>2023-02-19T09:34:18.647Z</time>
      </trkpt>
      <trkpt lat="50.52767" lon="1.58214">
        <ele>7</ele>
        <time>2023-02-19T09:34:23.689Z</time>
      </trkpt>
      <trkpt lat="50.5277" lon="1.58209">
        <ele>7</ele>
        <time>2023-02-19T09:34:27.693Z</time>
      </trkpt>
      <trkpt lat="50.52769" lon="1.58206">
        <ele>7</ele>
        <time>2023-02-19T09:34:32.702Z</time>
      </trkpt>
      <trkpt lat="50.5277" lon="1.58206">
        <ele>7</ele>
        <time>2023-02-19T09:34:55.829Z</time>
      </trkpt>
      <trkpt lat="50.52771" lon="1.58207">
        <ele>7</ele>
        <time>2023-02-19T09:35:00.809Z</time>
      </trkpt>
      <trkpt lat="50.52767" lon="1.58208">
        <ele>7</ele>
        <time>2023-02-19T09:35:05.753Z</time>
      </trkpt>
      <trkpt lat="50.52761" lon="1.58213">
        <ele>7</ele>
        <time>2023-02-19T09:35:10.779Z</time>
      </trkpt>
      <trkpt lat="50.5276" lon="1.58216">
        <ele>7</ele>
        <time>2023-02-19T09:35:14.375Z</time>
      </trkpt>
      <trkpt lat="50.52761" lon="1.58218">
        <ele>7</ele>
        <time>2023-02-19T09:35:27.384Z</time>
      </trkpt>
      <trkpt lat="50.52761" lon="1.58216">
        <ele>7</ele>
        <time>2023-02-19T09:35:31.457Z</time>
      </trkpt>
      <trkpt lat="50.52759" lon="1.58216">
        <ele>7</ele>
        <time>2023-02-19T09:35:35.972Z</time>
      </trkpt>
      <trkpt lat="50.52752" lon="1.58222">
        <ele>7</ele>
        <time>2023-02-19T09:35:40.407Z</time>
      </trkpt>
      <trkpt lat="50.52752" lon="1.58232">
        <ele>7</ele>
        <time>2023-02-19T09:35:44.461Z</time>
      </trkpt>
      <trkpt lat="50.52749" lon="1.5824">
        <ele>7</ele>
        <time>2023-02-19T09:35:49.010Z</time>
      </trkpt>
      <trkpt lat="50.52746" lon="1.58233">
        <ele>7</ele>
        <time>2023-02-19T09:35:53.760Z</time>
      </trkpt>
      <trkpt lat="50.52741" lon="1.58228">
        <ele>7</ele>
        <time>2023-02-19T09:35:58.020Z</time>
      </trkpt>
      <trkpt lat="50.5273" lon="1.58225">
        <ele>6</ele>
        <time>2023-02-19T09:36:02.412Z</time>
      </trkpt>
      <trkpt lat="50.52727" lon="1.58224">
        <ele>6</ele>
        <time>2023-02-19T09:36:06.598Z</time>
      </trkpt>
      <trkpt lat="50.5272" lon="1.58222">
        <ele>6</ele>
        <time>2023-02-19T09:36:11.554Z</time>
      </trkpt>
      <trkpt lat="50.52714" lon="1.58217">
        <ele>6</ele>
        <time>2023-02-19T09:36:15.860Z</time>
      </trkpt>
      <trkpt lat="50.52707" lon="1.58213">
        <ele>6</ele>
        <time>2023-02-19T09:36:20.154Z</time>
      </trkpt>
      <trkpt lat="50.52702" lon="1.58212">
        <ele>6</ele>
        <time>2023-02-19T09:36:24.636Z</time>
      </trkpt>
      <trkpt lat="50.52696" lon="1.58204">
        <ele>5</ele>
        <time>2023-02-19T09:36:29.299Z</time>
      </trkpt>
      <trkpt lat="50.52691" lon="1.58199">
        <ele>5</ele>
        <time>2023-02-19T09:36:34.116Z</time>
      </trkpt>
      <trkpt lat="50.52688" lon="1.58194">
        <ele>5</ele>
        <time>2023-02-19T09:36:38.033Z</time>
      </trkpt>
      <trkpt lat="50.52682" lon="1.58192">
        <ele>5</ele>
        <time>2023-02-19T09:36:42.581Z</time>
      </trkpt>
      <trkpt lat="50.52676" lon="1.5819">
        <ele>5</ele>
        <time>2023-02-19T09:36:46.650Z</time>
      </trkpt>
      <trkpt lat="50.5267" lon="1.5819">
        <ele>5</ele>
        <time>2023-02-19T09:36:51.278Z</time>
      </trkpt>
      <trkpt lat="50.52666" lon="1.58187">
        <ele>5</ele>
        <time>2023-02-19T09:36:55.486Z</time>
      </trkpt>
      <trkpt lat="50.52662" lon="1.58183">
        <ele>5</ele>
        <time>2023-02-19T09:36:59.314Z</time>
      </trkpt>
      <trkpt lat="50.52657" lon="1.5818">
        <ele>5</ele>
        <time>2023-02-19T09:37:03.382Z</time>
      </trkpt>
      <trkpt lat="50.52651" lon="1.58176">
        <ele>6</ele>
        <time>2023-02-19T09:37:08.297Z</time>
      </trkpt>
      <trkpt lat="50.52645" lon="1.58175">
        <ele>6</ele>
        <time>2023-02-19T09:37:12.588Z</time>
      </trkpt>
      <trkpt lat="50.5264" lon="1.58168">
        <ele>6</ele>
        <time>2023-02-19T09:37:17.059Z</time>
      </trkpt>
      <trkpt lat="50.52635" lon="1.58166">
        <ele>6</ele>
        <time>2023-02-19T09:37:21.795Z</time>
      </trkpt>
      <trkpt lat="50.5263" lon="1.58162">
        <ele>6</ele>
        <time>2023-02-19T09:37:26.219Z</time>
      </trkpt>
      <trkpt lat="50.52626" lon="1.58164">
        <ele>6</ele>
        <time>2023-02-19T09:37:30.416Z</time>
      </trkpt>
      <trkpt lat="50.52622" lon="1.58161">
        <ele>7</ele>
        <time>2023-02-19T09:37:34.892Z</time>
      </trkpt>
      <trkpt lat="50.52616" lon="1.58156">
        <ele>7</ele>
        <time>2023-02-19T09:37:39.138Z</time>
      </trkpt>
      <trkpt lat="50.52608" lon="1.58155">
        <ele>7</ele>
        <time>2023-02-19T09:37:43.675Z</time>
      </trkpt>
      <trkpt lat="50.52604" lon="1.58153">
        <ele>7</ele>
        <time>2023-02-19T09:37:47.628Z</time>
      </trkpt>
      <trkpt lat="50.52587" lon="1.5816">
        <ele>9</ele>
        <time>2023-02-19T09:38:05.676Z</time>
      </trkpt>
      <trkpt lat="50.52583" lon="1.58165">
        <ele>9</ele>
        <time>2023-02-19T09:38:09.500Z</time>
      </trkpt>
      <trkpt lat="50.52576" lon="1.58162">
        <ele>9</ele>
        <time>2023-02-19T09:38:14.461Z</time>
      </trkpt>
      <trkpt lat="50.52574" lon="1.58164">
        <ele>9</ele>
        <time>2023-02-19T09:38:18.579Z</time>
      </trkpt>
      <trkpt lat="50.52563" lon="1.58166">
        <ele>8</ele>
        <time>2023-02-19T09:38:22.642Z</time>
      </trkpt>
      <trkpt lat="50.52556" lon="1.58168">
        <ele>8</ele>
        <time>2023-02-19T09:38:26.583Z</time>
      </trkpt>
      <trkpt lat="50.52551" lon="1.5817">
        <ele>8</ele>
        <time>2023-02-19T09:38:31.181Z</time>
      </trkpt>
      <trkpt lat="50.52548" lon="1.58173">
        <ele>8</ele>
        <time>2023-02-19T09:38:35.779Z</time>
      </trkpt>
      <trkpt lat="50.52541" lon="1.58174">
        <ele>7</ele>
        <time>2023-02-19T09:38:40.399Z</time>
      </trkpt>
      <trkpt lat="50.52534" lon="1.58175">
        <ele>7</ele>
        <time>2023-02-19T09:38:44.816Z</time>
      </trkpt>
      <trkpt lat="50.52531" lon="1.58181">
        <ele>9</ele>
        <time>2023-02-19T09:38:48.799Z</time>
      </trkpt>
      <trkpt lat="50.52527" lon="1.58184">
        <ele>9</ele>
        <time>2023-02-19T09:38:52.384Z</time>
      </trkpt>
      <trkpt lat="50.52524" lon="1.58183">
        <ele>9</ele>
        <time>2023-02-19T09:38:54.178Z</time>
      </trkpt>
      <trkpt lat="50.52512" lon="1.58188">
        <ele>10</ele>
        <time>2023-02-19T09:39:03.089Z</time>
      </trkpt>
      <trkpt lat="50.52509" lon="1.58195">
        <ele>10</ele>
        <time>2023-02-19T09:39:07.830Z</time>
      </trkpt>
      <trkpt lat="50.52499" lon="1.58201">
        <ele>10</ele>
        <time>2023-02-19T09:39:12.025Z</time>
      </trkpt>
      <trkpt lat="50.52498" lon="1.58198">
        <ele>10</ele>
        <time>2023-02-19T09:39:16.524Z</time>
      </trkpt>
      <trkpt lat="50.52496" lon="1.58199">
        <ele>10</ele>
        <time>2023-02-19T09:39:20.528Z</time>
      </trkpt>
      <trkpt lat="50.52492" lon="1.58211">
        <ele>11</ele>
        <time>2023-02-19T09:39:25.402Z</time>
      </trkpt>
      <trkpt lat="50.52488" lon="1.58218">
        <ele>11</ele>
        <time>2023-02-19T09:39:29.406Z</time>
      </trkpt>
      <trkpt lat="50.52482" lon="1.58222">
        <ele>13</ele>
        <time>2023-02-19T09:39:33.305Z</time>
      </trkpt>
      <trkpt lat="50.52478" lon="1.58224">
        <ele>13</ele>
        <time>2023-02-19T09:39:37.804Z</time>
      </trkpt>
      <trkpt lat="50.52474" lon="1.5823">
        <ele>13</ele>
        <time>2023-02-19T09:39:42.001Z</time>
      </trkpt>
      <trkpt lat="50.52473" lon="1.58237">
        <ele>13</ele>
        <time>2023-02-19T09:39:46.520Z</time>
      </trkpt>
      <trkpt lat="50.52473" lon="1.58246">
        <ele>13</ele>
        <time>2023-02-19T09:39:51.017Z</time>
      </trkpt>
      <trkpt lat="50.52474" lon="1.58254">
        <ele>13</ele>
        <time>2023-02-19T09:39:55.238Z</time>
      </trkpt>
      <trkpt lat="50.52474" lon="1.58261">
        <ele>13</ele>
        <time>2023-02-19T09:39:59.678Z</time>
      </trkpt>
      <trkpt lat="50.52467" lon="1.58266">
        <ele>14</ele>
        <time>2023-02-19T09:40:04.799Z</time>
      </trkpt>
      <trkpt lat="50.52465" lon="1.58276">
        <ele>14</ele>
        <time>2023-02-19T09:40:08.814Z</time>
      </trkpt>
      <trkpt lat="50.52463" lon="1.58283">
        <ele>14</ele>
        <time>2023-02-19T09:40:13.009Z</time>
      </trkpt>
      <trkpt lat="50.52459" lon="1.58288">
        <ele>14</ele>
        <time>2023-02-19T09:40:17.626Z</time>
      </trkpt>
      <trkpt lat="50.52454" lon="1.58289">
        <ele>15</ele>
        <time>2023-02-19T09:40:21.663Z</time>
      </trkpt>
      <trkpt lat="50.52451" lon="1.58294">
        <ele>15</ele>
        <time>2023-02-19T09:40:26.341Z</time>
      </trkpt>
      <trkpt lat="50.5245" lon="1.58302">
        <ele>15</ele>
        <time>2023-02-19T09:40:30.980Z</time>
      </trkpt>
      <trkpt lat="50.52449" lon="1.58311">
        <ele>15</ele>
        <time>2023-02-19T09:40:35.776Z</time>
      </trkpt>
      <trkpt lat="50.52445" lon="1.58316">
        <ele>15</ele>
        <time>2023-02-19T09:40:39.877Z</time>
      </trkpt>
      <trkpt lat="50.52446" lon="1.58322">
        <ele>16</ele>
        <time>2023-02-19T09:40:44.409Z</time>
      </trkpt>
      <trkpt lat="50.52445" lon="1.58332">
        <ele>16</ele>
        <time>2023-02-19T09:40:48.365Z</time>
      </trkpt>
      <trkpt lat="50.52443" lon="1.5834">
        <ele>16</ele>
        <time>2023-02-19T09:40:53.639Z</time>
      </trkpt>
      <trkpt lat="50.52441" lon="1.58345">
        <ele>16</ele>
        <time>2023-02-19T09:40:57.594Z</time>
      </trkpt>
      <trkpt lat="50.5244" lon="1.58352">
        <ele>15</ele>
        <time>2023-02-19T09:41:01.971Z</time>
      </trkpt>
      <trkpt lat="50.52437" lon="1.58359">
        <ele>15</ele>
        <time>2023-02-19T09:41:06.407Z</time>
      </trkpt>
      <trkpt lat="50.52436" lon="1.5837">
        <ele>15</ele>
        <time>2023-02-19T09:41:11.515Z</time>
      </trkpt>
      <trkpt lat="50.52432" lon="1.58372">
        <ele>15</ele>
        <time>2023-02-19T09:41:15.419Z</time>
      </trkpt>
      <trkpt lat="50.52428" lon="1.58379">
        <ele>16</ele>
        <time>2023-02-19T09:41:19.370Z</time>
      </trkpt>
      <trkpt lat="50.52425" lon="1.58386">
        <ele>16</ele>
        <time>2023-02-19T09:41:23.483Z</time>
      </trkpt>
      <trkpt lat="50.52425" lon="1.58388">
        <ele>16</ele>
        <time>2023-02-19T09:41:27.745Z</time>
      </trkpt>
      <trkpt lat="50.52423" lon="1.58387">
        <ele>16</ele>
        <time>2023-02-19T09:41:32.249Z</time>
      </trkpt>
      <trkpt lat="50.52417" lon="1.58394">
        <ele>16</ele>
        <time>2023-02-19T09:41:36.291Z</time>
      </trkpt>
      <trkpt lat="50.52412" lon="1.58404">
        <ele>15</ele>
        <time>2023-02-19T09:41:40.395Z</time>
      </trkpt>
      <trkpt lat="50.52412" lon="1.58409">
        <ele>15</ele>
        <time>2023-02-19T09:41:44.901Z</time>
      </trkpt>
      <trkpt lat="50.52411" lon="1.58417">
        <ele>15</ele>
        <time>2023-02-19T09:41:49.423Z</time>
      </trkpt>
      <trkpt lat="50.5241" lon="1.58426">
        <ele>15</ele>
        <time>2023-02-19T09:41:53.818Z</time>
      </trkpt>
      <trkpt lat="50.52409" lon="1.5843">
        <ele>15</ele>
        <time>2023-02-19T09:41:57.663Z</time>
      </trkpt>
      <trkpt lat="50.52408" lon="1.58435">
        <ele>14</ele>
        <time>2023-02-19T09:42:02.260Z</time>
      </trkpt>
      <trkpt lat="50.52407" lon="1.58439">
        <ele>14</ele>
        <time>2023-02-19T09:42:06.696Z</time>
      </trkpt>
      <trkpt lat="50.52402" lon="1.58453">
        <ele>14</ele>
        <time>2023-02-19T09:42:11.274Z</time>
      </trkpt>
      <trkpt lat="50.52401" lon="1.58457">
        <ele>14</ele>
        <time>2023-02-19T09:42:15.712Z</time>
      </trkpt>
      <trkpt lat="50.524" lon="1.5846">
        <ele>14</ele>
        <time>2023-02-19T09:42:20.268Z</time>
      </trkpt>
      <trkpt lat="50.52398" lon="1.58466">
        <ele>14</ele>
        <time>2023-02-19T09:42:24.823Z</time>
      </trkpt>
      <trkpt lat="50.52395" lon="1.58472">
        <ele>14</ele>
        <time>2023-02-19T09:42:28.825Z</time>
      </trkpt>
      <trkpt lat="50.52391" lon="1.58473">
        <ele>14</ele>
        <time>2023-02-19T09:42:32.980Z</time>
      </trkpt>
      <trkpt lat="50.52387" lon="1.58487">
        <ele>15</ele>
        <time>2023-02-19T09:42:37.557Z</time>
      </trkpt>
      <trkpt lat="50.52383" lon="1.585">
        <ele>15</ele>
        <time>2023-02-19T09:42:41.555Z</time>
      </trkpt>
      <trkpt lat="50.5238" lon="1.58511">
        <ele>15</ele>
        <time>2023-02-19T09:42:45.991Z</time>
      </trkpt>
      <trkpt lat="50.52376" lon="1.58521">
        <ele>15</ele>
        <time>2023-02-19T09:42:50.471Z</time>
      </trkpt>
      <trkpt lat="50.52373" lon="1.58519">
        <ele>15</ele>
        <time>2023-02-19T09:42:55.153Z</time>
      </trkpt>
      <trkpt lat="50.52367" lon="1.58515">
        <ele>15</ele>
        <time>2023-02-19T09:42:59.394Z</time>
      </trkpt>
      <trkpt lat="50.52362" lon="1.58516">
        <ele>15</ele>
        <time>2023-02-19T09:43:03.818Z</time>
      </trkpt>
      <trkpt lat="50.52357" lon="1.58519">
        <ele>15</ele>
        <time>2023-02-19T09:43:21.455Z</time>
      </trkpt>
      <trkpt lat="50.52357" lon="1.58519">
        <ele>15</ele>
        <time>2023-02-19T09:43:25.497Z</time>
      </trkpt>
      <trkpt lat="50.52353" lon="1.58522">
        <ele>15</ele>
        <time>2023-02-19T09:43:30.842Z</time>
      </trkpt>
      <trkpt lat="50.5235" lon="1.58517">
        <ele>15</ele>
        <time>2023-02-19T09:43:35.612Z</time>
      </trkpt>
      <trkpt lat="50.52352" lon="1.58502">
        <ele>16</ele>
        <time>2023-02-19T09:43:40.400Z</time>
      </trkpt>
      <trkpt lat="50.52353" lon="1.58512">
        <ele>16</ele>
        <time>2023-02-19T09:43:59.821Z</time>
      </trkpt>
      <trkpt lat="50.52346" lon="1.58502">
        <ele>15</ele>
        <time>2023-02-19T09:44:04.807Z</time>
      </trkpt>
      <trkpt lat="50.52343" lon="1.58495">
        <ele>15</ele>
        <time>2023-02-19T09:44:08.836Z</time>
      </trkpt>
      <trkpt lat="50.52342" lon="1.58496">
        <ele>15</ele>
        <time>2023-02-19T09:44:12.850Z</time>
      </trkpt>
      <trkpt lat="50.52341" lon="1.58496">
        <ele>15</ele>
        <time>2023-02-19T09:44:17.836Z</time>
      </trkpt>
      <trkpt lat="50.52338" lon="1.58498">
        <ele>15</ele>
        <time>2023-02-19T09:44:21.827Z</time>
      </trkpt>
      <trkpt lat="50.5233" lon="1.58502">
        <ele>15</ele>
        <time>2023-02-19T09:44:25.827Z</time>
      </trkpt>
      <trkpt lat="50.5233" lon="1.58508">
        <ele>15</ele>
        <time>2023-02-19T09:44:30.824Z</time>
      </trkpt>
      <trkpt lat="50.52314" lon="1.58511">
        <ele>14</ele>
        <time>2023-02-19T09:44:34.850Z</time>
      </trkpt>
      <trkpt lat="50.52316" lon="1.58514">
        <ele>15</ele>
        <time>2023-02-19T09:44:39.839Z</time>
      </trkpt>
      <trkpt lat="50.52323" lon="1.58519">
        <ele>15</ele>
        <time>2023-02-19T09:44:44.844Z</time>
      </trkpt>
      <trkpt lat="50.52324" lon="1.58525">
        <ele>15</ele>
        <time>2023-02-19T09:44:48.834Z</time>
      </trkpt>
      <trkpt lat="50.52323" lon="1.58529">
        <ele>15</ele>
        <time>2023-02-19T09:44:53.823Z</time>
      </trkpt>
      <trkpt lat="50.52325" lon="1.58532">
        <ele>15</ele>
        <time>2023-02-19T09:44:57.839Z</time>
      </trkpt>
      <trkpt lat="50.5234" lon="1.58529">
        <ele>15</ele>
        <time>2023-02-19T09:45:02.827Z</time>
      </trkpt>
      <trkpt lat="50.52343" lon="1.58531">
        <ele>15</ele>
        <time>2023-02-19T09:45:06.825Z</time>
      </trkpt>
      <trkpt lat="50.52344" lon="1.58532">
        <ele>15</ele>
        <time>2023-02-19T09:45:11.835Z</time>
      </trkpt>
      <trkpt lat="50.52356" lon="1.58531">
        <ele>15</ele>
        <time>2023-02-19T09:45:45.823Z</time>
      </trkpt>
      <trkpt lat="50.52356" lon="1.58531">
        <ele>15</ele>
        <time>2023-02-19T09:45:50.583Z</time>
      </trkpt>
      <trkpt lat="50.52357" lon="1.58536">
        <ele>15</ele>
        <time>2023-02-19T09:45:54.828Z</time>
      </trkpt>
      <trkpt lat="50.52358" lon="1.58537">
        <ele>15</ele>
        <time>2023-02-19T09:45:58.837Z</time>
      </trkpt>
      <trkpt lat="50.5236" lon="1.58536">
        <ele>15</ele>
        <time>2023-02-19T09:46:03.837Z</time>
      </trkpt>
      <trkpt lat="50.52362" lon="1.58537">
        <ele>15</ele>
        <time>2023-02-19T09:46:12.835Z</time>
      </trkpt>
      <trkpt lat="50.5236" lon="1.58529">
        <ele>15</ele>
        <time>2023-02-19T09:46:17.811Z</time>
      </trkpt>
      <trkpt lat="50.5236" lon="1.58526">
        <ele>15</ele>
        <time>2023-02-19T09:46:21.379Z</time>
      </trkpt>
      <trkpt lat="50.52359" lon="1.58524">
        <ele>15</ele>
        <time>2023-02-19T09:46:26.402Z</time>
      </trkpt>
      <trkpt lat="50.52355" lon="1.58522">
        <ele>15</ele>
        <time>2023-02-19T09:46:30.983Z</time>
      </trkpt>
      <trkpt lat="50.52346" lon="1.58516">
        <ele>15</ele>
        <time>2023-02-19T09:46:39.797Z</time>
      </trkpt>
      <trkpt lat="50.52344" lon="1.58511">
        <ele>15</ele>
        <time>2023-02-19T09:46:43.386Z</time>
      </trkpt>
      <trkpt lat="50.52344" lon="1.5851">
        <ele>15</ele>
        <time>2023-02-19T09:46:48.647Z</time>
      </trkpt>
      <trkpt lat="50.52343" lon="1.58512">
        <ele>15</ele>
        <time>2023-02-19T09:46:52.594Z</time>
      </trkpt>
      <trkpt lat="50.5234" lon="1.58488">
        <ele>15</ele>
        <time>2023-02-19T09:46:57.381Z</time>
      </trkpt>
      <trkpt lat="50.52326" lon="1.58488">
        <ele>15</ele>
        <time>2023-02-19T09:48:09.131Z</time>
      </trkpt>
      <trkpt lat="50.52309" lon="1.58475">
        <ele>15</ele>
        <time>2023-02-19T09:48:13.269Z</time>
      </trkpt>
      <trkpt lat="50.52303" lon="1.58468">
        <ele>15</ele>
        <time>2023-02-19T09:48:18.559Z</time>
      </trkpt>
      <trkpt lat="50.523" lon="1.58467">
        <ele>15</ele>
        <time>2023-02-19T09:48:22.589Z</time>
      </trkpt>
      <trkpt lat="50.52295" lon="1.58462">
        <ele>15</ele>
        <time>2023-02-19T09:48:27.131Z</time>
      </trkpt>
      <trkpt lat="50.52291" lon="1.58457">
        <ele>15</ele>
        <time>2023-02-19T09:48:31.330Z</time>
      </trkpt>
      <trkpt lat="50.52287" lon="1.58453">
        <ele>15</ele>
        <time>2023-02-19T09:48:35.819Z</time>
      </trkpt>
      <trkpt lat="50.52282" lon="1.5845">
        <ele>15</ele>
        <time>2023-02-19T09:48:39.818Z</time>
      </trkpt>
      <trkpt lat="50.52276" lon="1.58445">
        <ele>15</ele>
        <time>2023-02-19T09:48:44.251Z</time>
      </trkpt>
      <trkpt lat="50.52272" lon="1.58441">
        <ele>15</ele>
        <time>2023-02-19T09:48:48.438Z</time>
      </trkpt>
      <trkpt lat="50.52268" lon="1.58438">
        <ele>15</ele>
        <time>2023-02-19T09:48:52.504Z</time>
      </trkpt>
      <trkpt lat="50.52262" lon="1.58432">
        <ele>15</ele>
        <time>2023-02-19T09:48:57.409Z</time>
      </trkpt>
      <trkpt lat="50.5226" lon="1.5843">
        <ele>16</ele>
        <time>2023-02-19T09:49:01.935Z</time>
      </trkpt>
      <trkpt lat="50.52257" lon="1.58426">
        <ele>16</ele>
        <time>2023-02-19T09:49:06.483Z</time>
      </trkpt>
      <trkpt lat="50.52254" lon="1.58425">
        <ele>16</ele>
        <time>2023-02-19T09:49:10.552Z</time>
      </trkpt>
      <trkpt lat="50.5225" lon="1.58424">
        <ele>16</ele>
        <time>2023-02-19T09:49:14.979Z</time>
      </trkpt>
      <trkpt lat="50.52243" lon="1.58422">
        <ele>16</ele>
        <time>2023-02-19T09:49:19.524Z</time>
      </trkpt>
      <trkpt lat="50.52238" lon="1.58419">
        <ele>16</ele>
        <time>2023-02-19T09:49:24.131Z</time>
      </trkpt>
      <trkpt lat="50.52235" lon="1.58418">
        <ele>16</ele>
        <time>2023-02-19T09:49:28.253Z</time>
      </trkpt>
      <trkpt lat="50.52233" lon="1.58418">
        <ele>16</ele>
        <time>2023-02-19T09:49:32.379Z</time>
      </trkpt>
      <trkpt lat="50.5223" lon="1.58416">
        <ele>16</ele>
        <time>2023-02-19T09:49:36.480Z</time>
      </trkpt>
      <trkpt lat="50.52224" lon="1.58412">
        <ele>16</ele>
        <time>2023-02-19T09:49:41.190Z</time>
      </trkpt>
      <trkpt lat="50.52218" lon="1.58409">
        <ele>16</ele>
        <time>2023-02-19T09:49:45.637Z</time>
      </trkpt>
      <trkpt lat="50.52215" lon="1.58407">
        <ele>16</ele>
        <time>2023-02-19T09:49:49.628Z</time>
      </trkpt>
      <trkpt lat="50.52212" lon="1.58408">
        <ele>16</ele>
        <time>2023-02-19T09:49:54.036Z</time>
      </trkpt>
      <trkpt lat="50.52205" lon="1.58404">
        <ele>16</ele>
        <time>2023-02-19T09:49:58.235Z</time>
      </trkpt>
      <trkpt lat="50.52201" lon="1.58403">
        <ele>17</ele>
        <time>2023-02-19T09:50:02.837Z</time>
      </trkpt>
      <trkpt lat="50.52201" lon="1.58403">
        <ele>16</ele>
        <time>2023-02-19T09:50:07.303Z</time>
      </trkpt>
      <trkpt lat="50.52196" lon="1.584">
        <ele>17</ele>
        <time>2023-02-19T09:50:11.847Z</time>
      </trkpt>
      <trkpt lat="50.52191" lon="1.58397">
        <ele>17</ele>
        <time>2023-02-19T09:50:16.262Z</time>
      </trkpt>
      <trkpt lat="50.52184" lon="1.58397">
        <ele>17</ele>
        <time>2023-02-19T09:50:34.060Z</time>
      </trkpt>
      <trkpt lat="50.52177" lon="1.58393">
        <ele>17</ele>
        <time>2023-02-19T09:50:38.124Z</time>
      </trkpt>
      <trkpt lat="50.52171" lon="1.5839">
        <ele>17</ele>
        <time>2023-02-19T09:50:42.131Z</time>
      </trkpt>
      <trkpt lat="50.52165" lon="1.58387">
        <ele>17</ele>
        <time>2023-02-19T09:50:46.697Z</time>
      </trkpt>
      <trkpt lat="50.52157" lon="1.58384">
        <ele>17</ele>
        <time>2023-02-19T09:50:51.039Z</time>
      </trkpt>
      <trkpt lat="50.52151" lon="1.58386">
        <ele>16</ele>
        <time>2023-02-19T09:52:32.825Z</time>
      </trkpt>
      <trkpt lat="50.52148" lon="1.58382">
        <ele>16</ele>
        <time>2023-02-19T09:52:36.850Z</time>
      </trkpt>
      <trkpt lat="50.52142" lon="1.58382">
        <ele>16</ele>
        <time>2023-02-19T09:52:42.841Z</time>
      </trkpt>
      <trkpt lat="50.52134" lon="1.58379">
        <ele>16</ele>
        <time>2023-02-19T09:52:48.070Z</time>
      </trkpt>
      <trkpt lat="50.52114" lon="1.58376">
        <ele>15</ele>
        <time>2023-02-19T09:52:58.145Z</time>
      </trkpt>
      <trkpt lat="50.52128" lon="1.58369">
        <ele>17</ele>
        <time>2023-02-19T09:54:50.631Z</time>
      </trkpt>
      <trkpt lat="50.52129" lon="1.5837">
        <ele>17</ele>
        <time>2023-02-19T09:54:54.571Z</time>
      </trkpt>
      <trkpt lat="50.52129" lon="1.58369">
        <ele>17</ele>
        <time>2023-02-19T09:54:59.326Z</time>
      </trkpt>
      <trkpt lat="50.52129" lon="1.58368">
        <ele>17</ele>
        <time>2023-02-19T09:55:03.857Z</time>
      </trkpt>
      <trkpt lat="50.52129" lon="1.5837">
        <ele>17</ele>
        <time>2023-02-19T09:55:08.836Z</time>
      </trkpt>
      <trkpt lat="50.5213" lon="1.58377">
        <ele>16</ele>
        <time>2023-02-19T09:56:36.859Z</time>
      </trkpt>
      <trkpt lat="50.5213" lon="1.58378">
        <ele>16</ele>
        <time>2023-02-19T09:56:41.835Z</time>
      </trkpt>
      <trkpt lat="50.52131" lon="1.58378">
        <ele>16</ele>
        <time>2023-02-19T09:56:46.836Z</time>
      </trkpt>
      <trkpt lat="50.52133" lon="1.58382">
        <ele>16</ele>
        <time>2023-02-19T09:56:50.849Z</time>
      </trkpt>
      <trkpt lat="50.52135" lon="1.58389">
        <ele>16</ele>
        <time>2023-02-19T09:56:54.843Z</time>
      </trkpt>
      <trkpt lat="50.52136" lon="1.58394">
        <ele>16</ele>
        <time>2023-02-19T09:56:59.847Z</time>
      </trkpt>
      <trkpt lat="50.52133" lon="1.58396">
        <ele>16</ele>
        <time>2023-02-19T09:57:04.830Z</time>
      </trkpt>
      <trkpt lat="50.5213" lon="1.58396">
        <ele>16</ele>
        <time>2023-02-19T09:57:09.842Z</time>
      </trkpt>
      <trkpt lat="50.52128" lon="1.58395">
        <ele>16</ele>
        <time>2023-02-19T09:57:14.842Z</time>
      </trkpt>
      <trkpt lat="50.52126" lon="1.58394">
        <ele>16</ele>
        <time>2023-02-19T09:57:19.832Z</time>
      </trkpt>
      <trkpt lat="50.52126" lon="1.58389">
        <ele>16</ele>
        <time>2023-02-19T09:57:23.843Z</time>
      </trkpt>
      <trkpt lat="50.52128" lon="1.58383">
        <ele>16</ele>
        <time>2023-02-19T09:57:28.828Z</time>
      </trkpt>
      <trkpt lat="50.52129" lon="1.58378">
        <ele>16</ele>
        <time>2023-02-19T09:57:32.848Z</time>
      </trkpt>
      <trkpt lat="50.52134" lon="1.58373">
        <ele>17</ele>
        <time>2023-02-19T09:57:37.852Z</time>
      </trkpt>
      <trkpt lat="50.52134" lon="1.58367">
        <ele>17</ele>
        <time>2023-02-19T09:59:07.689Z</time>
      </trkpt>
      <trkpt lat="50.52132" lon="1.58365">
        <ele>17</ele>
        <time>2023-02-19T09:59:12.706Z</time>
      </trkpt>
      <trkpt lat="50.52131" lon="1.58362">
        <ele>17</ele>
        <time>2023-02-19T09:59:17.246Z</time>
      </trkpt>
      <trkpt lat="50.52128" lon="1.58354">
        <ele>17</ele>
        <time>2023-02-19T09:59:21.666Z</time>
      </trkpt>
      <trkpt lat="50.52125" lon="1.58341">
        <ele>16</ele>
        <time>2023-02-19T09:59:25.690Z</time>
      </trkpt>
      <trkpt lat="50.52125" lon="1.5833">
        <ele>16</ele>
        <time>2023-02-19T09:59:30.103Z</time>
      </trkpt>
      <trkpt lat="50.52126" lon="1.5832">
        <ele>16</ele>
        <time>2023-02-19T09:59:34.052Z</time>
      </trkpt>
      <trkpt lat="50.52129" lon="1.5831">
        <ele>17</ele>
        <time>2023-02-19T09:59:38.233Z</time>
      </trkpt>
      <trkpt lat="50.52133" lon="1.58303">
        <ele>17</ele>
        <time>2023-02-19T09:59:42.294Z</time>
      </trkpt>
      <trkpt lat="50.52138" lon="1.58296">
        <ele>17</ele>
        <time>2023-02-19T09:59:46.898Z</time>
      </trkpt>
      <trkpt lat="50.5214" lon="1.58286">
        <ele>16</ele>
        <time>2023-02-19T09:59:51.373Z</time>
      </trkpt>
      <trkpt lat="50.52138" lon="1.58276">
        <ele>16</ele>
        <time>2023-02-19T09:59:55.434Z</time>
      </trkpt>
      <trkpt lat="50.5214" lon="1.58263">
        <ele>17</ele>
        <time>2023-02-19T09:59:59.375Z</time>
      </trkpt>
      <trkpt lat="50.52141" lon="1.58255">
        <ele>17</ele>
        <time>2023-02-19T10:00:03.306Z</time>
      </trkpt>
      <trkpt lat="50.52141" lon="1.58242">
        <ele>17</ele>
        <time>2023-02-19T10:00:07.249Z</time>
      </trkpt>
      <trkpt lat="50.52143" lon="1.58231">
        <ele>16</ele>
        <time>2023-02-19T10:00:11.310Z</time>
      </trkpt>
      <trkpt lat="50.52144" lon="1.58222">
        <ele>16</ele>
        <time>2023-02-19T10:00:15.968Z</time>
      </trkpt>
      <trkpt lat="50.52145" lon="1.58215">
        <ele>16</ele>
        <time>2023-02-19T10:00:20.388Z</time>
      </trkpt>
      <trkpt lat="50.52146" lon="1.58209">
        <ele>16</ele>
        <time>2023-02-19T10:00:24.328Z</time>
      </trkpt>
      <trkpt lat="50.52148" lon="1.582">
        <ele>17</ele>
        <time>2023-02-19T10:00:28.857Z</time>
      </trkpt>
      <trkpt lat="50.52149" lon="1.58193">
        <ele>17</ele>
        <time>2023-02-19T10:00:33.037Z</time>
      </trkpt>
      <trkpt lat="50.5215" lon="1.58182">
        <ele>17</ele>
        <time>2023-02-19T10:00:37.375Z</time>
      </trkpt>
      <trkpt lat="50.5215" lon="1.58172">
        <ele>17</ele>
        <time>2023-02-19T10:00:41.852Z</time>
      </trkpt>
      <trkpt lat="50.52151" lon="1.58164">
        <ele>17</ele>
        <time>2023-02-19T10:00:46.408Z</time>
      </trkpt>
      <trkpt lat="50.52154" lon="1.58163">
        <ele>18</ele>
        <time>2023-02-19T10:00:50.825Z</time>
      </trkpt>
      <trkpt lat="50.52156" lon="1.58154">
        <ele>18</ele>
        <time>2023-02-19T10:00:55.362Z</time>
      </trkpt>
      <trkpt lat="50.52156" lon="1.58146">
        <ele>18</ele>
        <time>2023-02-19T10:00:59.848Z</time>
      </trkpt>
      <trkpt lat="50.52156" lon="1.58138">
        <ele>18</ele>
        <time>2023-02-19T10:01:04.435Z</time>
      </trkpt>
      <trkpt lat="50.52156" lon="1.58128">
        <ele>18</ele>
        <time>2023-02-19T10:01:08.374Z</time>
      </trkpt>
      <trkpt lat="50.52157" lon="1.58116">
        <ele>18</ele>
        <time>2023-02-19T10:01:12.313Z</time>
      </trkpt>
      <trkpt lat="50.52158" lon="1.58105">
        <ele>18</ele>
        <time>2023-02-19T10:01:16.725Z</time>
      </trkpt>
      <trkpt lat="50.52159" lon="1.58096">
        <ele>16</ele>
        <time>2023-02-19T10:01:21.267Z</time>
      </trkpt>
      <trkpt lat="50.5216" lon="1.58087">
        <ele>16</ele>
        <time>2023-02-19T10:01:25.325Z</time>
      </trkpt>
      <trkpt lat="50.52163" lon="1.58066">
        <ele>15</ele>
        <time>2023-02-19T10:01:38.131Z</time>
      </trkpt>
      <trkpt lat="50.52163" lon="1.58058">
        <ele>15</ele>
        <time>2023-02-19T10:01:42.272Z</time>
      </trkpt>
      <trkpt lat="50.52163" lon="1.58048">
        <ele>15</ele>
        <time>2023-02-19T10:01:46.875Z</time>
      </trkpt>
      <trkpt lat="50.52158" lon="1.58043">
        <ele>15</ele>
        <time>2023-02-19T10:01:51.464Z</time>
      </trkpt>
      <trkpt lat="50.52151" lon="1.58041">
        <ele>11</ele>
        <time>2023-02-19T10:01:56.001Z</time>
      </trkpt>
      <trkpt lat="50.52145" lon="1.58037">
        <ele>11</ele>
        <time>2023-02-19T10:02:00.418Z</time>
      </trkpt>
      <trkpt lat="50.52139" lon="1.58035">
        <ele>11</ele>
        <time>2023-02-19T10:02:04.641Z</time>
      </trkpt>
      <trkpt lat="50.52133" lon="1.58033">
        <ele>11</ele>
        <time>2023-02-19T10:02:08.655Z</time>
      </trkpt>
      <trkpt lat="50.52127" lon="1.58032">
        <ele>11</ele>
        <time>2023-02-19T10:02:13.310Z</time>
      </trkpt>
      <trkpt lat="50.52121" lon="1.5803">
        <ele>12</ele>
        <time>2023-02-19T10:02:17.727Z</time>
      </trkpt>
      <trkpt lat="50.52114" lon="1.58029">
        <ele>12</ele>
        <time>2023-02-19T10:02:22.264Z</time>
      </trkpt>
      <trkpt lat="50.52108" lon="1.58027">
        <ele>12</ele>
        <time>2023-02-19T10:02:26.676Z</time>
      </trkpt>
      <trkpt lat="50.52103" lon="1.58026">
        <ele>12</ele>
        <time>2023-02-19T10:02:30.732Z</time>
      </trkpt>
      <trkpt lat="50.52098" lon="1.58025">
        <ele>12</ele>
        <time>2023-02-19T10:02:34.673Z</time>
      </trkpt>
      <trkpt lat="50.52093" lon="1.58021">
        <ele>12</ele>
        <time>2023-02-19T10:02:39.131Z</time>
      </trkpt>
      <trkpt lat="50.5209" lon="1.58012">
        <ele>10</ele>
        <time>2023-02-19T10:02:43.270Z</time>
      </trkpt>
      <trkpt lat="50.5209" lon="1.58003">
        <ele>10</ele>
        <time>2023-02-19T10:02:47.646Z</time>
      </trkpt>
      <trkpt lat="50.52087" lon="1.57993">
        <ele>10</ele>
        <time>2023-02-19T10:02:52.202Z</time>
      </trkpt>
      <trkpt lat="50.52087" lon="1.57984">
        <ele>8</ele>
        <time>2023-02-19T10:02:56.464Z</time>
      </trkpt>
      <trkpt lat="50.52086" lon="1.57974">
        <ele>8</ele>
        <time>2023-02-19T10:03:00.823Z</time>
      </trkpt>
      <trkpt lat="50.5208" lon="1.57972">
        <ele>8</ele>
        <time>2023-02-19T10:03:05.360Z</time>
      </trkpt>
      <trkpt lat="50.52073" lon="1.57971">
        <ele>8</ele>
        <time>2023-02-19T10:03:09.421Z</time>
      </trkpt>
      <trkpt lat="50.52067" lon="1.57968">
        <ele>9</ele>
        <time>2023-02-19T10:03:13.959Z</time>
      </trkpt>
      <trkpt lat="50.52061" lon="1.57965">
        <ele>9</ele>
        <time>2023-02-19T10:03:18.377Z</time>
      </trkpt>
      <trkpt lat="50.52055" lon="1.57964">
        <ele>9</ele>
        <time>2023-02-19T10:03:22.418Z</time>
      </trkpt>
      <trkpt lat="50.5205" lon="1.57963">
        <ele>9</ele>
        <time>2023-02-19T10:03:26.958Z</time>
      </trkpt>
      <trkpt lat="50.52044" lon="1.57961">
        <ele>9</ele>
        <time>2023-02-19T10:03:31.019Z</time>
      </trkpt>
      <trkpt lat="50.52038" lon="1.57959">
        <ele>10</ele>
        <time>2023-02-19T10:03:35.657Z</time>
      </trkpt>
      <trkpt lat="50.52033" lon="1.57957">
        <ele>7</ele>
        <time>2023-02-19T10:03:39.478Z</time>
      </trkpt>
      <trkpt lat="50.52027" lon="1.57957">
        <ele>7</ele>
        <time>2023-02-19T10:03:43.938Z</time>
      </trkpt>
      <trkpt lat="50.52022" lon="1.57956">
        <ele>7</ele>
        <time>2023-02-19T10:03:47.955Z</time>
      </trkpt>
      <trkpt lat="50.52016" lon="1.57954">
        <ele>7</ele>
        <time>2023-02-19T10:03:52.252Z</time>
      </trkpt>
      <trkpt lat="50.5201" lon="1.57952">
        <ele>9</ele>
        <time>2023-02-19T10:03:56.292Z</time>
      </trkpt>
      <trkpt lat="50.52005" lon="1.57949">
        <ele>9</ele>
        <time>2023-02-19T10:04:00.783Z</time>
      </trkpt>
      <trkpt lat="50.51999" lon="1.57949">
        <ele>9</ele>
        <time>2023-02-19T10:04:05.319Z</time>
      </trkpt>
      <trkpt lat="50.51993" lon="1.57947">
        <ele>9</ele>
        <time>2023-02-19T10:04:09.644Z</time>
      </trkpt>
      <trkpt lat="50.51987" lon="1.57947">
        <ele>9</ele>
        <time>2023-02-19T10:04:13.703Z</time>
      </trkpt>
      <trkpt lat="50.51981" lon="1.57945">
        <ele>9</ele>
        <time>2023-02-19T10:04:18.119Z</time>
      </trkpt>
      <trkpt lat="50.51975" lon="1.57943">
        <ele>9</ele>
        <time>2023-02-19T10:04:22.644Z</time>
      </trkpt>
      <trkpt lat="50.5197" lon="1.57941">
        <ele>9</ele>
        <time>2023-02-19T10:04:26.714Z</time>
      </trkpt>
      <trkpt lat="50.51963" lon="1.5794">
        <ele>9</ele>
        <time>2023-02-19T10:04:31.371Z</time>
      </trkpt>
      <trkpt lat="50.51958" lon="1.57939">
        <ele>10</ele>
        <time>2023-02-19T10:04:35.412Z</time>
      </trkpt>
      <trkpt lat="50.51952" lon="1.57937">
        <ele>10</ele>
        <time>2023-02-19T10:04:39.874Z</time>
      </trkpt>
      <trkpt lat="50.51944" lon="1.57935">
        <ele>10</ele>
        <time>2023-02-19T10:04:44.368Z</time>
      </trkpt>
      <trkpt lat="50.51939" lon="1.57934">
        <ele>10</ele>
        <time>2023-02-19T10:04:48.408Z</time>
      </trkpt>
      <trkpt lat="50.51934" lon="1.57932">
        <ele>10</ele>
        <time>2023-02-19T10:04:52.448Z</time>
      </trkpt>
      <trkpt lat="50.51928" lon="1.57934">
        <ele>11</ele>
        <time>2023-02-19T10:04:57.199Z</time>
      </trkpt>
      <trkpt lat="50.51922" lon="1.57932">
        <ele>11</ele>
        <time>2023-02-19T10:05:01.725Z</time>
      </trkpt>
      <trkpt lat="50.51916" lon="1.57931">
        <ele>11</ele>
        <time>2023-02-19T10:05:06.198Z</time>
      </trkpt>
      <trkpt lat="50.5191" lon="1.5793">
        <ele>8</ele>
        <time>2023-02-19T10:05:10.191Z</time>
      </trkpt>
      <trkpt lat="50.51904" lon="1.57929">
        <ele>8</ele>
        <time>2023-02-19T10:05:14.632Z</time>
      </trkpt>
      <trkpt lat="50.51899" lon="1.57928">
        <ele>9</ele>
        <time>2023-02-19T10:05:18.691Z</time>
      </trkpt>
      <trkpt lat="50.51893" lon="1.57927">
        <ele>9</ele>
        <time>2023-02-19T10:05:22.630Z</time>
      </trkpt>
      <trkpt lat="50.51887" lon="1.57927">
        <ele>9</ele>
        <time>2023-02-19T10:05:27.131Z</time>
      </trkpt>
      <trkpt lat="50.51881" lon="1.57926">
        <ele>9</ele>
        <time>2023-02-19T10:05:31.131Z</time>
      </trkpt>
      <trkpt lat="50.51875" lon="1.57924">
        <ele>9</ele>
        <time>2023-02-19T10:05:35.629Z</time>
      </trkpt>
      <trkpt lat="50.51869" lon="1.57924">
        <ele>10</ele>
        <time>2023-02-19T10:05:40.131Z</time>
      </trkpt>
      <trkpt lat="50.51863" lon="1.57924">
        <ele>10</ele>
        <time>2023-02-19T10:05:44.680Z</time>
      </trkpt>
      <trkpt lat="50.51857" lon="1.57923">
        <ele>10</ele>
        <time>2023-02-19T10:05:49.335Z</time>
      </trkpt>
      <trkpt lat="50.51851" lon="1.57921">
        <ele>10</ele>
        <time>2023-02-19T10:05:53.727Z</time>
      </trkpt>
      <trkpt lat="50.51846" lon="1.5792">
        <ele>11</ele>
        <time>2023-02-19T10:05:57.572Z</time>
      </trkpt>
      <trkpt lat="50.5184" lon="1.5792">
        <ele>11</ele>
        <time>2023-02-19T10:06:01.511Z</time>
      </trkpt>
      <trkpt lat="50.51834" lon="1.57919">
        <ele>11</ele>
        <time>2023-02-19T10:06:05.961Z</time>
      </trkpt>
      <trkpt lat="50.5183" lon="1.5792">
        <ele>11</ele>
        <time>2023-02-19T10:06:09.977Z</time>
      </trkpt>
      <trkpt lat="50.51823" lon="1.5792">
        <ele>11</ele>
        <time>2023-02-19T10:06:14.494Z</time>
      </trkpt>
      <trkpt lat="50.51817" lon="1.57919">
        <ele>11</ele>
        <time>2023-02-19T10:06:18.671Z</time>
      </trkpt>
      <trkpt lat="50.51812" lon="1.57918">
        <ele>11</ele>
        <time>2023-02-19T10:06:22.592Z</time>
      </trkpt>
      <trkpt lat="50.51807" lon="1.57913">
        <ele>11</ele>
        <time>2023-02-19T10:06:26.631Z</time>
      </trkpt>
      <trkpt lat="50.51799" lon="1.57917">
        <ele>11</ele>
        <time>2023-02-19T10:06:31.131Z</time>
      </trkpt>
      <trkpt lat="50.51793" lon="1.57917">
        <ele>11</ele>
        <time>2023-02-19T10:06:35.238Z</time>
      </trkpt>
      <trkpt lat="50.51788" lon="1.57915">
        <ele>10</ele>
        <time>2023-02-19T10:06:39.664Z</time>
      </trkpt>
      <trkpt lat="50.51781" lon="1.57912">
        <ele>10</ele>
        <time>2023-02-19T10:06:44.332Z</time>
      </trkpt>
      <trkpt lat="50.51775" lon="1.57912">
        <ele>10</ele>
        <time>2023-02-19T10:06:48.847Z</time>
      </trkpt>
      <trkpt lat="50.51769" lon="1.5791">
        <ele>10</ele>
        <time>2023-02-19T10:06:53.427Z</time>
      </trkpt>
      <trkpt lat="50.51764" lon="1.57906">
        <ele>10</ele>
        <time>2023-02-19T10:06:57.255Z</time>
      </trkpt>
      <trkpt lat="50.5176" lon="1.57902">
        <ele>8</ele>
        <time>2023-02-19T10:07:01.876Z</time>
      </trkpt>
      <trkpt lat="50.51754" lon="1.57899">
        <ele>8</ele>
        <time>2023-02-19T10:07:06.459Z</time>
      </trkpt>
      <trkpt lat="50.51748" lon="1.57898">
        <ele>8</ele>
        <time>2023-02-19T10:07:11.597Z</time>
      </trkpt>
      <trkpt lat="50.51742" lon="1.57899">
        <ele>8</ele>
        <time>2023-02-19T10:07:15.421Z</time>
      </trkpt>
      <trkpt lat="50.51736" lon="1.57898">
        <ele>6</ele>
        <time>2023-02-19T10:07:19.996Z</time>
      </trkpt>
      <trkpt lat="50.5173" lon="1.57898">
        <ele>6</ele>
        <time>2023-02-19T10:07:24.005Z</time>
      </trkpt>
      <trkpt lat="50.51723" lon="1.57897">
        <ele>6</ele>
        <time>2023-02-19T10:07:28.664Z</time>
      </trkpt>
      <trkpt lat="50.51718" lon="1.57896">
        <ele>6</ele>
        <time>2023-02-19T10:07:32.485Z</time>
      </trkpt>
      <trkpt lat="50.51712" lon="1.57896">
        <ele>6</ele>
        <time>2023-02-19T10:07:37.261Z</time>
      </trkpt>
      <trkpt lat="50.51708" lon="1.57895">
        <ele>7</ele>
        <time>2023-02-19T10:07:41.868Z</time>
      </trkpt>
      <trkpt lat="50.51703" lon="1.57895">
        <ele>7</ele>
        <time>2023-02-19T10:07:46.455Z</time>
      </trkpt>
      <trkpt lat="50.51698" lon="1.57893">
        <ele>7</ele>
        <time>2023-02-19T10:07:50.634Z</time>
      </trkpt>
      <trkpt lat="50.51691" lon="1.57892">
        <ele>7</ele>
        <time>2023-02-19T10:07:55.289Z</time>
      </trkpt>
      <trkpt lat="50.51682" lon="1.57892">
        <ele>7</ele>
        <time>2023-02-19T10:07:59.826Z</time>
      </trkpt>
      <trkpt lat="50.51673" lon="1.57891">
        <ele>9</ele>
        <time>2023-02-19T10:08:04.462Z</time>
      </trkpt>
      <trkpt lat="50.51668" lon="1.57888">
        <ele>9</ele>
        <time>2023-02-19T10:08:09.192Z</time>
      </trkpt>
      <trkpt lat="50.51663" lon="1.57887">
        <ele>9</ele>
        <time>2023-02-19T10:08:13.131Z</time>
      </trkpt>
      <trkpt lat="50.51658" lon="1.57888">
        <ele>9</ele>
        <time>2023-02-19T10:08:16.994Z</time>
      </trkpt>
      <trkpt lat="50.51653" lon="1.57889">
        <ele>10</ele>
        <time>2023-02-19T10:08:21.647Z</time>
      </trkpt>
      <trkpt lat="50.51647" lon="1.57888">
        <ele>10</ele>
        <time>2023-02-19T10:08:26.303Z</time>
      </trkpt>
      <trkpt lat="50.51641" lon="1.57888">
        <ele>10</ele>
        <time>2023-02-19T10:08:31.058Z</time>
      </trkpt>
      <trkpt lat="50.51634" lon="1.57886">
        <ele>10</ele>
        <time>2023-02-19T10:08:35.832Z</time>
      </trkpt>
      <trkpt lat="50.51628" lon="1.57884">
        <ele>10</ele>
        <time>2023-02-19T10:08:40.487Z</time>
      </trkpt>
      <trkpt lat="50.51622" lon="1.57884">
        <ele>12</ele>
        <time>2023-02-19T10:08:44.950Z</time>
      </trkpt>
      <trkpt lat="50.51616" lon="1.57885">
        <ele>12</ele>
        <time>2023-02-19T10:08:49.440Z</time>
      </trkpt>
      <trkpt lat="50.5161" lon="1.57884">
        <ele>12</ele>
        <time>2023-02-19T10:08:54.131Z</time>
      </trkpt>
      <trkpt lat="50.51604" lon="1.57882">
        <ele>12</ele>
        <time>2023-02-19T10:08:58.632Z</time>
      </trkpt>
      <trkpt lat="50.51597" lon="1.57881">
        <ele>16</ele>
        <time>2023-02-19T10:09:03.292Z</time>
      </trkpt>
      <trkpt lat="50.51591" lon="1.57881">
        <ele>16</ele>
        <time>2023-02-19T10:09:07.476Z</time>
      </trkpt>
      <trkpt lat="50.51585" lon="1.57882">
        <ele>16</ele>
        <time>2023-02-19T10:09:12.131Z</time>
      </trkpt>
      <trkpt lat="50.51578" lon="1.57881">
        <ele>16</ele>
        <time>2023-02-19T10:09:16.661Z</time>
      </trkpt>
      <trkpt lat="50.51573" lon="1.57879">
        <ele>16</ele>
        <time>2023-02-19T10:09:20.859Z</time>
      </trkpt>
      <trkpt lat="50.51566" lon="1.57877">
        <ele>19</ele>
        <time>2023-02-19T10:09:25.279Z</time>
      </trkpt>
      <trkpt lat="50.51561" lon="1.57878">
        <ele>19</ele>
        <time>2023-02-19T10:09:29.698Z</time>
      </trkpt>
      <trkpt lat="50.51556" lon="1.57877">
        <ele>19</ele>
        <time>2023-02-19T10:09:33.639Z</time>
      </trkpt>
      <trkpt lat="50.51551" lon="1.57878">
        <ele>19</ele>
        <time>2023-02-19T10:09:37.580Z</time>
      </trkpt>
      <trkpt lat="50.51544" lon="1.57876">
        <ele>19</ele>
        <time>2023-02-19T10:09:42.142Z</time>
      </trkpt>
      <trkpt lat="50.51539" lon="1.57875">
        <ele>15</ele>
        <time>2023-02-19T10:09:46.131Z</time>
      </trkpt>
      <trkpt lat="50.51534" lon="1.57873">
        <ele>15</ele>
        <time>2023-02-19T10:09:50.759Z</time>
      </trkpt>
      <trkpt lat="50.5153" lon="1.57872">
        <ele>15</ele>
        <time>2023-02-19T10:09:54.655Z</time>
      </trkpt>
      <trkpt lat="50.51524" lon="1.5787">
        <ele>15</ele>
        <time>2023-02-19T10:09:59.430Z</time>
      </trkpt>
      <trkpt lat="50.51519" lon="1.57869">
        <ele>15</ele>
        <time>2023-02-19T10:10:03.968Z</time>
      </trkpt>
      <trkpt lat="50.51513" lon="1.57868">
        <ele>15</ele>
        <time>2023-02-19T10:10:08.386Z</time>
      </trkpt>
      <trkpt lat="50.51507" lon="1.57867">
        <ele>15</ele>
        <time>2023-02-19T10:10:12.460Z</time>
      </trkpt>
      <trkpt lat="50.51501" lon="1.57866">
        <ele>15</ele>
        <time>2023-02-19T10:10:16.599Z</time>
      </trkpt>
      <trkpt lat="50.51495" lon="1.57865">
        <ele>15</ele>
        <time>2023-02-19T10:10:21.045Z</time>
      </trkpt>
      <trkpt lat="50.51489" lon="1.57865">
        <ele>15</ele>
        <time>2023-02-19T10:10:25.701Z</time>
      </trkpt>
      <trkpt lat="50.51485" lon="1.57864">
        <ele>16</ele>
        <time>2023-02-19T10:10:29.643Z</time>
      </trkpt>
      <trkpt lat="50.5148" lon="1.57862">
        <ele>16</ele>
        <time>2023-02-19T10:10:33.703Z</time>
      </trkpt>
      <trkpt lat="50.51472" lon="1.5786">
        <ele>16</ele>
        <time>2023-02-19T10:10:38.802Z</time>
      </trkpt>
      <trkpt lat="50.51467" lon="1.57861">
        <ele>16</ele>
        <time>2023-02-19T10:10:42.655Z</time>
      </trkpt>
      <trkpt lat="50.5146" lon="1.57861">
        <ele>16</ele>
        <time>2023-02-19T10:10:47.331Z</time>
      </trkpt>
      <trkpt lat="50.51454" lon="1.57861">
        <ele>17</ele>
        <time>2023-02-19T10:10:51.748Z</time>
      </trkpt>
      <trkpt lat="50.51448" lon="1.57859">
        <ele>17</ele>
        <time>2023-02-19T10:10:56.298Z</time>
      </trkpt>
      <trkpt lat="50.51442" lon="1.57858">
        <ele>17</ele>
        <time>2023-02-19T10:11:00.461Z</time>
      </trkpt>
      <trkpt lat="50.51437" lon="1.57857">
        <ele>17</ele>
        <time>2023-02-19T10:11:04.543Z</time>
      </trkpt>
      <trkpt lat="50.51432" lon="1.57855">
        <ele>17</ele>
        <time>2023-02-19T10:11:08.562Z</time>
      </trkpt>
      <trkpt lat="50.51426" lon="1.57854">
        <ele>17</ele>
        <time>2023-02-19T10:11:12.635Z</time>
      </trkpt>
      <trkpt lat="50.5142" lon="1.57853">
        <ele>17</ele>
        <time>2023-02-19T10:11:17.774Z</time>
      </trkpt>
      <trkpt lat="50.51414" lon="1.57859">
        <ele>17</ele>
        <time>2023-02-19T10:11:21.836Z</time>
      </trkpt>
      <trkpt lat="50.51408" lon="1.57864">
        <ele>17</ele>
        <time>2023-02-19T10:11:26.321Z</time>
      </trkpt>
      <trkpt lat="50.51403" lon="1.57863">
        <ele>17</ele>
        <time>2023-02-19T10:11:30.439Z</time>
      </trkpt>
      <trkpt lat="50.51398" lon="1.57862">
        <ele>17</ele>
        <time>2023-02-19T10:11:34.621Z</time>
      </trkpt>
      <trkpt lat="50.51392" lon="1.57858">
        <ele>17</ele>
        <time>2023-02-19T10:11:39.131Z</time>
      </trkpt>
      <trkpt lat="50.51389" lon="1.57849">
        <ele>17</ele>
        <time>2023-02-19T10:11:43.603Z</time>
      </trkpt>
      <trkpt lat="50.51384" lon="1.57838">
        <ele>15</ele>
        <time>2023-02-19T10:11:48.131Z</time>
      </trkpt>
      <trkpt lat="50.51381" lon="1.57843">
        <ele>15</ele>
        <time>2023-02-19T10:13:24.650Z</time>
      </trkpt>
      <trkpt lat="50.51385" lon="1.57842">
        <ele>15</ele>
        <time>2023-02-19T10:13:29.435Z</time>
      </trkpt>
      <trkpt lat="50.51393" lon="1.57837">
        <ele>15</ele>
        <time>2023-02-19T10:13:34.100Z</time>
      </trkpt>
      <trkpt lat="50.51399" lon="1.57838">
        <ele>15</ele>
        <time>2023-02-19T10:13:38.131Z</time>
      </trkpt>
      <trkpt lat="50.51403" lon="1.57833">
        <ele>15</ele>
        <time>2023-02-19T10:13:42.715Z</time>
      </trkpt>
      <trkpt lat="50.51404" lon="1.57829">
        <ele>15</ele>
        <time>2023-02-19T10:13:47.263Z</time>
      </trkpt>
      <trkpt lat="50.51405" lon="1.57824">
        <ele>15</ele>
        <time>2023-02-19T10:13:51.131Z</time>
      </trkpt>
      <trkpt lat="50.51407" lon="1.57821">
        <ele>15</ele>
        <time>2023-02-19T10:13:55.642Z</time>
      </trkpt>
      <trkpt lat="50.51413" lon="1.57814">
        <ele>13</ele>
        <time>2023-02-19T10:14:00.842Z</time>
      </trkpt>
      <trkpt lat="50.51415" lon="1.5781">
        <ele>13</ele>
        <time>2023-02-19T10:14:05.460Z</time>
      </trkpt>
      <trkpt lat="50.51415" lon="1.57807">
        <ele>13</ele>
        <time>2023-02-19T10:14:09.638Z</time>
      </trkpt>
      <trkpt lat="50.51414" lon="1.57803">
        <ele>13</ele>
        <time>2023-02-19T10:14:13.705Z</time>
      </trkpt>
      <trkpt lat="50.51411" lon="1.57798">
        <ele>13</ele>
        <time>2023-02-19T10:14:18.254Z</time>
      </trkpt>
      <trkpt lat="50.51408" lon="1.57791">
        <ele>15</ele>
        <time>2023-02-19T10:14:22.322Z</time>
      </trkpt>
      <trkpt lat="50.51398" lon="1.57794">
        <ele>13</ele>
        <time>2023-02-19T10:14:43.493Z</time>
      </trkpt>
      <trkpt lat="50.51397" lon="1.57793">
        <ele>13</ele>
        <time>2023-02-19T10:14:48.141Z</time>
      </trkpt>
      <trkpt lat="50.51394" lon="1.57795">
        <ele>13</ele>
        <time>2023-02-19T10:14:52.344Z</time>
      </trkpt>
      <trkpt lat="50.5139" lon="1.57798">
        <ele>13</ele>
        <time>2023-02-19T10:14:57.128Z</time>
      </trkpt>
      <trkpt lat="50.51384" lon="1.57799">
        <ele>13</ele>
        <time>2023-02-19T10:15:01.910Z</time>
      </trkpt>
      <trkpt lat="50.51379" lon="1.57799">
        <ele>13</ele>
        <time>2023-02-19T10:15:06.523Z</time>
      </trkpt>
      <trkpt lat="50.51372" lon="1.57796">
        <ele>13</ele>
        <time>2023-02-19T10:15:11.036Z</time>
      </trkpt>
      <trkpt lat="50.51367" lon="1.57794">
        <ele>13</ele>
        <time>2023-02-19T10:15:15.059Z</time>
      </trkpt>
      <trkpt lat="50.51362" lon="1.57791">
        <ele>12</ele>
        <time>2023-02-19T10:15:19.683Z</time>
      </trkpt>
      <trkpt lat="50.51358" lon="1.57789">
        <ele>12</ele>
        <time>2023-02-19T10:15:23.543Z</time>
      </trkpt>
      <trkpt lat="50.51353" lon="1.57785">
        <ele>12</ele>
        <time>2023-02-19T10:15:28.257Z</time>
      </trkpt>
      <trkpt lat="50.51349" lon="1.57784">
        <ele>12</ele>
        <time>2023-02-19T10:15:32.271Z</time>
      </trkpt>
      <trkpt lat="50.51341" lon="1.57783">
        <ele>12</ele>
        <time>2023-02-19T10:15:39.088Z</time>
      </trkpt>
      <trkpt lat="50.51337" lon="1.57776">
        <ele>12</ele>
        <time>2023-02-19T10:15:43.871Z</time>
      </trkpt>
      <trkpt lat="50.51337" lon="1.57773">
        <ele>12</ele>
        <time>2023-02-19T10:15:49.254Z</time>
      </trkpt>
      <trkpt lat="50.51337" lon="1.57771">
        <ele>12</ele>
        <time>2023-02-19T10:15:53.880Z</time>
      </trkpt>
      <trkpt lat="50.51339" lon="1.57771">
        <ele>12</ele>
        <time>2023-02-19T10:15:59.185Z</time>
      </trkpt>
      <trkpt lat="50.51357" lon="1.57751">
        <ele>10</ele>
        <time>2023-02-19T10:16:03.827Z</time>
      </trkpt>
    </trkseg>
  </trk>
</gpx>